<?xml version="1.0" encoding="UTF-8" standalone="no" ?>
<gpx xmlns="http://www.topografix.com/GPX/1/1" xmlns:xsi="http://www.w3.org/2001/XMLSchema-instance" xsi:schemaLocation="http://www.topografix.com/GPX/1/1 http://www.topografix.com/GPX/1/1/gpx.xsd" version="1.1" creator="VisuGPX - https://www.visugpx.com">
  <metadata>
    <name>De Fontainebleau aux vignes des Longs Sillons de Thomery</name>
    <desc><![CDATA[Voici une belle balade de 22 km qui vous conduira de la lisière de la forêt de Fontainebleau jusqu'aux Longs Sillons de Thomery, connu jadis pour ses 300 km de murs  de vignes ou poussait un délicieux Chasselas. 
A retrouver aussi sur [url]http://trekkingzone.wordpress.com[/url]]]></desc>
  </metadata>
  <trk>
    <name><![CDATA[26 août 2018 à 09:32:50]]></name>
    <cmt><![CDATA[26 août 2018 à 09:32:50]]></cmt>
    <trkseg>
      <trkpt lat="48.41585" lon="2.72718">
        <ele>91</ele>
        <time>2018-08-26T07:32:51Z</time>
      </trkpt>
      <trkpt lat="48.41585" lon="2.72718">
        <ele>89</ele>
        <time>2018-08-26T07:32:52Z</time>
      </trkpt>
      <trkpt lat="48.41585" lon="2.72726">
        <ele>88</ele>
        <time>2018-08-26T07:32:57Z</time>
      </trkpt>
      <trkpt lat="48.41583" lon="2.72732">
        <ele>87</ele>
        <time>2018-08-26T07:33:11Z</time>
      </trkpt>
      <trkpt lat="48.41581" lon="2.72737">
        <ele>83</ele>
        <time>2018-08-26T07:35:46Z</time>
      </trkpt>
      <trkpt lat="48.41585" lon="2.72741">
        <ele>83</ele>
        <time>2018-08-26T07:35:52Z</time>
      </trkpt>
      <trkpt lat="48.41589" lon="2.72754">
        <ele>80</ele>
        <time>2018-08-26T07:36:05Z</time>
      </trkpt>
      <trkpt lat="48.41584" lon="2.72754">
        <ele>78</ele>
        <time>2018-08-26T07:36:23Z</time>
      </trkpt>
      <trkpt lat="48.41579" lon="2.72755">
        <ele>78</ele>
        <time>2018-08-26T07:36:28Z</time>
      </trkpt>
      <trkpt lat="48.4157" lon="2.72751">
        <ele>78</ele>
        <time>2018-08-26T07:36:37Z</time>
      </trkpt>
      <trkpt lat="48.41565" lon="2.72747">
        <ele>77</ele>
        <time>2018-08-26T07:36:42Z</time>
      </trkpt>
      <trkpt lat="48.41557" lon="2.72737">
        <ele>77</ele>
        <time>2018-08-26T07:36:51Z</time>
      </trkpt>
      <trkpt lat="48.41553" lon="2.72734">
        <ele>77</ele>
        <time>2018-08-26T07:36:55Z</time>
      </trkpt>
      <trkpt lat="48.41547" lon="2.72734">
        <ele>77</ele>
        <time>2018-08-26T07:36:59Z</time>
      </trkpt>
      <trkpt lat="48.41518" lon="2.72724">
        <ele>76</ele>
        <time>2018-08-26T07:37:28Z</time>
      </trkpt>
      <trkpt lat="48.41513" lon="2.72724">
        <ele>75</ele>
        <time>2018-08-26T07:37:32Z</time>
      </trkpt>
      <trkpt lat="48.41506" lon="2.72735">
        <ele>75</ele>
        <time>2018-08-26T07:37:40Z</time>
      </trkpt>
      <trkpt lat="48.41501" lon="2.72736">
        <ele>75</ele>
        <time>2018-08-26T07:37:44Z</time>
      </trkpt>
      <trkpt lat="48.41504" lon="2.72746">
        <ele>74</ele>
        <time>2018-08-26T07:37:59Z</time>
      </trkpt>
      <trkpt lat="48.41511" lon="2.72756">
        <ele>74</ele>
        <time>2018-08-26T07:38:08Z</time>
      </trkpt>
      <trkpt lat="48.41517" lon="2.72768">
        <ele>74</ele>
        <time>2018-08-26T07:38:17Z</time>
      </trkpt>
      <trkpt lat="48.41519" lon="2.72775">
        <ele>74</ele>
        <time>2018-08-26T07:38:22Z</time>
      </trkpt>
      <trkpt lat="48.41541" lon="2.72815">
        <ele>75</ele>
        <time>2018-08-26T07:38:52Z</time>
      </trkpt>
      <trkpt lat="48.41551" lon="2.72821">
        <ele>75</ele>
        <time>2018-08-26T07:39:03Z</time>
      </trkpt>
      <trkpt lat="48.41555" lon="2.72828">
        <ele>75</ele>
        <time>2018-08-26T07:39:07Z</time>
      </trkpt>
      <trkpt lat="48.41569" lon="2.7285">
        <ele>75</ele>
        <time>2018-08-26T07:39:24Z</time>
      </trkpt>
      <trkpt lat="48.41572" lon="2.72857">
        <ele>75</ele>
        <time>2018-08-26T07:39:29Z</time>
      </trkpt>
      <trkpt lat="48.41586" lon="2.72886">
        <ele>76</ele>
        <time>2018-08-26T07:39:51Z</time>
      </trkpt>
      <trkpt lat="48.41586" lon="2.72894">
        <ele>76</ele>
        <time>2018-08-26T07:39:55Z</time>
      </trkpt>
      <trkpt lat="48.41589" lon="2.72901">
        <ele>76</ele>
        <time>2018-08-26T07:39:59Z</time>
      </trkpt>
      <trkpt lat="48.41602" lon="2.72922">
        <ele>76</ele>
        <time>2018-08-26T07:40:14Z</time>
      </trkpt>
      <trkpt lat="48.4161" lon="2.72945">
        <ele>77</ele>
        <time>2018-08-26T07:40:26Z</time>
      </trkpt>
      <trkpt lat="48.41614" lon="2.72952">
        <ele>77</ele>
        <time>2018-08-26T07:40:29Z</time>
      </trkpt>
      <trkpt lat="48.41618" lon="2.72966">
        <ele>77</ele>
        <time>2018-08-26T07:40:36Z</time>
      </trkpt>
      <trkpt lat="48.41625" lon="2.72976">
        <ele>77</ele>
        <time>2018-08-26T07:40:43Z</time>
      </trkpt>
      <trkpt lat="48.41612" lon="2.72989">
        <ele>76</ele>
        <time>2018-08-26T07:40:54Z</time>
      </trkpt>
      <trkpt lat="48.41593" lon="2.73001">
        <ele>75</ele>
        <time>2018-08-26T07:41:13Z</time>
      </trkpt>
      <trkpt lat="48.4159" lon="2.73007">
        <ele>74</ele>
        <time>2018-08-26T07:41:16Z</time>
      </trkpt>
      <trkpt lat="48.41587" lon="2.73014">
        <ele>74</ele>
        <time>2018-08-26T07:41:20Z</time>
      </trkpt>
      <trkpt lat="48.41577" lon="2.73023">
        <ele>72</ele>
        <time>2018-08-26T07:41:29Z</time>
      </trkpt>
      <trkpt lat="48.4157" lon="2.73033">
        <ele>71</ele>
        <time>2018-08-26T07:41:37Z</time>
      </trkpt>
      <trkpt lat="48.41559" lon="2.73036">
        <ele>70</ele>
        <time>2018-08-26T07:41:44Z</time>
      </trkpt>
      <trkpt lat="48.41556" lon="2.73038">
        <ele>70</ele>
        <time>2018-08-26T07:41:47Z</time>
      </trkpt>
      <trkpt lat="48.41547" lon="2.73047">
        <ele>69</ele>
        <time>2018-08-26T07:41:55Z</time>
      </trkpt>
      <trkpt lat="48.41543" lon="2.7305">
        <ele>69</ele>
        <time>2018-08-26T07:42:00Z</time>
      </trkpt>
      <trkpt lat="48.41526" lon="2.73069">
        <ele>67</ele>
        <time>2018-08-26T07:42:15Z</time>
      </trkpt>
      <trkpt lat="48.41521" lon="2.73068">
        <ele>66</ele>
        <time>2018-08-26T07:42:21Z</time>
      </trkpt>
      <trkpt lat="48.41519" lon="2.73086">
        <ele>65</ele>
        <time>2018-08-26T07:42:33Z</time>
      </trkpt>
      <trkpt lat="48.41521" lon="2.731">
        <ele>64</ele>
        <time>2018-08-26T07:42:41Z</time>
      </trkpt>
      <trkpt lat="48.41521" lon="2.73107">
        <ele>64</ele>
        <time>2018-08-26T07:42:45Z</time>
      </trkpt>
      <trkpt lat="48.4152" lon="2.73114">
        <ele>63</ele>
        <time>2018-08-26T07:42:50Z</time>
      </trkpt>
      <trkpt lat="48.41518" lon="2.73139">
        <ele>62</ele>
        <time>2018-08-26T07:43:02Z</time>
      </trkpt>
      <trkpt lat="48.41514" lon="2.73145">
        <ele>61</ele>
        <time>2018-08-26T07:43:06Z</time>
      </trkpt>
      <trkpt lat="48.4151" lon="2.73148">
        <ele>61</ele>
        <time>2018-08-26T07:43:09Z</time>
      </trkpt>
      <trkpt lat="48.41505" lon="2.73147">
        <ele>61</ele>
        <time>2018-08-26T07:43:13Z</time>
      </trkpt>
      <trkpt lat="48.415" lon="2.73145">
        <ele>61</ele>
        <time>2018-08-26T07:43:17Z</time>
      </trkpt>
      <trkpt lat="48.41492" lon="2.73148">
        <ele>61</ele>
        <time>2018-08-26T07:43:27Z</time>
      </trkpt>
      <trkpt lat="48.41487" lon="2.7315">
        <ele>61</ele>
        <time>2018-08-26T07:43:32Z</time>
      </trkpt>
      <trkpt lat="48.41482" lon="2.73154">
        <ele>61</ele>
        <time>2018-08-26T07:43:36Z</time>
      </trkpt>
      <trkpt lat="48.41475" lon="2.73163">
        <ele>61</ele>
        <time>2018-08-26T07:43:44Z</time>
      </trkpt>
      <trkpt lat="48.41452" lon="2.73205">
        <ele>60</ele>
        <time>2018-08-26T07:44:15Z</time>
      </trkpt>
      <trkpt lat="48.41437" lon="2.73238">
        <ele>61</ele>
        <time>2018-08-26T07:44:33Z</time>
      </trkpt>
      <trkpt lat="48.4143" lon="2.73249">
        <ele>61</ele>
        <time>2018-08-26T07:44:41Z</time>
      </trkpt>
      <trkpt lat="48.41422" lon="2.73268">
        <ele>61</ele>
        <time>2018-08-26T07:44:54Z</time>
      </trkpt>
      <trkpt lat="48.41414" lon="2.73277">
        <ele>61</ele>
        <time>2018-08-26T07:45:02Z</time>
      </trkpt>
      <trkpt lat="48.41407" lon="2.7329">
        <ele>61</ele>
        <time>2018-08-26T07:45:12Z</time>
      </trkpt>
      <trkpt lat="48.41406" lon="2.73321">
        <ele>62</ele>
        <time>2018-08-26T07:45:27Z</time>
      </trkpt>
      <trkpt lat="48.41402" lon="2.73342">
        <ele>63</ele>
        <time>2018-08-26T07:45:41Z</time>
      </trkpt>
      <trkpt lat="48.41399" lon="2.73365">
        <ele>64</ele>
        <time>2018-08-26T07:45:53Z</time>
      </trkpt>
      <trkpt lat="48.41386" lon="2.73407">
        <ele>68</ele>
        <time>2018-08-26T07:46:21Z</time>
      </trkpt>
      <trkpt lat="48.41381" lon="2.73416">
        <ele>68</ele>
        <time>2018-08-26T07:46:27Z</time>
      </trkpt>
      <trkpt lat="48.41377" lon="2.7342">
        <ele>69</ele>
        <time>2018-08-26T07:46:32Z</time>
      </trkpt>
      <trkpt lat="48.41376" lon="2.73427">
        <ele>69</ele>
        <time>2018-08-26T07:46:36Z</time>
      </trkpt>
      <trkpt lat="48.41373" lon="2.73433">
        <ele>70</ele>
        <time>2018-08-26T07:46:40Z</time>
      </trkpt>
      <trkpt lat="48.41368" lon="2.73451">
        <ele>71</ele>
        <time>2018-08-26T07:46:52Z</time>
      </trkpt>
      <trkpt lat="48.41363" lon="2.73458">
        <ele>72</ele>
        <time>2018-08-26T07:46:59Z</time>
      </trkpt>
      <trkpt lat="48.41351" lon="2.73491">
        <ele>75</ele>
        <time>2018-08-26T07:47:22Z</time>
      </trkpt>
      <trkpt lat="48.4134" lon="2.73508">
        <ele>76</ele>
        <time>2018-08-26T07:47:36Z</time>
      </trkpt>
      <trkpt lat="48.41339" lon="2.73531">
        <ele>78</ele>
        <time>2018-08-26T07:47:49Z</time>
      </trkpt>
      <trkpt lat="48.41337" lon="2.73538">
        <ele>79</ele>
        <time>2018-08-26T07:47:53Z</time>
      </trkpt>
      <trkpt lat="48.41331" lon="2.73548">
        <ele>80</ele>
        <time>2018-08-26T07:48:02Z</time>
      </trkpt>
      <trkpt lat="48.4133" lon="2.73558">
        <ele>80</ele>
        <time>2018-08-26T07:48:10Z</time>
      </trkpt>
      <trkpt lat="48.41331" lon="2.73566">
        <ele>81</ele>
        <time>2018-08-26T07:48:14Z</time>
      </trkpt>
      <trkpt lat="48.41355" lon="2.7362">
        <ele>80</ele>
        <time>2018-08-26T07:48:51Z</time>
      </trkpt>
      <trkpt lat="48.41358" lon="2.73627">
        <ele>80</ele>
        <time>2018-08-26T07:48:55Z</time>
      </trkpt>
      <trkpt lat="48.41362" lon="2.73633">
        <ele>80</ele>
        <time>2018-08-26T07:48:59Z</time>
      </trkpt>
      <trkpt lat="48.41365" lon="2.7364">
        <ele>80</ele>
        <time>2018-08-26T07:49:04Z</time>
      </trkpt>
      <trkpt lat="48.41367" lon="2.7365">
        <ele>80</ele>
        <time>2018-08-26T07:49:12Z</time>
      </trkpt>
      <trkpt lat="48.41371" lon="2.73655">
        <ele>80</ele>
        <time>2018-08-26T07:49:16Z</time>
      </trkpt>
      <trkpt lat="48.41376" lon="2.73658">
        <ele>80</ele>
        <time>2018-08-26T07:49:20Z</time>
      </trkpt>
      <trkpt lat="48.41379" lon="2.73664">
        <ele>80</ele>
        <time>2018-08-26T07:49:24Z</time>
      </trkpt>
      <trkpt lat="48.41407" lon="2.73694">
        <ele>80</ele>
        <time>2018-08-26T07:49:52Z</time>
      </trkpt>
      <trkpt lat="48.41412" lon="2.73695">
        <ele>80</ele>
        <time>2018-08-26T07:49:57Z</time>
      </trkpt>
      <trkpt lat="48.41416" lon="2.73702">
        <ele>80</ele>
        <time>2018-08-26T07:50:02Z</time>
      </trkpt>
      <trkpt lat="48.41419" lon="2.73708">
        <ele>80</ele>
        <time>2018-08-26T07:50:06Z</time>
      </trkpt>
      <trkpt lat="48.41426" lon="2.73718">
        <ele>80</ele>
        <time>2018-08-26T07:50:13Z</time>
      </trkpt>
      <trkpt lat="48.41444" lon="2.73733">
        <ele>81</ele>
        <time>2018-08-26T07:50:30Z</time>
      </trkpt>
      <trkpt lat="48.4145" lon="2.73744">
        <ele>81</ele>
        <time>2018-08-26T07:50:38Z</time>
      </trkpt>
      <trkpt lat="48.41458" lon="2.73753">
        <ele>81</ele>
        <time>2018-08-26T07:50:45Z</time>
      </trkpt>
      <trkpt lat="48.41461" lon="2.73758">
        <ele>81</ele>
        <time>2018-08-26T07:50:48Z</time>
      </trkpt>
      <trkpt lat="48.41475" lon="2.7377">
        <ele>82</ele>
        <time>2018-08-26T07:51:00Z</time>
      </trkpt>
      <trkpt lat="48.41482" lon="2.73779">
        <ele>82</ele>
        <time>2018-08-26T07:51:08Z</time>
      </trkpt>
      <trkpt lat="48.41484" lon="2.73795">
        <ele>82</ele>
        <time>2018-08-26T07:51:18Z</time>
      </trkpt>
      <trkpt lat="48.41489" lon="2.73798">
        <ele>82</ele>
        <time>2018-08-26T07:51:23Z</time>
      </trkpt>
      <trkpt lat="48.415" lon="2.738">
        <ele>83</ele>
        <time>2018-08-26T07:51:30Z</time>
      </trkpt>
      <trkpt lat="48.41502" lon="2.73807">
        <ele>83</ele>
        <time>2018-08-26T07:51:34Z</time>
      </trkpt>
      <trkpt lat="48.41507" lon="2.73809">
        <ele>83</ele>
        <time>2018-08-26T07:51:38Z</time>
      </trkpt>
      <trkpt lat="48.41512" lon="2.73809">
        <ele>83</ele>
        <time>2018-08-26T07:51:41Z</time>
      </trkpt>
      <trkpt lat="48.41517" lon="2.73812">
        <ele>83</ele>
        <time>2018-08-26T07:51:45Z</time>
      </trkpt>
      <trkpt lat="48.41521" lon="2.73815">
        <ele>84</ele>
        <time>2018-08-26T07:51:49Z</time>
      </trkpt>
      <trkpt lat="48.41536" lon="2.73826">
        <ele>84</ele>
        <time>2018-08-26T07:52:03Z</time>
      </trkpt>
      <trkpt lat="48.41544" lon="2.73836">
        <ele>85</ele>
        <time>2018-08-26T07:52:10Z</time>
      </trkpt>
      <trkpt lat="48.41553" lon="2.73856">
        <ele>86</ele>
        <time>2018-08-26T07:52:21Z</time>
      </trkpt>
      <trkpt lat="48.41557" lon="2.73862">
        <ele>86</ele>
        <time>2018-08-26T07:52:25Z</time>
      </trkpt>
      <trkpt lat="48.41562" lon="2.73866">
        <ele>86</ele>
        <time>2018-08-26T07:52:29Z</time>
      </trkpt>
      <trkpt lat="48.41567" lon="2.73865">
        <ele>86</ele>
        <time>2018-08-26T07:52:34Z</time>
      </trkpt>
      <trkpt lat="48.41571" lon="2.73871">
        <ele>86</ele>
        <time>2018-08-26T07:52:37Z</time>
      </trkpt>
      <trkpt lat="48.41575" lon="2.73885">
        <ele>87</ele>
        <time>2018-08-26T07:52:45Z</time>
      </trkpt>
      <trkpt lat="48.4158" lon="2.73888">
        <ele>86</ele>
        <time>2018-08-26T07:52:50Z</time>
      </trkpt>
      <trkpt lat="48.41589" lon="2.73908">
        <ele>87</ele>
        <time>2018-08-26T07:53:03Z</time>
      </trkpt>
      <trkpt lat="48.41592" lon="2.73913">
        <ele>87</ele>
        <time>2018-08-26T07:53:07Z</time>
      </trkpt>
      <trkpt lat="48.416" lon="2.73925">
        <ele>87</ele>
        <time>2018-08-26T07:53:17Z</time>
      </trkpt>
      <trkpt lat="48.41604" lon="2.73928">
        <ele>87</ele>
        <time>2018-08-26T07:53:22Z</time>
      </trkpt>
      <trkpt lat="48.41609" lon="2.73931">
        <ele>87</ele>
        <time>2018-08-26T07:53:34Z</time>
      </trkpt>
      <trkpt lat="48.41612" lon="2.73939">
        <ele>87</ele>
        <time>2018-08-26T07:53:39Z</time>
      </trkpt>
      <trkpt lat="48.41623" lon="2.73943">
        <ele>88</ele>
        <time>2018-08-26T07:54:04Z</time>
      </trkpt>
      <trkpt lat="48.41632" lon="2.73944">
        <ele>88</ele>
        <time>2018-08-26T07:54:11Z</time>
      </trkpt>
      <trkpt lat="48.41643" lon="2.73948">
        <ele>88</ele>
        <time>2018-08-26T07:54:24Z</time>
      </trkpt>
      <trkpt lat="48.41658" lon="2.73953">
        <ele>88</ele>
        <time>2018-08-26T07:54:40Z</time>
      </trkpt>
      <trkpt lat="48.41662" lon="2.73958">
        <ele>88</ele>
        <time>2018-08-26T07:54:49Z</time>
      </trkpt>
      <trkpt lat="48.41663" lon="2.73965">
        <ele>88</ele>
        <time>2018-08-26T07:54:59Z</time>
      </trkpt>
      <trkpt lat="48.41669" lon="2.73961">
        <ele>88</ele>
        <time>2018-08-26T07:56:11Z</time>
      </trkpt>
      <trkpt lat="48.41674" lon="2.73958">
        <ele>87</ele>
        <time>2018-08-26T07:59:53Z</time>
      </trkpt>
      <trkpt lat="48.41685" lon="2.73958">
        <ele>87</ele>
        <time>2018-08-26T08:00:03Z</time>
      </trkpt>
      <trkpt lat="48.41689" lon="2.73959">
        <ele>87</ele>
        <time>2018-08-26T08:00:08Z</time>
      </trkpt>
      <trkpt lat="48.41708" lon="2.73972">
        <ele>87</ele>
        <time>2018-08-26T08:00:22Z</time>
      </trkpt>
      <trkpt lat="48.4172" lon="2.73974">
        <ele>86</ele>
        <time>2018-08-26T08:00:35Z</time>
      </trkpt>
      <trkpt lat="48.41723" lon="2.73978">
        <ele>86</ele>
        <time>2018-08-26T08:00:40Z</time>
      </trkpt>
      <trkpt lat="48.41728" lon="2.7398">
        <ele>86</ele>
        <time>2018-08-26T08:00:45Z</time>
      </trkpt>
      <trkpt lat="48.41734" lon="2.73979">
        <ele>86</ele>
        <time>2018-08-26T08:00:50Z</time>
      </trkpt>
      <trkpt lat="48.41766" lon="2.73991">
        <ele>86</ele>
        <time>2018-08-26T08:01:14Z</time>
      </trkpt>
      <trkpt lat="48.41776" lon="2.73993">
        <ele>86</ele>
        <time>2018-08-26T08:01:23Z</time>
      </trkpt>
      <trkpt lat="48.41785" lon="2.73998">
        <ele>86</ele>
        <time>2018-08-26T08:01:32Z</time>
      </trkpt>
      <trkpt lat="48.41789" lon="2.73999">
        <ele>86</ele>
        <time>2018-08-26T08:01:35Z</time>
      </trkpt>
      <trkpt lat="48.41799" lon="2.73998">
        <ele>86</ele>
        <time>2018-08-26T08:01:43Z</time>
      </trkpt>
      <trkpt lat="48.41832" lon="2.74013">
        <ele>86</ele>
        <time>2018-08-26T08:02:12Z</time>
      </trkpt>
      <trkpt lat="48.41845" lon="2.74014">
        <ele>86</ele>
        <time>2018-08-26T08:02:25Z</time>
      </trkpt>
      <trkpt lat="48.41866" lon="2.74021">
        <ele>85</ele>
        <time>2018-08-26T08:02:38Z</time>
      </trkpt>
      <trkpt lat="48.41875" lon="2.7402">
        <ele>85</ele>
        <time>2018-08-26T08:02:44Z</time>
      </trkpt>
      <trkpt lat="48.41885" lon="2.74023">
        <ele>85</ele>
        <time>2018-08-26T08:02:52Z</time>
      </trkpt>
      <trkpt lat="48.41892" lon="2.74032">
        <ele>85</ele>
        <time>2018-08-26T08:02:57Z</time>
      </trkpt>
      <trkpt lat="48.41913" lon="2.74034">
        <ele>84</ele>
        <time>2018-08-26T08:03:11Z</time>
      </trkpt>
      <trkpt lat="48.41946" lon="2.74055">
        <ele>84</ele>
        <time>2018-08-26T08:03:35Z</time>
      </trkpt>
      <trkpt lat="48.4195" lon="2.74055">
        <ele>84</ele>
        <time>2018-08-26T08:03:39Z</time>
      </trkpt>
      <trkpt lat="48.41955" lon="2.74054">
        <ele>84</ele>
        <time>2018-08-26T08:03:43Z</time>
      </trkpt>
      <trkpt lat="48.41961" lon="2.74056">
        <ele>83</ele>
        <time>2018-08-26T08:03:48Z</time>
      </trkpt>
      <trkpt lat="48.41979" lon="2.74074">
        <ele>83</ele>
        <time>2018-08-26T08:04:02Z</time>
      </trkpt>
      <trkpt lat="48.41984" lon="2.74076">
        <ele>83</ele>
        <time>2018-08-26T08:04:07Z</time>
      </trkpt>
      <trkpt lat="48.41989" lon="2.74081">
        <ele>83</ele>
        <time>2018-08-26T08:04:12Z</time>
      </trkpt>
      <trkpt lat="48.41992" lon="2.74086">
        <ele>83</ele>
        <time>2018-08-26T08:04:15Z</time>
      </trkpt>
      <trkpt lat="48.41997" lon="2.74099">
        <ele>83</ele>
        <time>2018-08-26T08:04:22Z</time>
      </trkpt>
      <trkpt lat="48.42" lon="2.74104">
        <ele>83</ele>
        <time>2018-08-26T08:04:27Z</time>
      </trkpt>
      <trkpt lat="48.42003" lon="2.74112">
        <ele>83</ele>
        <time>2018-08-26T08:04:35Z</time>
      </trkpt>
      <trkpt lat="48.42013" lon="2.7413">
        <ele>83</ele>
        <time>2018-08-26T08:04:48Z</time>
      </trkpt>
      <trkpt lat="48.42015" lon="2.74136">
        <ele>84</ele>
        <time>2018-08-26T08:04:52Z</time>
      </trkpt>
      <trkpt lat="48.42041" lon="2.74167">
        <ele>84</ele>
        <time>2018-08-26T08:05:23Z</time>
      </trkpt>
      <trkpt lat="48.42052" lon="2.74184">
        <ele>84</ele>
        <time>2018-08-26T08:05:35Z</time>
      </trkpt>
      <trkpt lat="48.42056" lon="2.74188">
        <ele>84</ele>
        <time>2018-08-26T08:05:40Z</time>
      </trkpt>
      <trkpt lat="48.42065" lon="2.74201">
        <ele>85</ele>
        <time>2018-08-26T08:05:52Z</time>
      </trkpt>
      <trkpt lat="48.42093" lon="2.74245">
        <ele>84</ele>
        <time>2018-08-26T08:06:27Z</time>
      </trkpt>
      <trkpt lat="48.42111" lon="2.74273">
        <ele>84</ele>
        <time>2018-08-26T08:06:48Z</time>
      </trkpt>
      <trkpt lat="48.42119" lon="2.74288">
        <ele>84</ele>
        <time>2018-08-26T08:07:01Z</time>
      </trkpt>
      <trkpt lat="48.42136" lon="2.74307">
        <ele>84</ele>
        <time>2018-08-26T08:07:22Z</time>
      </trkpt>
      <trkpt lat="48.42155" lon="2.74343">
        <ele>82</ele>
        <time>2018-08-26T08:07:46Z</time>
      </trkpt>
      <trkpt lat="48.4216" lon="2.74347">
        <ele>82</ele>
        <time>2018-08-26T08:07:51Z</time>
      </trkpt>
      <trkpt lat="48.42167" lon="2.7435">
        <ele>81</ele>
        <time>2018-08-26T08:07:57Z</time>
      </trkpt>
      <trkpt lat="48.42173" lon="2.74353">
        <ele>79</ele>
        <time>2018-08-26T08:08:07Z</time>
      </trkpt>
      <trkpt lat="48.42181" lon="2.74361">
        <ele>77</ele>
        <time>2018-08-26T08:08:18Z</time>
      </trkpt>
      <trkpt lat="48.42187" lon="2.74372">
        <ele>76</ele>
        <time>2018-08-26T08:08:28Z</time>
      </trkpt>
      <trkpt lat="48.42188" lon="2.74378">
        <ele>75</ele>
        <time>2018-08-26T08:08:32Z</time>
      </trkpt>
      <trkpt lat="48.42186" lon="2.74387">
        <ele>75</ele>
        <time>2018-08-26T08:08:36Z</time>
      </trkpt>
      <trkpt lat="48.42183" lon="2.74394">
        <ele>75</ele>
        <time>2018-08-26T08:08:40Z</time>
      </trkpt>
      <trkpt lat="48.4218" lon="2.74399">
        <ele>74</ele>
        <time>2018-08-26T08:08:43Z</time>
      </trkpt>
      <trkpt lat="48.42172" lon="2.74408">
        <ele>75</ele>
        <time>2018-08-26T08:08:52Z</time>
      </trkpt>
      <trkpt lat="48.42166" lon="2.74413">
        <ele>75</ele>
        <time>2018-08-26T08:08:57Z</time>
      </trkpt>
      <trkpt lat="48.42129" lon="2.74427">
        <ele>76</ele>
        <time>2018-08-26T08:09:32Z</time>
      </trkpt>
      <trkpt lat="48.42114" lon="2.74433">
        <ele>76</ele>
        <time>2018-08-26T08:09:44Z</time>
      </trkpt>
      <trkpt lat="48.42104" lon="2.74432">
        <ele>76</ele>
        <time>2018-08-26T08:09:51Z</time>
      </trkpt>
      <trkpt lat="48.42075" lon="2.74442">
        <ele>76</ele>
        <time>2018-08-26T08:10:18Z</time>
      </trkpt>
      <trkpt lat="48.42056" lon="2.74449">
        <ele>76</ele>
        <time>2018-08-26T08:10:34Z</time>
      </trkpt>
      <trkpt lat="48.42048" lon="2.7445">
        <ele>77</ele>
        <time>2018-08-26T08:10:41Z</time>
      </trkpt>
      <trkpt lat="48.42029" lon="2.74461">
        <ele>76</ele>
        <time>2018-08-26T08:10:55Z</time>
      </trkpt>
      <trkpt lat="48.41993" lon="2.74465">
        <ele>77</ele>
        <time>2018-08-26T08:11:27Z</time>
      </trkpt>
      <trkpt lat="48.41989" lon="2.74464">
        <ele>77</ele>
        <time>2018-08-26T08:11:31Z</time>
      </trkpt>
      <trkpt lat="48.41984" lon="2.74461">
        <ele>77</ele>
        <time>2018-08-26T08:11:36Z</time>
      </trkpt>
      <trkpt lat="48.41978" lon="2.7446">
        <ele>78</ele>
        <time>2018-08-26T08:11:41Z</time>
      </trkpt>
      <trkpt lat="48.41973" lon="2.74456">
        <ele>78</ele>
        <time>2018-08-26T08:11:49Z</time>
      </trkpt>
      <trkpt lat="48.41969" lon="2.74455">
        <ele>79</ele>
        <time>2018-08-26T08:11:54Z</time>
      </trkpt>
      <trkpt lat="48.41953" lon="2.7446">
        <ele>79</ele>
        <time>2018-08-26T08:12:12Z</time>
      </trkpt>
      <trkpt lat="48.41944" lon="2.74467">
        <ele>77</ele>
        <time>2018-08-26T08:12:26Z</time>
      </trkpt>
      <trkpt lat="48.41932" lon="2.74482">
        <ele>76</ele>
        <time>2018-08-26T08:12:41Z</time>
      </trkpt>
      <trkpt lat="48.41914" lon="2.74488">
        <ele>77</ele>
        <time>2018-08-26T08:12:57Z</time>
      </trkpt>
      <trkpt lat="48.41899" lon="2.74496">
        <ele>77</ele>
        <time>2018-08-26T08:13:07Z</time>
      </trkpt>
      <trkpt lat="48.41887" lon="2.745">
        <ele>76</ele>
        <time>2018-08-26T08:13:20Z</time>
      </trkpt>
      <trkpt lat="48.41883" lon="2.74504">
        <ele>76</ele>
        <time>2018-08-26T08:13:24Z</time>
      </trkpt>
      <trkpt lat="48.41873" lon="2.74507">
        <ele>76</ele>
        <time>2018-08-26T08:13:30Z</time>
      </trkpt>
      <trkpt lat="48.4187" lon="2.74511">
        <ele>76</ele>
        <time>2018-08-26T08:13:34Z</time>
      </trkpt>
      <trkpt lat="48.41865" lon="2.74514">
        <ele>76</ele>
        <time>2018-08-26T08:13:37Z</time>
      </trkpt>
      <trkpt lat="48.4186" lon="2.74513">
        <ele>76</ele>
        <time>2018-08-26T08:13:40Z</time>
      </trkpt>
      <trkpt lat="48.41856" lon="2.7451">
        <ele>76</ele>
        <time>2018-08-26T08:13:44Z</time>
      </trkpt>
      <trkpt lat="48.41852" lon="2.7451">
        <ele>76</ele>
        <time>2018-08-26T08:13:48Z</time>
      </trkpt>
      <trkpt lat="48.41811" lon="2.74526">
        <ele>75</ele>
        <time>2018-08-26T08:14:19Z</time>
      </trkpt>
      <trkpt lat="48.41774" lon="2.74534">
        <ele>76</ele>
        <time>2018-08-26T08:14:51Z</time>
      </trkpt>
      <trkpt lat="48.41755" lon="2.74533">
        <ele>76</ele>
        <time>2018-08-26T08:15:06Z</time>
      </trkpt>
      <trkpt lat="48.41719" lon="2.7455">
        <ele>76</ele>
        <time>2018-08-26T08:15:34Z</time>
      </trkpt>
      <trkpt lat="48.4171" lon="2.74549">
        <ele>76</ele>
        <time>2018-08-26T08:15:43Z</time>
      </trkpt>
      <trkpt lat="48.41699" lon="2.74556">
        <ele>76</ele>
        <time>2018-08-26T08:15:53Z</time>
      </trkpt>
      <trkpt lat="48.41679" lon="2.74564">
        <ele>76</ele>
        <time>2018-08-26T08:16:12Z</time>
      </trkpt>
      <trkpt lat="48.41658" lon="2.74572">
        <ele>76</ele>
        <time>2018-08-26T08:16:32Z</time>
      </trkpt>
      <trkpt lat="48.41644" lon="2.74571">
        <ele>77</ele>
        <time>2018-08-26T08:16:45Z</time>
      </trkpt>
      <trkpt lat="48.41634" lon="2.74575">
        <ele>77</ele>
        <time>2018-08-26T08:16:51Z</time>
      </trkpt>
      <trkpt lat="48.41627" lon="2.7458">
        <ele>77</ele>
        <time>2018-08-26T08:16:57Z</time>
      </trkpt>
      <trkpt lat="48.41618" lon="2.74589">
        <ele>77</ele>
        <time>2018-08-26T08:17:06Z</time>
      </trkpt>
      <trkpt lat="48.4161" lon="2.74593">
        <ele>77</ele>
        <time>2018-08-26T08:17:13Z</time>
      </trkpt>
      <trkpt lat="48.41575" lon="2.74604">
        <ele>78</ele>
        <time>2018-08-26T08:17:48Z</time>
      </trkpt>
      <trkpt lat="48.41537" lon="2.74626">
        <ele>77</ele>
        <time>2018-08-26T08:18:20Z</time>
      </trkpt>
      <trkpt lat="48.4151" lon="2.74643">
        <ele>77</ele>
        <time>2018-08-26T08:18:51Z</time>
      </trkpt>
      <trkpt lat="48.41501" lon="2.74645">
        <ele>77</ele>
        <time>2018-08-26T08:18:59Z</time>
      </trkpt>
      <trkpt lat="48.41486" lon="2.74642">
        <ele>78</ele>
        <time>2018-08-26T08:19:16Z</time>
      </trkpt>
      <trkpt lat="48.41477" lon="2.74648">
        <ele>79</ele>
        <time>2018-08-26T08:19:22Z</time>
      </trkpt>
      <trkpt lat="48.41469" lon="2.74652">
        <ele>79</ele>
        <time>2018-08-26T08:19:30Z</time>
      </trkpt>
      <trkpt lat="48.41438" lon="2.74683">
        <ele>77</ele>
        <time>2018-08-26T08:20:07Z</time>
      </trkpt>
      <trkpt lat="48.41395" lon="2.74719">
        <ele>76</ele>
        <time>2018-08-26T08:20:45Z</time>
      </trkpt>
      <trkpt lat="48.4137" lon="2.7474">
        <ele>76</ele>
        <time>2018-08-26T08:21:11Z</time>
      </trkpt>
      <trkpt lat="48.41352" lon="2.7477">
        <ele>76</ele>
        <time>2018-08-26T08:21:33Z</time>
      </trkpt>
      <trkpt lat="48.41319" lon="2.748">
        <ele>77</ele>
        <time>2018-08-26T08:22:08Z</time>
      </trkpt>
      <trkpt lat="48.41311" lon="2.74808">
        <ele>77</ele>
        <time>2018-08-26T08:22:15Z</time>
      </trkpt>
      <trkpt lat="48.41302" lon="2.74817">
        <ele>77</ele>
        <time>2018-08-26T08:22:22Z</time>
      </trkpt>
      <trkpt lat="48.41294" lon="2.74821">
        <ele>77</ele>
        <time>2018-08-26T08:22:28Z</time>
      </trkpt>
      <trkpt lat="48.41287" lon="2.7483">
        <ele>76</ele>
        <time>2018-08-26T08:22:36Z</time>
      </trkpt>
      <trkpt lat="48.41262" lon="2.7486">
        <ele>76</ele>
        <time>2018-08-26T08:23:04Z</time>
      </trkpt>
      <trkpt lat="48.41237" lon="2.74905">
        <ele>76</ele>
        <time>2018-08-26T08:23:37Z</time>
      </trkpt>
      <trkpt lat="48.41211" lon="2.74943">
        <ele>77</ele>
        <time>2018-08-26T08:24:15Z</time>
      </trkpt>
      <trkpt lat="48.41207" lon="2.74947">
        <ele>77</ele>
        <time>2018-08-26T08:24:19Z</time>
      </trkpt>
      <trkpt lat="48.41185" lon="2.74981">
        <ele>78</ele>
        <time>2018-08-26T08:24:43Z</time>
      </trkpt>
      <trkpt lat="48.41181" lon="2.74983">
        <ele>78</ele>
        <time>2018-08-26T08:24:46Z</time>
      </trkpt>
      <trkpt lat="48.41176" lon="2.74985">
        <ele>78</ele>
        <time>2018-08-26T08:24:49Z</time>
      </trkpt>
      <trkpt lat="48.41167" lon="2.74986">
        <ele>79</ele>
        <time>2018-08-26T08:24:58Z</time>
      </trkpt>
      <trkpt lat="48.41153" lon="2.74982">
        <ele>81</ele>
        <time>2018-08-26T08:25:11Z</time>
      </trkpt>
      <trkpt lat="48.41108" lon="2.74959">
        <ele>85</ele>
        <time>2018-08-26T08:25:44Z</time>
      </trkpt>
      <trkpt lat="48.41099" lon="2.74953">
        <ele>86</ele>
        <time>2018-08-26T08:25:52Z</time>
      </trkpt>
      <trkpt lat="48.41081" lon="2.7493">
        <ele>88</ele>
        <time>2018-08-26T08:26:16Z</time>
      </trkpt>
      <trkpt lat="48.41047" lon="2.74901">
        <ele>92</ele>
        <time>2018-08-26T08:26:54Z</time>
      </trkpt>
      <trkpt lat="48.4102" lon="2.74882">
        <ele>94</ele>
        <time>2018-08-26T08:27:22Z</time>
      </trkpt>
      <trkpt lat="48.40991" lon="2.74839">
        <ele>96</ele>
        <time>2018-08-26T08:27:56Z</time>
      </trkpt>
      <trkpt lat="48.40974" lon="2.74828">
        <ele>97</ele>
        <time>2018-08-26T08:28:12Z</time>
      </trkpt>
      <trkpt lat="48.40954" lon="2.74818">
        <ele>98</ele>
        <time>2018-08-26T08:28:29Z</time>
      </trkpt>
      <trkpt lat="48.40926" lon="2.74792">
        <ele>99</ele>
        <time>2018-08-26T08:29:03Z</time>
      </trkpt>
      <trkpt lat="48.40918" lon="2.74786">
        <ele>100</ele>
        <time>2018-08-26T08:29:10Z</time>
      </trkpt>
      <trkpt lat="48.40913" lon="2.74773">
        <ele>100</ele>
        <time>2018-08-26T08:29:18Z</time>
      </trkpt>
      <trkpt lat="48.409" lon="2.74752">
        <ele>101</ele>
        <time>2018-08-26T08:29:35Z</time>
      </trkpt>
      <trkpt lat="48.40891" lon="2.74746">
        <ele>102</ele>
        <time>2018-08-26T08:29:42Z</time>
      </trkpt>
      <trkpt lat="48.40874" lon="2.74725">
        <ele>103</ele>
        <time>2018-08-26T08:29:59Z</time>
      </trkpt>
      <trkpt lat="48.40864" lon="2.74728">
        <ele>104</ele>
        <time>2018-08-26T08:30:18Z</time>
      </trkpt>
      <trkpt lat="48.40853" lon="2.74739">
        <ele>104</ele>
        <time>2018-08-26T08:30:31Z</time>
      </trkpt>
      <trkpt lat="48.40848" lon="2.74746">
        <ele>104</ele>
        <time>2018-08-26T08:30:37Z</time>
      </trkpt>
      <trkpt lat="48.40847" lon="2.74754">
        <ele>104</ele>
        <time>2018-08-26T08:30:41Z</time>
      </trkpt>
      <trkpt lat="48.40845" lon="2.7476">
        <ele>104</ele>
        <time>2018-08-26T08:30:45Z</time>
      </trkpt>
      <trkpt lat="48.40835" lon="2.74775">
        <ele>104</ele>
        <time>2018-08-26T08:30:57Z</time>
      </trkpt>
      <trkpt lat="48.40822" lon="2.74784">
        <ele>103</ele>
        <time>2018-08-26T08:31:09Z</time>
      </trkpt>
      <trkpt lat="48.40819" lon="2.74791">
        <ele>103</ele>
        <time>2018-08-26T08:31:17Z</time>
      </trkpt>
      <trkpt lat="48.40828" lon="2.74807">
        <ele>102</ele>
        <time>2018-08-26T08:32:28Z</time>
      </trkpt>
      <trkpt lat="48.40834" lon="2.74826">
        <ele>100</ele>
        <time>2018-08-26T08:32:42Z</time>
      </trkpt>
      <trkpt lat="48.40837" lon="2.74832">
        <ele>100</ele>
        <time>2018-08-26T08:32:45Z</time>
      </trkpt>
      <trkpt lat="48.40839" lon="2.7484">
        <ele>100</ele>
        <time>2018-08-26T08:32:49Z</time>
      </trkpt>
      <trkpt lat="48.40838" lon="2.74849">
        <ele>100</ele>
        <time>2018-08-26T08:32:52Z</time>
      </trkpt>
      <trkpt lat="48.40835" lon="2.74855">
        <ele>100</ele>
        <time>2018-08-26T08:32:56Z</time>
      </trkpt>
      <trkpt lat="48.40833" lon="2.74862">
        <ele>100</ele>
        <time>2018-08-26T08:33:01Z</time>
      </trkpt>
      <trkpt lat="48.40817" lon="2.74871">
        <ele>100</ele>
        <time>2018-08-26T08:33:12Z</time>
      </trkpt>
      <trkpt lat="48.40797" lon="2.74904">
        <ele>101</ele>
        <time>2018-08-26T08:33:48Z</time>
      </trkpt>
      <trkpt lat="48.40787" lon="2.74912">
        <ele>100</ele>
        <time>2018-08-26T08:33:56Z</time>
      </trkpt>
      <trkpt lat="48.40745" lon="2.74948">
        <ele>101</ele>
        <time>2018-08-26T08:34:34Z</time>
      </trkpt>
      <trkpt lat="48.40739" lon="2.74958">
        <ele>101</ele>
        <time>2018-08-26T08:34:41Z</time>
      </trkpt>
      <trkpt lat="48.40723" lon="2.74972">
        <ele>102</ele>
        <time>2018-08-26T08:35:02Z</time>
      </trkpt>
      <trkpt lat="48.40702" lon="2.75015">
        <ele>102</ele>
        <time>2018-08-26T08:35:38Z</time>
      </trkpt>
      <trkpt lat="48.40677" lon="2.75062">
        <ele>102</ele>
        <time>2018-08-26T08:36:12Z</time>
      </trkpt>
      <trkpt lat="48.40666" lon="2.75085">
        <ele>102</ele>
        <time>2018-08-26T08:36:29Z</time>
      </trkpt>
      <trkpt lat="48.40649" lon="2.75105">
        <ele>103</ele>
        <time>2018-08-26T08:36:47Z</time>
      </trkpt>
      <trkpt lat="48.40645" lon="2.75119">
        <ele>103</ele>
        <time>2018-08-26T08:36:57Z</time>
      </trkpt>
      <trkpt lat="48.40636" lon="2.75127">
        <ele>103</ele>
        <time>2018-08-26T08:37:05Z</time>
      </trkpt>
      <trkpt lat="48.4061" lon="2.75166">
        <ele>104</ele>
        <time>2018-08-26T08:37:33Z</time>
      </trkpt>
      <trkpt lat="48.40601" lon="2.75174">
        <ele>104</ele>
        <time>2018-08-26T08:37:41Z</time>
      </trkpt>
      <trkpt lat="48.40597" lon="2.75186">
        <ele>104</ele>
        <time>2018-08-26T08:37:49Z</time>
      </trkpt>
      <trkpt lat="48.40596" lon="2.75203">
        <ele>104</ele>
        <time>2018-08-26T08:38:01Z</time>
      </trkpt>
      <trkpt lat="48.40592" lon="2.75216">
        <ele>104</ele>
        <time>2018-08-26T08:38:10Z</time>
      </trkpt>
      <trkpt lat="48.40585" lon="2.7523">
        <ele>104</ele>
        <time>2018-08-26T08:38:20Z</time>
      </trkpt>
      <trkpt lat="48.40571" lon="2.75249">
        <ele>105</ele>
        <time>2018-08-26T08:38:36Z</time>
      </trkpt>
      <trkpt lat="48.40565" lon="2.75276">
        <ele>105</ele>
        <time>2018-08-26T08:38:52Z</time>
      </trkpt>
      <trkpt lat="48.40564" lon="2.75299">
        <ele>105</ele>
        <time>2018-08-26T08:39:13Z</time>
      </trkpt>
      <trkpt lat="48.40566" lon="2.75305">
        <ele>105</ele>
        <time>2018-08-26T08:39:19Z</time>
      </trkpt>
      <trkpt lat="48.40562" lon="2.75313">
        <ele>104</ele>
        <time>2018-08-26T08:39:32Z</time>
      </trkpt>
      <trkpt lat="48.40559" lon="2.75319">
        <ele>105</ele>
        <time>2018-08-26T08:39:51Z</time>
      </trkpt>
      <trkpt lat="48.40556" lon="2.75328">
        <ele>105</ele>
        <time>2018-08-26T08:40:33Z</time>
      </trkpt>
      <trkpt lat="48.40563" lon="2.75335">
        <ele>105</ele>
        <time>2018-08-26T08:40:45Z</time>
      </trkpt>
      <trkpt lat="48.40566" lon="2.75341">
        <ele>104</ele>
        <time>2018-08-26T08:40:50Z</time>
      </trkpt>
      <trkpt lat="48.40568" lon="2.75348">
        <ele>105</ele>
        <time>2018-08-26T08:40:54Z</time>
      </trkpt>
      <trkpt lat="48.40568" lon="2.75356">
        <ele>104</ele>
        <time>2018-08-26T08:40:59Z</time>
      </trkpt>
      <trkpt lat="48.40571" lon="2.75362">
        <ele>105</ele>
        <time>2018-08-26T08:41:03Z</time>
      </trkpt>
      <trkpt lat="48.40571" lon="2.75371">
        <ele>105</ele>
        <time>2018-08-26T08:41:10Z</time>
      </trkpt>
      <trkpt lat="48.40572" lon="2.75378">
        <ele>104</ele>
        <time>2018-08-26T08:41:15Z</time>
      </trkpt>
      <trkpt lat="48.40576" lon="2.75386">
        <ele>104</ele>
        <time>2018-08-26T08:41:22Z</time>
      </trkpt>
      <trkpt lat="48.40576" lon="2.75394">
        <ele>104</ele>
        <time>2018-08-26T08:41:27Z</time>
      </trkpt>
      <trkpt lat="48.40576" lon="2.75405">
        <ele>104</ele>
        <time>2018-08-26T08:41:33Z</time>
      </trkpt>
      <trkpt lat="48.40573" lon="2.75414">
        <ele>105</ele>
        <time>2018-08-26T08:41:40Z</time>
      </trkpt>
      <trkpt lat="48.40579" lon="2.75441">
        <ele>104</ele>
        <time>2018-08-26T08:42:10Z</time>
      </trkpt>
      <trkpt lat="48.40589" lon="2.75466">
        <ele>104</ele>
        <time>2018-08-26T08:42:25Z</time>
      </trkpt>
      <trkpt lat="48.40589" lon="2.75477">
        <ele>104</ele>
        <time>2018-08-26T08:42:30Z</time>
      </trkpt>
      <trkpt lat="48.40591" lon="2.75485">
        <ele>104</ele>
        <time>2018-08-26T08:42:33Z</time>
      </trkpt>
      <trkpt lat="48.40596" lon="2.7549">
        <ele>104</ele>
        <time>2018-08-26T08:42:37Z</time>
      </trkpt>
      <trkpt lat="48.4061" lon="2.75538">
        <ele>103</ele>
        <time>2018-08-26T08:43:03Z</time>
      </trkpt>
      <trkpt lat="48.40612" lon="2.75545">
        <ele>103</ele>
        <time>2018-08-26T08:43:07Z</time>
      </trkpt>
      <trkpt lat="48.40611" lon="2.75553">
        <ele>104</ele>
        <time>2018-08-26T08:43:15Z</time>
      </trkpt>
      <trkpt lat="48.40614" lon="2.75573">
        <ele>103</ele>
        <time>2018-08-26T08:43:32Z</time>
      </trkpt>
      <trkpt lat="48.40618" lon="2.75577">
        <ele>103</ele>
        <time>2018-08-26T08:43:39Z</time>
      </trkpt>
      <trkpt lat="48.40621" lon="2.75585">
        <ele>102</ele>
        <time>2018-08-26T08:43:43Z</time>
      </trkpt>
      <trkpt lat="48.40624" lon="2.75599">
        <ele>102</ele>
        <time>2018-08-26T08:43:49Z</time>
      </trkpt>
      <trkpt lat="48.40626" lon="2.75614">
        <ele>102</ele>
        <time>2018-08-26T08:43:57Z</time>
      </trkpt>
      <trkpt lat="48.40626" lon="2.75622">
        <ele>102</ele>
        <time>2018-08-26T08:44:01Z</time>
      </trkpt>
      <trkpt lat="48.40626" lon="2.75639">
        <ele>102</ele>
        <time>2018-08-26T08:44:09Z</time>
      </trkpt>
      <trkpt lat="48.4063" lon="2.75653">
        <ele>102</ele>
        <time>2018-08-26T08:44:16Z</time>
      </trkpt>
      <trkpt lat="48.40629" lon="2.75668">
        <ele>102</ele>
        <time>2018-08-26T08:44:25Z</time>
      </trkpt>
      <trkpt lat="48.4064" lon="2.75691">
        <ele>102</ele>
        <time>2018-08-26T08:44:39Z</time>
      </trkpt>
      <trkpt lat="48.40642" lon="2.75705">
        <ele>102</ele>
        <time>2018-08-26T08:44:47Z</time>
      </trkpt>
      <trkpt lat="48.40642" lon="2.75714">
        <ele>103</ele>
        <time>2018-08-26T08:45:00Z</time>
      </trkpt>
      <trkpt lat="48.40642" lon="2.75725">
        <ele>103</ele>
        <time>2018-08-26T08:45:14Z</time>
      </trkpt>
      <trkpt lat="48.40643" lon="2.75758">
        <ele>103</ele>
        <time>2018-08-26T08:45:29Z</time>
      </trkpt>
      <trkpt lat="48.40643" lon="2.75765">
        <ele>103</ele>
        <time>2018-08-26T08:45:32Z</time>
      </trkpt>
      <trkpt lat="48.40644" lon="2.75772">
        <ele>103</ele>
        <time>2018-08-26T08:45:35Z</time>
      </trkpt>
      <trkpt lat="48.40644" lon="2.7578">
        <ele>103</ele>
        <time>2018-08-26T08:45:39Z</time>
      </trkpt>
      <trkpt lat="48.40646" lon="2.75786">
        <ele>103</ele>
        <time>2018-08-26T08:45:43Z</time>
      </trkpt>
      <trkpt lat="48.40651" lon="2.758">
        <ele>103</ele>
        <time>2018-08-26T08:45:50Z</time>
      </trkpt>
      <trkpt lat="48.40658" lon="2.75822">
        <ele>103</ele>
        <time>2018-08-26T08:46:04Z</time>
      </trkpt>
      <trkpt lat="48.40663" lon="2.75828">
        <ele>103</ele>
        <time>2018-08-26T08:46:11Z</time>
      </trkpt>
      <trkpt lat="48.40669" lon="2.75842">
        <ele>103</ele>
        <time>2018-08-26T08:46:20Z</time>
      </trkpt>
      <trkpt lat="48.40679" lon="2.75849">
        <ele>103</ele>
        <time>2018-08-26T08:46:27Z</time>
      </trkpt>
      <trkpt lat="48.40683" lon="2.75854">
        <ele>103</ele>
        <time>2018-08-26T08:46:30Z</time>
      </trkpt>
      <trkpt lat="48.40703" lon="2.75913">
        <ele>102</ele>
        <time>2018-08-26T08:47:04Z</time>
      </trkpt>
      <trkpt lat="48.40712" lon="2.75936">
        <ele>102</ele>
        <time>2018-08-26T08:47:16Z</time>
      </trkpt>
      <trkpt lat="48.40728" lon="2.76003">
        <ele>102</ele>
        <time>2018-08-26T08:47:47Z</time>
      </trkpt>
      <trkpt lat="48.40726" lon="2.76047">
        <ele>102</ele>
        <time>2018-08-26T08:48:15Z</time>
      </trkpt>
      <trkpt lat="48.40727" lon="2.76061">
        <ele>102</ele>
        <time>2018-08-26T08:48:23Z</time>
      </trkpt>
      <trkpt lat="48.40723" lon="2.76074">
        <ele>103</ele>
        <time>2018-08-26T08:48:30Z</time>
      </trkpt>
      <trkpt lat="48.40688" lon="2.76125">
        <ele>104</ele>
        <time>2018-08-26T08:49:03Z</time>
      </trkpt>
      <trkpt lat="48.40662" lon="2.76165">
        <ele>104</ele>
        <time>2018-08-26T08:49:30Z</time>
      </trkpt>
      <trkpt lat="48.40653" lon="2.7617">
        <ele>104</ele>
        <time>2018-08-26T08:49:37Z</time>
      </trkpt>
      <trkpt lat="48.40641" lon="2.76194">
        <ele>104</ele>
        <time>2018-08-26T08:49:56Z</time>
      </trkpt>
      <trkpt lat="48.40637" lon="2.76208">
        <ele>104</ele>
        <time>2018-08-26T08:50:05Z</time>
      </trkpt>
      <trkpt lat="48.40607" lon="2.76246">
        <ele>105</ele>
        <time>2018-08-26T08:50:36Z</time>
      </trkpt>
      <trkpt lat="48.40573" lon="2.76291">
        <ele>105</ele>
        <time>2018-08-26T08:51:07Z</time>
      </trkpt>
      <trkpt lat="48.40567" lon="2.76301">
        <ele>106</ele>
        <time>2018-08-26T08:51:16Z</time>
      </trkpt>
      <trkpt lat="48.40549" lon="2.76317">
        <ele>106</ele>
        <time>2018-08-26T08:51:34Z</time>
      </trkpt>
      <trkpt lat="48.40526" lon="2.76361">
        <ele>106</ele>
        <time>2018-08-26T08:52:05Z</time>
      </trkpt>
      <trkpt lat="48.40508" lon="2.76372">
        <ele>106</ele>
        <time>2018-08-26T08:52:16Z</time>
      </trkpt>
      <trkpt lat="48.40494" lon="2.7639">
        <ele>107</ele>
        <time>2018-08-26T08:52:34Z</time>
      </trkpt>
      <trkpt lat="48.40492" lon="2.76405">
        <ele>107</ele>
        <time>2018-08-26T08:52:49Z</time>
      </trkpt>
      <trkpt lat="48.405" lon="2.7642">
        <ele>107</ele>
        <time>2018-08-26T08:53:05Z</time>
      </trkpt>
      <trkpt lat="48.40529" lon="2.7644">
        <ele>106</ele>
        <time>2018-08-26T08:53:36Z</time>
      </trkpt>
      <trkpt lat="48.40536" lon="2.76447">
        <ele>106</ele>
        <time>2018-08-26T08:53:43Z</time>
      </trkpt>
      <trkpt lat="48.40563" lon="2.76464">
        <ele>106</ele>
        <time>2018-08-26T08:54:00Z</time>
      </trkpt>
      <trkpt lat="48.40588" lon="2.76488">
        <ele>105</ele>
        <time>2018-08-26T08:54:25Z</time>
      </trkpt>
      <trkpt lat="48.40594" lon="2.76501">
        <ele>105</ele>
        <time>2018-08-26T08:54:45Z</time>
      </trkpt>
      <trkpt lat="48.406" lon="2.76513">
        <ele>105</ele>
        <time>2018-08-26T08:55:27Z</time>
      </trkpt>
      <trkpt lat="48.40607" lon="2.76521">
        <ele>105</ele>
        <time>2018-08-26T08:56:46Z</time>
      </trkpt>
      <trkpt lat="48.40614" lon="2.76531">
        <ele>106</ele>
        <time>2018-08-26T09:02:25Z</time>
      </trkpt>
      <trkpt lat="48.40618" lon="2.76515">
        <ele>105</ele>
        <time>2018-08-26T09:03:13Z</time>
      </trkpt>
      <trkpt lat="48.40644" lon="2.76529">
        <ele>104</ele>
        <time>2018-08-26T09:03:50Z</time>
      </trkpt>
      <trkpt lat="48.40663" lon="2.76545">
        <ele>103</ele>
        <time>2018-08-26T09:04:12Z</time>
      </trkpt>
      <trkpt lat="48.40671" lon="2.76556">
        <ele>103</ele>
        <time>2018-08-26T09:04:24Z</time>
      </trkpt>
      <trkpt lat="48.40712" lon="2.76584">
        <ele>101</ele>
        <time>2018-08-26T09:04:58Z</time>
      </trkpt>
      <trkpt lat="48.40741" lon="2.76612">
        <ele>99</ele>
        <time>2018-08-26T09:05:28Z</time>
      </trkpt>
      <trkpt lat="48.40751" lon="2.76616">
        <ele>98</ele>
        <time>2018-08-26T09:05:44Z</time>
      </trkpt>
      <trkpt lat="48.40791" lon="2.76649">
        <ele>95</ele>
        <time>2018-08-26T09:06:17Z</time>
      </trkpt>
      <trkpt lat="48.40823" lon="2.76681">
        <ele>92</ele>
        <time>2018-08-26T09:06:49Z</time>
      </trkpt>
      <trkpt lat="48.40854" lon="2.76701">
        <ele>88</ele>
        <time>2018-08-26T09:07:21Z</time>
      </trkpt>
      <trkpt lat="48.40879" lon="2.76716">
        <ele>86</ele>
        <time>2018-08-26T09:07:47Z</time>
      </trkpt>
      <trkpt lat="48.40895" lon="2.76733">
        <ele>85</ele>
        <time>2018-08-26T09:07:58Z</time>
      </trkpt>
      <trkpt lat="48.4093" lon="2.76765">
        <ele>79</ele>
        <time>2018-08-26T09:08:36Z</time>
      </trkpt>
      <trkpt lat="48.40946" lon="2.76777">
        <ele>78</ele>
        <time>2018-08-26T09:08:48Z</time>
      </trkpt>
      <trkpt lat="48.40955" lon="2.7679">
        <ele>76</ele>
        <time>2018-08-26T09:09:02Z</time>
      </trkpt>
      <trkpt lat="48.40958" lon="2.76806">
        <ele>74</ele>
        <time>2018-08-26T09:09:11Z</time>
      </trkpt>
      <trkpt lat="48.40966" lon="2.76816">
        <ele>74</ele>
        <time>2018-08-26T09:09:17Z</time>
      </trkpt>
      <trkpt lat="48.40977" lon="2.76834">
        <ele>71</ele>
        <time>2018-08-26T09:09:34Z</time>
      </trkpt>
      <trkpt lat="48.40983" lon="2.76843">
        <ele>70</ele>
        <time>2018-08-26T09:09:44Z</time>
      </trkpt>
      <trkpt lat="48.41018" lon="2.76859">
        <ele>67</ele>
        <time>2018-08-26T09:10:16Z</time>
      </trkpt>
      <trkpt lat="48.41023" lon="2.76861">
        <ele>67</ele>
        <time>2018-08-26T09:10:21Z</time>
      </trkpt>
      <trkpt lat="48.41029" lon="2.76861">
        <ele>66</ele>
        <time>2018-08-26T09:10:26Z</time>
      </trkpt>
      <trkpt lat="48.41036" lon="2.76858">
        <ele>65</ele>
        <time>2018-08-26T09:10:34Z</time>
      </trkpt>
      <trkpt lat="48.41064" lon="2.76867">
        <ele>63</ele>
        <time>2018-08-26T09:10:57Z</time>
      </trkpt>
      <trkpt lat="48.41075" lon="2.76872">
        <ele>61</ele>
        <time>2018-08-26T09:11:09Z</time>
      </trkpt>
      <trkpt lat="48.41079" lon="2.76877">
        <ele>61</ele>
        <time>2018-08-26T09:11:14Z</time>
      </trkpt>
      <trkpt lat="48.41095" lon="2.76924">
        <ele>60</ele>
        <time>2018-08-26T09:11:39Z</time>
      </trkpt>
      <trkpt lat="48.41107" lon="2.76994">
        <ele>60</ele>
        <time>2018-08-26T09:12:15Z</time>
      </trkpt>
      <trkpt lat="48.41107" lon="2.77008">
        <ele>60</ele>
        <time>2018-08-26T09:12:23Z</time>
      </trkpt>
      <trkpt lat="48.41108" lon="2.7705">
        <ele>60</ele>
        <time>2018-08-26T09:12:44Z</time>
      </trkpt>
      <trkpt lat="48.41111" lon="2.77078">
        <ele>60</ele>
        <time>2018-08-26T09:12:59Z</time>
      </trkpt>
      <trkpt lat="48.41117" lon="2.77106">
        <ele>60</ele>
        <time>2018-08-26T09:13:14Z</time>
      </trkpt>
      <trkpt lat="48.41125" lon="2.77165">
        <ele>60</ele>
        <time>2018-08-26T09:13:45Z</time>
      </trkpt>
      <trkpt lat="48.41127" lon="2.77212">
        <ele>61</ele>
        <time>2018-08-26T09:14:10Z</time>
      </trkpt>
      <trkpt lat="48.41131" lon="2.77234">
        <ele>61</ele>
        <time>2018-08-26T09:14:23Z</time>
      </trkpt>
      <trkpt lat="48.41131" lon="2.77242">
        <ele>61</ele>
        <time>2018-08-26T09:14:27Z</time>
      </trkpt>
      <trkpt lat="48.41132" lon="2.77256">
        <ele>61</ele>
        <time>2018-08-26T09:14:35Z</time>
      </trkpt>
      <trkpt lat="48.41144" lon="2.77319">
        <ele>62</ele>
        <time>2018-08-26T09:15:10Z</time>
      </trkpt>
      <trkpt lat="48.41149" lon="2.77347">
        <ele>62</ele>
        <time>2018-08-26T09:15:25Z</time>
      </trkpt>
      <trkpt lat="48.4115" lon="2.77377">
        <ele>62</ele>
        <time>2018-08-26T09:15:40Z</time>
      </trkpt>
      <trkpt lat="48.41157" lon="2.77403">
        <ele>62</ele>
        <time>2018-08-26T09:15:54Z</time>
      </trkpt>
      <trkpt lat="48.41157" lon="2.77419">
        <ele>62</ele>
        <time>2018-08-26T09:16:04Z</time>
      </trkpt>
      <trkpt lat="48.41168" lon="2.77476">
        <ele>61</ele>
        <time>2018-08-26T09:16:38Z</time>
      </trkpt>
      <trkpt lat="48.41169" lon="2.77483">
        <ele>61</ele>
        <time>2018-08-26T09:16:42Z</time>
      </trkpt>
      <trkpt lat="48.41171" lon="2.77489">
        <ele>61</ele>
        <time>2018-08-26T09:16:45Z</time>
      </trkpt>
      <trkpt lat="48.41172" lon="2.77497">
        <ele>61</ele>
        <time>2018-08-26T09:16:49Z</time>
      </trkpt>
      <trkpt lat="48.4117" lon="2.77504">
        <ele>61</ele>
        <time>2018-08-26T09:16:53Z</time>
      </trkpt>
      <trkpt lat="48.41173" lon="2.77519">
        <ele>60</ele>
        <time>2018-08-26T09:17:01Z</time>
      </trkpt>
      <trkpt lat="48.41176" lon="2.77535">
        <ele>60</ele>
        <time>2018-08-26T09:17:43Z</time>
      </trkpt>
      <trkpt lat="48.41182" lon="2.77548">
        <ele>60</ele>
        <time>2018-08-26T09:19:01Z</time>
      </trkpt>
      <trkpt lat="48.41188" lon="2.77553">
        <ele>58</ele>
        <time>2018-08-26T09:19:24Z</time>
      </trkpt>
      <trkpt lat="48.41192" lon="2.77562">
        <ele>58</ele>
        <time>2018-08-26T09:19:47Z</time>
      </trkpt>
      <trkpt lat="48.41197" lon="2.77566">
        <ele>58</ele>
        <time>2018-08-26T09:19:51Z</time>
      </trkpt>
      <trkpt lat="48.41201" lon="2.7757">
        <ele>57</ele>
        <time>2018-08-26T09:19:56Z</time>
      </trkpt>
      <trkpt lat="48.4121" lon="2.77589">
        <ele>56</ele>
        <time>2018-08-26T09:20:30Z</time>
      </trkpt>
      <trkpt lat="48.41214" lon="2.77597">
        <ele>56</ele>
        <time>2018-08-26T09:20:45Z</time>
      </trkpt>
      <trkpt lat="48.41212" lon="2.77605">
        <ele>56</ele>
        <time>2018-08-26T09:21:10Z</time>
      </trkpt>
      <trkpt lat="48.41213" lon="2.77613">
        <ele>56</ele>
        <time>2018-08-26T09:21:15Z</time>
      </trkpt>
      <trkpt lat="48.41215" lon="2.77626">
        <ele>56</ele>
        <time>2018-08-26T09:21:26Z</time>
      </trkpt>
      <trkpt lat="48.41222" lon="2.77649">
        <ele>56</ele>
        <time>2018-08-26T09:21:41Z</time>
      </trkpt>
      <trkpt lat="48.41239" lon="2.77702">
        <ele>57</ele>
        <time>2018-08-26T09:22:12Z</time>
      </trkpt>
      <trkpt lat="48.41252" lon="2.77738">
        <ele>57</ele>
        <time>2018-08-26T09:22:31Z</time>
      </trkpt>
      <trkpt lat="48.41257" lon="2.77764">
        <ele>56</ele>
        <time>2018-08-26T09:22:45Z</time>
      </trkpt>
      <trkpt lat="48.41263" lon="2.77776">
        <ele>56</ele>
        <time>2018-08-26T09:22:52Z</time>
      </trkpt>
      <trkpt lat="48.41269" lon="2.77801">
        <ele>55</ele>
        <time>2018-08-26T09:23:07Z</time>
      </trkpt>
      <trkpt lat="48.41272" lon="2.77816">
        <ele>56</ele>
        <time>2018-08-26T09:23:15Z</time>
      </trkpt>
      <trkpt lat="48.41278" lon="2.77827">
        <ele>56</ele>
        <time>2018-08-26T09:23:22Z</time>
      </trkpt>
      <trkpt lat="48.41281" lon="2.77841">
        <ele>56</ele>
        <time>2018-08-26T09:23:31Z</time>
      </trkpt>
      <trkpt lat="48.4129" lon="2.77866">
        <ele>55</ele>
        <time>2018-08-26T09:23:47Z</time>
      </trkpt>
      <trkpt lat="48.41293" lon="2.7788">
        <ele>55</ele>
        <time>2018-08-26T09:23:55Z</time>
      </trkpt>
      <trkpt lat="48.41291" lon="2.77895">
        <ele>55</ele>
        <time>2018-08-26T09:24:03Z</time>
      </trkpt>
      <trkpt lat="48.41295" lon="2.77908">
        <ele>55</ele>
        <time>2018-08-26T09:24:11Z</time>
      </trkpt>
      <trkpt lat="48.41298" lon="2.77922">
        <ele>55</ele>
        <time>2018-08-26T09:24:19Z</time>
      </trkpt>
      <trkpt lat="48.41307" lon="2.77949">
        <ele>55</ele>
        <time>2018-08-26T09:24:34Z</time>
      </trkpt>
      <trkpt lat="48.41314" lon="2.77993">
        <ele>55</ele>
        <time>2018-08-26T09:24:59Z</time>
      </trkpt>
      <trkpt lat="48.41313" lon="2.77995">
        <ele>55</ele>
        <time>2018-08-26T09:25:43Z</time>
      </trkpt>
      <trkpt lat="48.41311" lon="2.77984">
        <ele>55</ele>
        <time>2018-08-26T09:25:55Z</time>
      </trkpt>
      <trkpt lat="48.41307" lon="2.77975">
        <ele>54</ele>
        <time>2018-08-26T09:26:07Z</time>
      </trkpt>
      <trkpt lat="48.41281" lon="2.77975">
        <ele>54</ele>
        <time>2018-08-26T09:26:34Z</time>
      </trkpt>
      <trkpt lat="48.41271" lon="2.77989">
        <ele>56</ele>
        <time>2018-08-26T09:26:51Z</time>
      </trkpt>
      <trkpt lat="48.41272" lon="2.78003">
        <ele>56</ele>
        <time>2018-08-26T09:26:59Z</time>
      </trkpt>
      <trkpt lat="48.41265" lon="2.78061">
        <ele>56</ele>
        <time>2018-08-26T09:27:30Z</time>
      </trkpt>
      <trkpt lat="48.4126" lon="2.78074">
        <ele>56</ele>
        <time>2018-08-26T09:27:37Z</time>
      </trkpt>
      <trkpt lat="48.41259" lon="2.781">
        <ele>57</ele>
        <time>2018-08-26T09:27:51Z</time>
      </trkpt>
      <trkpt lat="48.41257" lon="2.78109">
        <ele>56</ele>
        <time>2018-08-26T09:28:12Z</time>
      </trkpt>
      <trkpt lat="48.41258" lon="2.78136">
        <ele>56</ele>
        <time>2018-08-26T09:28:30Z</time>
      </trkpt>
      <trkpt lat="48.41256" lon="2.78143">
        <ele>56</ele>
        <time>2018-08-26T09:28:34Z</time>
      </trkpt>
      <trkpt lat="48.41252" lon="2.78158">
        <ele>56</ele>
        <time>2018-08-26T09:28:46Z</time>
      </trkpt>
      <trkpt lat="48.41249" lon="2.78172">
        <ele>56</ele>
        <time>2018-08-26T09:28:54Z</time>
      </trkpt>
      <trkpt lat="48.41249" lon="2.78179">
        <ele>56</ele>
        <time>2018-08-26T09:28:58Z</time>
      </trkpt>
      <trkpt lat="48.4124" lon="2.78231">
        <ele>56</ele>
        <time>2018-08-26T09:29:30Z</time>
      </trkpt>
      <trkpt lat="48.4124" lon="2.78239">
        <ele>56</ele>
        <time>2018-08-26T09:29:34Z</time>
      </trkpt>
      <trkpt lat="48.41238" lon="2.78245">
        <ele>56</ele>
        <time>2018-08-26T09:29:39Z</time>
      </trkpt>
      <trkpt lat="48.41234" lon="2.78282">
        <ele>56</ele>
        <time>2018-08-26T09:29:57Z</time>
      </trkpt>
      <trkpt lat="48.41226" lon="2.7831">
        <ele>56</ele>
        <time>2018-08-26T09:30:11Z</time>
      </trkpt>
      <trkpt lat="48.41218" lon="2.78372">
        <ele>56</ele>
        <time>2018-08-26T09:30:42Z</time>
      </trkpt>
      <trkpt lat="48.41216" lon="2.78395">
        <ele>56</ele>
        <time>2018-08-26T09:30:54Z</time>
      </trkpt>
      <trkpt lat="48.41207" lon="2.78416">
        <ele>56</ele>
        <time>2018-08-26T09:31:06Z</time>
      </trkpt>
      <trkpt lat="48.41193" lon="2.78439">
        <ele>56</ele>
        <time>2018-08-26T09:31:20Z</time>
      </trkpt>
      <trkpt lat="48.41192" lon="2.78445">
        <ele>55</ele>
        <time>2018-08-26T09:31:24Z</time>
      </trkpt>
      <trkpt lat="48.41189" lon="2.78452">
        <ele>55</ele>
        <time>2018-08-26T09:31:28Z</time>
      </trkpt>
      <trkpt lat="48.41181" lon="2.78462">
        <ele>55</ele>
        <time>2018-08-26T09:31:35Z</time>
      </trkpt>
      <trkpt lat="48.41178" lon="2.78468">
        <ele>56</ele>
        <time>2018-08-26T09:31:39Z</time>
      </trkpt>
      <trkpt lat="48.41154" lon="2.7851">
        <ele>55</ele>
        <time>2018-08-26T09:32:10Z</time>
      </trkpt>
      <trkpt lat="48.41138" lon="2.78531">
        <ele>55</ele>
        <time>2018-08-26T09:32:26Z</time>
      </trkpt>
      <trkpt lat="48.4112" lon="2.7856">
        <ele>55</ele>
        <time>2018-08-26T09:32:46Z</time>
      </trkpt>
      <trkpt lat="48.41111" lon="2.78568">
        <ele>56</ele>
        <time>2018-08-26T09:32:53Z</time>
      </trkpt>
      <trkpt lat="48.41106" lon="2.78573">
        <ele>55</ele>
        <time>2018-08-26T09:32:57Z</time>
      </trkpt>
      <trkpt lat="48.41103" lon="2.78577">
        <ele>55</ele>
        <time>2018-08-26T09:33:01Z</time>
      </trkpt>
      <trkpt lat="48.41101" lon="2.78585">
        <ele>55</ele>
        <time>2018-08-26T09:33:06Z</time>
      </trkpt>
      <trkpt lat="48.41091" lon="2.78602">
        <ele>55</ele>
        <time>2018-08-26T09:33:21Z</time>
      </trkpt>
      <trkpt lat="48.41087" lon="2.78606">
        <ele>55</ele>
        <time>2018-08-26T09:33:26Z</time>
      </trkpt>
      <trkpt lat="48.41078" lon="2.78608">
        <ele>55</ele>
        <time>2018-08-26T09:33:46Z</time>
      </trkpt>
      <trkpt lat="48.41073" lon="2.78607">
        <ele>55</ele>
        <time>2018-08-26T09:34:19Z</time>
      </trkpt>
      <trkpt lat="48.41067" lon="2.78607">
        <ele>55</ele>
        <time>2018-08-26T09:34:33Z</time>
      </trkpt>
      <trkpt lat="48.41063" lon="2.78602">
        <ele>54</ele>
        <time>2018-08-26T09:35:01Z</time>
      </trkpt>
      <trkpt lat="48.41055" lon="2.78603">
        <ele>55</ele>
        <time>2018-08-26T09:35:21Z</time>
      </trkpt>
      <trkpt lat="48.41051" lon="2.78609">
        <ele>55</ele>
        <time>2018-08-26T09:35:31Z</time>
      </trkpt>
      <trkpt lat="48.41045" lon="2.78604">
        <ele>54</ele>
        <time>2018-08-26T09:35:55Z</time>
      </trkpt>
      <trkpt lat="48.41037" lon="2.78606">
        <ele>54</ele>
        <time>2018-08-26T09:36:49Z</time>
      </trkpt>
      <trkpt lat="48.41032" lon="2.7861">
        <ele>54</ele>
        <time>2018-08-26T09:36:55Z</time>
      </trkpt>
      <trkpt lat="48.41028" lon="2.78615">
        <ele>54</ele>
        <time>2018-08-26T09:37:00Z</time>
      </trkpt>
      <trkpt lat="48.41023" lon="2.78616">
        <ele>54</ele>
        <time>2018-08-26T09:37:05Z</time>
      </trkpt>
      <trkpt lat="48.41001" lon="2.78615">
        <ele>54</ele>
        <time>2018-08-26T09:37:20Z</time>
      </trkpt>
      <trkpt lat="48.40996" lon="2.78617">
        <ele>54</ele>
        <time>2018-08-26T09:37:29Z</time>
      </trkpt>
      <trkpt lat="48.40991" lon="2.78613">
        <ele>54</ele>
        <time>2018-08-26T09:37:41Z</time>
      </trkpt>
      <trkpt lat="48.40985" lon="2.78598">
        <ele>54</ele>
        <time>2018-08-26T09:37:52Z</time>
      </trkpt>
      <trkpt lat="48.4098" lon="2.78583">
        <ele>55</ele>
        <time>2018-08-26T09:38:02Z</time>
      </trkpt>
      <trkpt lat="48.40979" lon="2.78574">
        <ele>55</ele>
        <time>2018-08-26T09:38:07Z</time>
      </trkpt>
      <trkpt lat="48.40962" lon="2.78519">
        <ele>57</ele>
        <time>2018-08-26T09:38:42Z</time>
      </trkpt>
      <trkpt lat="48.40952" lon="2.785">
        <ele>57</ele>
        <time>2018-08-26T09:38:58Z</time>
      </trkpt>
      <trkpt lat="48.40949" lon="2.78496">
        <ele>58</ele>
        <time>2018-08-26T09:39:02Z</time>
      </trkpt>
      <trkpt lat="48.40921" lon="2.78452">
        <ele>59</ele>
        <time>2018-08-26T09:39:36Z</time>
      </trkpt>
      <trkpt lat="48.40918" lon="2.78445">
        <ele>59</ele>
        <time>2018-08-26T09:39:40Z</time>
      </trkpt>
      <trkpt lat="48.40911" lon="2.7843">
        <ele>60</ele>
        <time>2018-08-26T09:39:51Z</time>
      </trkpt>
      <trkpt lat="48.40906" lon="2.78413">
        <ele>60</ele>
        <time>2018-08-26T09:40:07Z</time>
      </trkpt>
      <trkpt lat="48.40903" lon="2.78407">
        <ele>60</ele>
        <time>2018-08-26T09:40:12Z</time>
      </trkpt>
      <trkpt lat="48.40893" lon="2.78404">
        <ele>61</ele>
        <time>2018-08-26T09:40:18Z</time>
      </trkpt>
      <trkpt lat="48.4089" lon="2.78398">
        <ele>61</ele>
        <time>2018-08-26T09:40:21Z</time>
      </trkpt>
      <trkpt lat="48.40887" lon="2.7839">
        <ele>61</ele>
        <time>2018-08-26T09:40:25Z</time>
      </trkpt>
      <trkpt lat="48.40879" lon="2.78379">
        <ele>62</ele>
        <time>2018-08-26T09:40:33Z</time>
      </trkpt>
      <trkpt lat="48.40875" lon="2.78375">
        <ele>62</ele>
        <time>2018-08-26T09:40:37Z</time>
      </trkpt>
      <trkpt lat="48.40854" lon="2.78346">
        <ele>63</ele>
        <time>2018-08-26T09:41:00Z</time>
      </trkpt>
      <trkpt lat="48.40849" lon="2.78324">
        <ele>64</ele>
        <time>2018-08-26T09:41:12Z</time>
      </trkpt>
      <trkpt lat="48.40846" lon="2.78317">
        <ele>64</ele>
        <time>2018-08-26T09:41:16Z</time>
      </trkpt>
      <trkpt lat="48.40838" lon="2.78307">
        <ele>65</ele>
        <time>2018-08-26T09:41:24Z</time>
      </trkpt>
      <trkpt lat="48.40832" lon="2.78304">
        <ele>65</ele>
        <time>2018-08-26T09:41:31Z</time>
      </trkpt>
      <trkpt lat="48.40826" lon="2.78304">
        <ele>65</ele>
        <time>2018-08-26T09:42:23Z</time>
      </trkpt>
      <trkpt lat="48.40821" lon="2.78305">
        <ele>65</ele>
        <time>2018-08-26T09:42:27Z</time>
      </trkpt>
      <trkpt lat="48.40818" lon="2.78312">
        <ele>66</ele>
        <time>2018-08-26T09:42:31Z</time>
      </trkpt>
      <trkpt lat="48.40815" lon="2.78327">
        <ele>66</ele>
        <time>2018-08-26T09:42:39Z</time>
      </trkpt>
      <trkpt lat="48.40811" lon="2.78333">
        <ele>66</ele>
        <time>2018-08-26T09:42:43Z</time>
      </trkpt>
      <trkpt lat="48.40781" lon="2.78374">
        <ele>67</ele>
        <time>2018-08-26T09:43:20Z</time>
      </trkpt>
      <trkpt lat="48.40769" lon="2.78389">
        <ele>67</ele>
        <time>2018-08-26T09:43:32Z</time>
      </trkpt>
      <trkpt lat="48.40755" lon="2.78411">
        <ele>68</ele>
        <time>2018-08-26T09:43:52Z</time>
      </trkpt>
      <trkpt lat="48.40752" lon="2.78425">
        <ele>68</ele>
        <time>2018-08-26T09:43:59Z</time>
      </trkpt>
      <trkpt lat="48.40752" lon="2.78438">
        <ele>67</ele>
        <time>2018-08-26T09:44:06Z</time>
      </trkpt>
      <trkpt lat="48.40747" lon="2.78451">
        <ele>67</ele>
        <time>2018-08-26T09:44:14Z</time>
      </trkpt>
      <trkpt lat="48.40743" lon="2.78456">
        <ele>67</ele>
        <time>2018-08-26T09:44:19Z</time>
      </trkpt>
      <trkpt lat="48.40731" lon="2.78472">
        <ele>68</ele>
        <time>2018-08-26T09:44:35Z</time>
      </trkpt>
      <trkpt lat="48.40728" lon="2.78477">
        <ele>68</ele>
        <time>2018-08-26T09:44:39Z</time>
      </trkpt>
      <trkpt lat="48.40724" lon="2.78482">
        <ele>68</ele>
        <time>2018-08-26T09:44:43Z</time>
      </trkpt>
      <trkpt lat="48.40719" lon="2.78495">
        <ele>68</ele>
        <time>2018-08-26T09:44:51Z</time>
      </trkpt>
      <trkpt lat="48.40702" lon="2.7851">
        <ele>69</ele>
        <time>2018-08-26T09:45:06Z</time>
      </trkpt>
      <trkpt lat="48.40701" lon="2.78516">
        <ele>69</ele>
        <time>2018-08-26T09:45:10Z</time>
      </trkpt>
      <trkpt lat="48.40698" lon="2.78524">
        <ele>69</ele>
        <time>2018-08-26T09:45:14Z</time>
      </trkpt>
      <trkpt lat="48.40675" lon="2.78551">
        <ele>71</ele>
        <time>2018-08-26T09:45:37Z</time>
      </trkpt>
      <trkpt lat="48.40666" lon="2.78558">
        <ele>71</ele>
        <time>2018-08-26T09:45:46Z</time>
      </trkpt>
      <trkpt lat="48.40661" lon="2.78555">
        <ele>72</ele>
        <time>2018-08-26T09:45:54Z</time>
      </trkpt>
      <trkpt lat="48.4065" lon="2.7853">
        <ele>72</ele>
        <time>2018-08-26T09:46:11Z</time>
      </trkpt>
      <trkpt lat="48.40639" lon="2.78512">
        <ele>72</ele>
        <time>2018-08-26T09:46:25Z</time>
      </trkpt>
      <trkpt lat="48.40632" lon="2.78494">
        <ele>73</ele>
        <time>2018-08-26T09:46:37Z</time>
      </trkpt>
      <trkpt lat="48.40628" lon="2.7849">
        <ele>73</ele>
        <time>2018-08-26T09:46:40Z</time>
      </trkpt>
      <trkpt lat="48.4062" lon="2.7849">
        <ele>73</ele>
        <time>2018-08-26T09:46:50Z</time>
      </trkpt>
      <trkpt lat="48.40611" lon="2.78498">
        <ele>74</ele>
        <time>2018-08-26T09:47:00Z</time>
      </trkpt>
      <trkpt lat="48.40606" lon="2.78499">
        <ele>74</ele>
        <time>2018-08-26T09:47:05Z</time>
      </trkpt>
      <trkpt lat="48.40575" lon="2.78524">
        <ele>75</ele>
        <time>2018-08-26T09:47:30Z</time>
      </trkpt>
      <trkpt lat="48.40549" lon="2.7854">
        <ele>75</ele>
        <time>2018-08-26T09:47:53Z</time>
      </trkpt>
      <trkpt lat="48.40526" lon="2.78554">
        <ele>75</ele>
        <time>2018-08-26T09:48:18Z</time>
      </trkpt>
      <trkpt lat="48.40511" lon="2.78574">
        <ele>76</ele>
        <time>2018-08-26T09:48:33Z</time>
      </trkpt>
      <trkpt lat="48.40473" lon="2.78592">
        <ele>76</ele>
        <time>2018-08-26T09:49:00Z</time>
      </trkpt>
      <trkpt lat="48.40465" lon="2.78601">
        <ele>76</ele>
        <time>2018-08-26T09:49:06Z</time>
      </trkpt>
      <trkpt lat="48.40453" lon="2.7861">
        <ele>77</ele>
        <time>2018-08-26T09:49:17Z</time>
      </trkpt>
      <trkpt lat="48.40448" lon="2.7861">
        <ele>78</ele>
        <time>2018-08-26T09:49:30Z</time>
      </trkpt>
      <trkpt lat="48.40444" lon="2.78613">
        <ele>77</ele>
        <time>2018-08-26T09:49:35Z</time>
      </trkpt>
      <trkpt lat="48.40439" lon="2.78615">
        <ele>77</ele>
        <time>2018-08-26T09:49:39Z</time>
      </trkpt>
      <trkpt lat="48.40431" lon="2.78618">
        <ele>77</ele>
        <time>2018-08-26T09:49:48Z</time>
      </trkpt>
      <trkpt lat="48.40422" lon="2.78625">
        <ele>78</ele>
        <time>2018-08-26T09:49:55Z</time>
      </trkpt>
      <trkpt lat="48.40418" lon="2.78626">
        <ele>78</ele>
        <time>2018-08-26T09:50:00Z</time>
      </trkpt>
      <trkpt lat="48.40412" lon="2.78628">
        <ele>78</ele>
        <time>2018-08-26T09:50:31Z</time>
      </trkpt>
      <trkpt lat="48.40401" lon="2.78638">
        <ele>77</ele>
        <time>2018-08-26T09:50:44Z</time>
      </trkpt>
      <trkpt lat="48.40391" lon="2.78642">
        <ele>78</ele>
        <time>2018-08-26T09:50:53Z</time>
      </trkpt>
      <trkpt lat="48.40387" lon="2.7864">
        <ele>78</ele>
        <time>2018-08-26T09:51:02Z</time>
      </trkpt>
      <trkpt lat="48.40384" lon="2.78651">
        <ele>78</ele>
        <time>2018-08-26T09:51:18Z</time>
      </trkpt>
      <trkpt lat="48.40384" lon="2.78659">
        <ele>78</ele>
        <time>2018-08-26T09:51:22Z</time>
      </trkpt>
      <trkpt lat="48.40387" lon="2.78672">
        <ele>77</ele>
        <time>2018-08-26T09:51:29Z</time>
      </trkpt>
      <trkpt lat="48.40391" lon="2.78695">
        <ele>77</ele>
        <time>2018-08-26T09:51:42Z</time>
      </trkpt>
      <trkpt lat="48.40394" lon="2.78709">
        <ele>77</ele>
        <time>2018-08-26T09:51:50Z</time>
      </trkpt>
      <trkpt lat="48.40395" lon="2.78719">
        <ele>76</ele>
        <time>2018-08-26T09:51:56Z</time>
      </trkpt>
      <trkpt lat="48.40401" lon="2.78736">
        <ele>76</ele>
        <time>2018-08-26T09:52:08Z</time>
      </trkpt>
      <trkpt lat="48.40402" lon="2.78744">
        <ele>76</ele>
        <time>2018-08-26T09:52:12Z</time>
      </trkpt>
      <trkpt lat="48.40406" lon="2.78749">
        <ele>76</ele>
        <time>2018-08-26T09:52:17Z</time>
      </trkpt>
      <trkpt lat="48.40412" lon="2.78749">
        <ele>76</ele>
        <time>2018-08-26T09:52:24Z</time>
      </trkpt>
      <trkpt lat="48.40417" lon="2.78756">
        <ele>76</ele>
        <time>2018-08-26T09:52:31Z</time>
      </trkpt>
      <trkpt lat="48.40421" lon="2.78802">
        <ele>74</ele>
        <time>2018-08-26T09:52:56Z</time>
      </trkpt>
      <trkpt lat="48.40426" lon="2.78809">
        <ele>74</ele>
        <time>2018-08-26T09:53:12Z</time>
      </trkpt>
      <trkpt lat="48.4043" lon="2.78815">
        <ele>74</ele>
        <time>2018-08-26T09:53:24Z</time>
      </trkpt>
      <trkpt lat="48.4043" lon="2.78828">
        <ele>74</ele>
        <time>2018-08-26T09:53:35Z</time>
      </trkpt>
      <trkpt lat="48.40438" lon="2.78866">
        <ele>72</ele>
        <time>2018-08-26T09:53:56Z</time>
      </trkpt>
      <trkpt lat="48.40438" lon="2.7888">
        <ele>71</ele>
        <time>2018-08-26T09:54:02Z</time>
      </trkpt>
      <trkpt lat="48.40446" lon="2.78916">
        <ele>69</ele>
        <time>2018-08-26T09:54:19Z</time>
      </trkpt>
      <trkpt lat="48.40447" lon="2.78931">
        <ele>68</ele>
        <time>2018-08-26T09:54:27Z</time>
      </trkpt>
      <trkpt lat="48.4045" lon="2.78962">
        <ele>66</ele>
        <time>2018-08-26T09:54:41Z</time>
      </trkpt>
      <trkpt lat="48.40445" lon="2.78963">
        <ele>65</ele>
        <time>2018-08-26T09:54:45Z</time>
      </trkpt>
      <trkpt lat="48.40424" lon="2.78956">
        <ele>66</ele>
        <time>2018-08-26T09:54:57Z</time>
      </trkpt>
      <trkpt lat="48.40416" lon="2.78951">
        <ele>66</ele>
        <time>2018-08-26T09:55:05Z</time>
      </trkpt>
      <trkpt lat="48.40401" lon="2.7895">
        <ele>67</ele>
        <time>2018-08-26T09:55:17Z</time>
      </trkpt>
      <trkpt lat="48.40395" lon="2.78951">
        <ele>67</ele>
        <time>2018-08-26T09:55:23Z</time>
      </trkpt>
      <trkpt lat="48.40364" lon="2.78943">
        <ele>68</ele>
        <time>2018-08-26T09:55:48Z</time>
      </trkpt>
      <trkpt lat="48.40354" lon="2.7894">
        <ele>67</ele>
        <time>2018-08-26T09:55:57Z</time>
      </trkpt>
      <trkpt lat="48.40349" lon="2.78937">
        <ele>67</ele>
        <time>2018-08-26T09:56:02Z</time>
      </trkpt>
      <trkpt lat="48.40339" lon="2.78937">
        <ele>68</ele>
        <time>2018-08-26T09:56:10Z</time>
      </trkpt>
      <trkpt lat="48.40335" lon="2.78939">
        <ele>68</ele>
        <time>2018-08-26T09:56:14Z</time>
      </trkpt>
      <trkpt lat="48.40324" lon="2.78937">
        <ele>68</ele>
        <time>2018-08-26T09:56:22Z</time>
      </trkpt>
      <trkpt lat="48.4032" lon="2.78931">
        <ele>69</ele>
        <time>2018-08-26T09:56:27Z</time>
      </trkpt>
      <trkpt lat="48.40314" lon="2.78919">
        <ele>70</ele>
        <time>2018-08-26T09:56:36Z</time>
      </trkpt>
      <trkpt lat="48.40313" lon="2.78911">
        <ele>70</ele>
        <time>2018-08-26T09:56:41Z</time>
      </trkpt>
      <trkpt lat="48.40311" lon="2.78904">
        <ele>71</ele>
        <time>2018-08-26T09:56:46Z</time>
      </trkpt>
      <trkpt lat="48.40303" lon="2.78901">
        <ele>72</ele>
        <time>2018-08-26T09:56:59Z</time>
      </trkpt>
      <trkpt lat="48.40266" lon="2.78894">
        <ele>73</ele>
        <time>2018-08-26T09:57:32Z</time>
      </trkpt>
      <trkpt lat="48.40241" lon="2.7889">
        <ele>74</ele>
        <time>2018-08-26T09:57:54Z</time>
      </trkpt>
      <trkpt lat="48.4023" lon="2.78893">
        <ele>74</ele>
        <time>2018-08-26T09:58:03Z</time>
      </trkpt>
      <trkpt lat="48.40221" lon="2.78889">
        <ele>74</ele>
        <time>2018-08-26T09:58:11Z</time>
      </trkpt>
      <trkpt lat="48.40201" lon="2.78892">
        <ele>74</ele>
        <time>2018-08-26T09:58:26Z</time>
      </trkpt>
      <trkpt lat="48.40162" lon="2.78886">
        <ele>75</ele>
        <time>2018-08-26T09:59:00Z</time>
      </trkpt>
      <trkpt lat="48.40138" lon="2.78876">
        <ele>77</ele>
        <time>2018-08-26T09:59:20Z</time>
      </trkpt>
      <trkpt lat="48.40131" lon="2.78875">
        <ele>77</ele>
        <time>2018-08-26T09:59:28Z</time>
      </trkpt>
      <trkpt lat="48.40126" lon="2.78874">
        <ele>77</ele>
        <time>2018-08-26T09:59:33Z</time>
      </trkpt>
      <trkpt lat="48.40121" lon="2.78873">
        <ele>77</ele>
        <time>2018-08-26T09:59:37Z</time>
      </trkpt>
      <trkpt lat="48.40116" lon="2.7887">
        <ele>77</ele>
        <time>2018-08-26T09:59:41Z</time>
      </trkpt>
      <trkpt lat="48.4009" lon="2.78868">
        <ele>78</ele>
        <time>2018-08-26T10:00:03Z</time>
      </trkpt>
      <trkpt lat="48.40081" lon="2.78863">
        <ele>78</ele>
        <time>2018-08-26T10:00:12Z</time>
      </trkpt>
      <trkpt lat="48.40076" lon="2.78861">
        <ele>78</ele>
        <time>2018-08-26T10:00:17Z</time>
      </trkpt>
      <trkpt lat="48.40062" lon="2.7886">
        <ele>78</ele>
        <time>2018-08-26T10:00:30Z</time>
      </trkpt>
      <trkpt lat="48.40044" lon="2.78861">
        <ele>78</ele>
        <time>2018-08-26T10:00:42Z</time>
      </trkpt>
      <trkpt lat="48.40002" lon="2.78848">
        <ele>77</ele>
        <time>2018-08-26T10:01:14Z</time>
      </trkpt>
      <trkpt lat="48.39972" lon="2.78844">
        <ele>78</ele>
        <time>2018-08-26T10:01:39Z</time>
      </trkpt>
      <trkpt lat="48.39967" lon="2.78844">
        <ele>78</ele>
        <time>2018-08-26T10:01:44Z</time>
      </trkpt>
      <trkpt lat="48.3994" lon="2.78838">
        <ele>79</ele>
        <time>2018-08-26T10:02:06Z</time>
      </trkpt>
      <trkpt lat="48.39936" lon="2.78835">
        <ele>79</ele>
        <time>2018-08-26T10:02:10Z</time>
      </trkpt>
      <trkpt lat="48.39931" lon="2.78833">
        <ele>79</ele>
        <time>2018-08-26T10:02:14Z</time>
      </trkpt>
      <trkpt lat="48.39926" lon="2.78829">
        <ele>79</ele>
        <time>2018-08-26T10:02:19Z</time>
      </trkpt>
      <trkpt lat="48.39915" lon="2.78828">
        <ele>79</ele>
        <time>2018-08-26T10:02:27Z</time>
      </trkpt>
      <trkpt lat="48.399" lon="2.7883">
        <ele>79</ele>
        <time>2018-08-26T10:02:39Z</time>
      </trkpt>
      <trkpt lat="48.39889" lon="2.78827">
        <ele>79</ele>
        <time>2018-08-26T10:02:49Z</time>
      </trkpt>
      <trkpt lat="48.39884" lon="2.78828">
        <ele>79</ele>
        <time>2018-08-26T10:02:53Z</time>
      </trkpt>
      <trkpt lat="48.39879" lon="2.78826">
        <ele>79</ele>
        <time>2018-08-26T10:02:57Z</time>
      </trkpt>
      <trkpt lat="48.39875" lon="2.78823">
        <ele>79</ele>
        <time>2018-08-26T10:03:01Z</time>
      </trkpt>
      <trkpt lat="48.39854" lon="2.78824">
        <ele>79</ele>
        <time>2018-08-26T10:03:17Z</time>
      </trkpt>
      <trkpt lat="48.39849" lon="2.78826">
        <ele>78</ele>
        <time>2018-08-26T10:03:21Z</time>
      </trkpt>
      <trkpt lat="48.39845" lon="2.78825">
        <ele>78</ele>
        <time>2018-08-26T10:03:25Z</time>
      </trkpt>
      <trkpt lat="48.39841" lon="2.7883">
        <ele>78</ele>
        <time>2018-08-26T10:03:43Z</time>
      </trkpt>
      <trkpt lat="48.39834" lon="2.78824">
        <ele>78</ele>
        <time>2018-08-26T10:04:08Z</time>
      </trkpt>
      <trkpt lat="48.39828" lon="2.78861">
        <ele>73</ele>
        <time>2018-08-26T10:04:40Z</time>
      </trkpt>
      <trkpt lat="48.39822" lon="2.78862">
        <ele>72</ele>
        <time>2018-08-26T10:04:45Z</time>
      </trkpt>
      <trkpt lat="48.39817" lon="2.78859">
        <ele>72</ele>
        <time>2018-08-26T10:04:49Z</time>
      </trkpt>
      <trkpt lat="48.39813" lon="2.78856">
        <ele>73</ele>
        <time>2018-08-26T10:04:53Z</time>
      </trkpt>
      <trkpt lat="48.39797" lon="2.78854">
        <ele>73</ele>
        <time>2018-08-26T10:05:07Z</time>
      </trkpt>
      <trkpt lat="48.39792" lon="2.78851">
        <ele>73</ele>
        <time>2018-08-26T10:05:12Z</time>
      </trkpt>
      <trkpt lat="48.39787" lon="2.78851">
        <ele>73</ele>
        <time>2018-08-26T10:05:15Z</time>
      </trkpt>
      <trkpt lat="48.39777" lon="2.78853">
        <ele>74</ele>
        <time>2018-08-26T10:05:24Z</time>
      </trkpt>
      <trkpt lat="48.39772" lon="2.78851">
        <ele>74</ele>
        <time>2018-08-26T10:05:29Z</time>
      </trkpt>
      <trkpt lat="48.39768" lon="2.78847">
        <ele>75</ele>
        <time>2018-08-26T10:05:33Z</time>
      </trkpt>
      <trkpt lat="48.39729" lon="2.78833">
        <ele>76</ele>
        <time>2018-08-26T10:06:08Z</time>
      </trkpt>
      <trkpt lat="48.39724" lon="2.78831">
        <ele>76</ele>
        <time>2018-08-26T10:06:13Z</time>
      </trkpt>
      <trkpt lat="48.39694" lon="2.7881">
        <ele>78</ele>
        <time>2018-08-26T10:06:48Z</time>
      </trkpt>
      <trkpt lat="48.39676" lon="2.78803">
        <ele>79</ele>
        <time>2018-08-26T10:07:04Z</time>
      </trkpt>
      <trkpt lat="48.39668" lon="2.78796">
        <ele>79</ele>
        <time>2018-08-26T10:07:13Z</time>
      </trkpt>
      <trkpt lat="48.39629" lon="2.78791">
        <ele>82</ele>
        <time>2018-08-26T10:07:47Z</time>
      </trkpt>
      <trkpt lat="48.39624" lon="2.78792">
        <ele>83</ele>
        <time>2018-08-26T10:07:52Z</time>
      </trkpt>
      <trkpt lat="48.39614" lon="2.78792">
        <ele>83</ele>
        <time>2018-08-26T10:08:02Z</time>
      </trkpt>
      <trkpt lat="48.39609" lon="2.7879">
        <ele>83</ele>
        <time>2018-08-26T10:08:06Z</time>
      </trkpt>
      <trkpt lat="48.39598" lon="2.78785">
        <ele>83</ele>
        <time>2018-08-26T10:08:18Z</time>
      </trkpt>
      <trkpt lat="48.39593" lon="2.78786">
        <ele>83</ele>
        <time>2018-08-26T10:08:23Z</time>
      </trkpt>
      <trkpt lat="48.39582" lon="2.78784">
        <ele>83</ele>
        <time>2018-08-26T10:08:32Z</time>
      </trkpt>
      <trkpt lat="48.39578" lon="2.78785">
        <ele>83</ele>
        <time>2018-08-26T10:08:36Z</time>
      </trkpt>
      <trkpt lat="48.39572" lon="2.78783">
        <ele>83</ele>
        <time>2018-08-26T10:08:39Z</time>
      </trkpt>
      <trkpt lat="48.39567" lon="2.78785">
        <ele>83</ele>
        <time>2018-08-26T10:08:45Z</time>
      </trkpt>
      <trkpt lat="48.39561" lon="2.78786">
        <ele>83</ele>
        <time>2018-08-26T10:08:50Z</time>
      </trkpt>
      <trkpt lat="48.39541" lon="2.78778">
        <ele>84</ele>
        <time>2018-08-26T10:09:08Z</time>
      </trkpt>
      <trkpt lat="48.39536" lon="2.78779">
        <ele>86</ele>
        <time>2018-08-26T10:09:29Z</time>
      </trkpt>
      <trkpt lat="48.39313" lon="2.77948">
        <ele>88</ele>
        <time>2018-08-26T10:26:10Z</time>
      </trkpt>
      <trkpt lat="48.39313" lon="2.77948">
        <ele>88</ele>
        <time>2018-08-26T10:26:10Z</time>
      </trkpt>
      <trkpt lat="48.39308" lon="2.77941">
        <ele>88</ele>
        <time>2018-08-26T10:26:38Z</time>
      </trkpt>
      <trkpt lat="48.39303" lon="2.77938">
        <ele>88</ele>
        <time>2018-08-26T10:26:44Z</time>
      </trkpt>
      <trkpt lat="48.39297" lon="2.77932">
        <ele>88</ele>
        <time>2018-08-26T10:26:48Z</time>
      </trkpt>
      <trkpt lat="48.39292" lon="2.77932">
        <ele>88</ele>
        <time>2018-08-26T10:26:53Z</time>
      </trkpt>
      <trkpt lat="48.39286" lon="2.77931">
        <ele>87</ele>
        <time>2018-08-26T10:26:59Z</time>
      </trkpt>
      <trkpt lat="48.39283" lon="2.77925">
        <ele>87</ele>
        <time>2018-08-26T10:27:07Z</time>
      </trkpt>
      <trkpt lat="48.39284" lon="2.77918">
        <ele>87</ele>
        <time>2018-08-26T10:27:13Z</time>
      </trkpt>
      <trkpt lat="48.39283" lon="2.77911">
        <ele>86</ele>
        <time>2018-08-26T10:27:19Z</time>
      </trkpt>
      <trkpt lat="48.39286" lon="2.77891">
        <ele>85</ele>
        <time>2018-08-26T10:27:43Z</time>
      </trkpt>
      <trkpt lat="48.39283" lon="2.77885">
        <ele>85</ele>
        <time>2018-08-26T10:27:47Z</time>
      </trkpt>
      <trkpt lat="48.39278" lon="2.77877">
        <ele>86</ele>
        <time>2018-08-26T10:27:55Z</time>
      </trkpt>
      <trkpt lat="48.3927" lon="2.77866">
        <ele>86</ele>
        <time>2018-08-26T10:28:03Z</time>
      </trkpt>
      <trkpt lat="48.39269" lon="2.77859">
        <ele>86</ele>
        <time>2018-08-26T10:28:07Z</time>
      </trkpt>
      <trkpt lat="48.39261" lon="2.77841">
        <ele>85</ele>
        <time>2018-08-26T10:28:19Z</time>
      </trkpt>
      <trkpt lat="48.39256" lon="2.77833">
        <ele>85</ele>
        <time>2018-08-26T10:28:25Z</time>
      </trkpt>
      <trkpt lat="48.39253" lon="2.77827">
        <ele>85</ele>
        <time>2018-08-26T10:28:29Z</time>
      </trkpt>
      <trkpt lat="48.39249" lon="2.77812">
        <ele>85</ele>
        <time>2018-08-26T10:28:43Z</time>
      </trkpt>
      <trkpt lat="48.39242" lon="2.77791">
        <ele>85</ele>
        <time>2018-08-26T10:28:59Z</time>
      </trkpt>
      <trkpt lat="48.39239" lon="2.77784">
        <ele>85</ele>
        <time>2018-08-26T10:29:05Z</time>
      </trkpt>
      <trkpt lat="48.39238" lon="2.77776">
        <ele>85</ele>
        <time>2018-08-26T10:29:09Z</time>
      </trkpt>
      <trkpt lat="48.39229" lon="2.77751">
        <ele>86</ele>
        <time>2018-08-26T10:29:26Z</time>
      </trkpt>
      <trkpt lat="48.39224" lon="2.77723">
        <ele>86</ele>
        <time>2018-08-26T10:29:41Z</time>
      </trkpt>
      <trkpt lat="48.39215" lon="2.77705">
        <ele>86</ele>
        <time>2018-08-26T10:29:56Z</time>
      </trkpt>
      <trkpt lat="48.39213" lon="2.77699">
        <ele>86</ele>
        <time>2018-08-26T10:29:59Z</time>
      </trkpt>
      <trkpt lat="48.39197" lon="2.77666">
        <ele>87</ele>
        <time>2018-08-26T10:30:20Z</time>
      </trkpt>
      <trkpt lat="48.39189" lon="2.77622">
        <ele>88</ele>
        <time>2018-08-26T10:30:48Z</time>
      </trkpt>
      <trkpt lat="48.39182" lon="2.77608">
        <ele>88</ele>
        <time>2018-08-26T10:30:57Z</time>
      </trkpt>
      <trkpt lat="48.39176" lon="2.77596">
        <ele>88</ele>
        <time>2018-08-26T10:31:05Z</time>
      </trkpt>
      <trkpt lat="48.39175" lon="2.77589">
        <ele>88</ele>
        <time>2018-08-26T10:31:08Z</time>
      </trkpt>
      <trkpt lat="48.39171" lon="2.77574">
        <ele>88</ele>
        <time>2018-08-26T10:31:18Z</time>
      </trkpt>
      <trkpt lat="48.39163" lon="2.77555">
        <ele>89</ele>
        <time>2018-08-26T10:31:31Z</time>
      </trkpt>
      <trkpt lat="48.39161" lon="2.77547">
        <ele>89</ele>
        <time>2018-08-26T10:31:36Z</time>
      </trkpt>
      <trkpt lat="48.39159" lon="2.7754">
        <ele>89</ele>
        <time>2018-08-26T10:31:40Z</time>
      </trkpt>
      <trkpt lat="48.39158" lon="2.77532">
        <ele>89</ele>
        <time>2018-08-26T10:31:43Z</time>
      </trkpt>
      <trkpt lat="48.39153" lon="2.77518">
        <ele>89</ele>
        <time>2018-08-26T10:31:55Z</time>
      </trkpt>
      <trkpt lat="48.39149" lon="2.77514">
        <ele>89</ele>
        <time>2018-08-26T10:31:59Z</time>
      </trkpt>
      <trkpt lat="48.39141" lon="2.77497">
        <ele>89</ele>
        <time>2018-08-26T10:32:10Z</time>
      </trkpt>
      <trkpt lat="48.39137" lon="2.77482">
        <ele>89</ele>
        <time>2018-08-26T10:32:19Z</time>
      </trkpt>
      <trkpt lat="48.39128" lon="2.77463">
        <ele>90</ele>
        <time>2018-08-26T10:32:34Z</time>
      </trkpt>
      <trkpt lat="48.39126" lon="2.77455">
        <ele>90</ele>
        <time>2018-08-26T10:32:37Z</time>
      </trkpt>
      <trkpt lat="48.39115" lon="2.77433">
        <ele>90</ele>
        <time>2018-08-26T10:32:53Z</time>
      </trkpt>
      <trkpt lat="48.39111" lon="2.77419">
        <ele>90</ele>
        <time>2018-08-26T10:33:02Z</time>
      </trkpt>
      <trkpt lat="48.39109" lon="2.77413">
        <ele>90</ele>
        <time>2018-08-26T10:33:07Z</time>
      </trkpt>
      <trkpt lat="48.39108" lon="2.77402">
        <ele>90</ele>
        <time>2018-08-26T10:33:14Z</time>
      </trkpt>
      <trkpt lat="48.39103" lon="2.77382">
        <ele>90</ele>
        <time>2018-08-26T10:33:28Z</time>
      </trkpt>
      <trkpt lat="48.39099" lon="2.77376">
        <ele>91</ele>
        <time>2018-08-26T10:33:33Z</time>
      </trkpt>
      <trkpt lat="48.39104" lon="2.77357">
        <ele>91</ele>
        <time>2018-08-26T10:34:31Z</time>
      </trkpt>
      <trkpt lat="48.391" lon="2.77343">
        <ele>91</ele>
        <time>2018-08-26T10:34:39Z</time>
      </trkpt>
      <trkpt lat="48.39099" lon="2.77335">
        <ele>91</ele>
        <time>2018-08-26T10:34:42Z</time>
      </trkpt>
      <trkpt lat="48.39093" lon="2.77324">
        <ele>91</ele>
        <time>2018-08-26T10:34:51Z</time>
      </trkpt>
      <trkpt lat="48.39083" lon="2.77257">
        <ele>90</ele>
        <time>2018-08-26T10:35:20Z</time>
      </trkpt>
      <trkpt lat="48.39084" lon="2.77243">
        <ele>90</ele>
        <time>2018-08-26T10:35:27Z</time>
      </trkpt>
      <trkpt lat="48.3908" lon="2.77214">
        <ele>90</ele>
        <time>2018-08-26T10:35:41Z</time>
      </trkpt>
      <trkpt lat="48.3908" lon="2.77195">
        <ele>90</ele>
        <time>2018-08-26T10:35:51Z</time>
      </trkpt>
      <trkpt lat="48.39079" lon="2.77173">
        <ele>90</ele>
        <time>2018-08-26T10:36:01Z</time>
      </trkpt>
      <trkpt lat="48.3908" lon="2.77156">
        <ele>89</ele>
        <time>2018-08-26T10:36:09Z</time>
      </trkpt>
      <trkpt lat="48.39078" lon="2.77142">
        <ele>90</ele>
        <time>2018-08-26T10:36:16Z</time>
      </trkpt>
      <trkpt lat="48.39079" lon="2.77134">
        <ele>89</ele>
        <time>2018-08-26T10:36:20Z</time>
      </trkpt>
      <trkpt lat="48.3908" lon="2.77096">
        <ele>90</ele>
        <time>2018-08-26T10:36:36Z</time>
      </trkpt>
      <trkpt lat="48.39079" lon="2.77089">
        <ele>89</ele>
        <time>2018-08-26T10:36:39Z</time>
      </trkpt>
      <trkpt lat="48.39078" lon="2.77026">
        <ele>89</ele>
        <time>2018-08-26T10:37:13Z</time>
      </trkpt>
      <trkpt lat="48.39077" lon="2.77003">
        <ele>89</ele>
        <time>2018-08-26T10:37:24Z</time>
      </trkpt>
      <trkpt lat="48.39076" lon="2.76971">
        <ele>89</ele>
        <time>2018-08-26T10:37:42Z</time>
      </trkpt>
      <trkpt lat="48.39074" lon="2.7695">
        <ele>89</ele>
        <time>2018-08-26T10:37:57Z</time>
      </trkpt>
      <trkpt lat="48.39075" lon="2.76891">
        <ele>89</ele>
        <time>2018-08-26T10:38:28Z</time>
      </trkpt>
      <trkpt lat="48.39071" lon="2.76869">
        <ele>89</ele>
        <time>2018-08-26T10:38:41Z</time>
      </trkpt>
      <trkpt lat="48.3907" lon="2.76863">
        <ele>89</ele>
        <time>2018-08-26T10:38:45Z</time>
      </trkpt>
      <trkpt lat="48.3907" lon="2.76854">
        <ele>89</ele>
        <time>2018-08-26T10:38:48Z</time>
      </trkpt>
      <trkpt lat="48.39071" lon="2.76848">
        <ele>89</ele>
        <time>2018-08-26T10:38:51Z</time>
      </trkpt>
      <trkpt lat="48.39072" lon="2.76826">
        <ele>89</ele>
        <time>2018-08-26T10:39:04Z</time>
      </trkpt>
      <trkpt lat="48.39069" lon="2.76817">
        <ele>88</ele>
        <time>2018-08-26T10:39:13Z</time>
      </trkpt>
      <trkpt lat="48.39072" lon="2.76752">
        <ele>89</ele>
        <time>2018-08-26T10:39:45Z</time>
      </trkpt>
      <trkpt lat="48.39074" lon="2.76705">
        <ele>88</ele>
        <time>2018-08-26T10:40:11Z</time>
      </trkpt>
      <trkpt lat="48.3907" lon="2.7666">
        <ele>88</ele>
        <time>2018-08-26T10:40:37Z</time>
      </trkpt>
      <trkpt lat="48.3907" lon="2.7665">
        <ele>88</ele>
        <time>2018-08-26T10:40:43Z</time>
      </trkpt>
      <trkpt lat="48.3907" lon="2.76643">
        <ele>88</ele>
        <time>2018-08-26T10:40:48Z</time>
      </trkpt>
      <trkpt lat="48.39064" lon="2.76596">
        <ele>88</ele>
        <time>2018-08-26T10:41:14Z</time>
      </trkpt>
      <trkpt lat="48.39065" lon="2.76588">
        <ele>88</ele>
        <time>2018-08-26T10:41:18Z</time>
      </trkpt>
      <trkpt lat="48.39065" lon="2.7655">
        <ele>88</ele>
        <time>2018-08-26T10:41:38Z</time>
      </trkpt>
      <trkpt lat="48.39063" lon="2.7649">
        <ele>87</ele>
        <time>2018-08-26T10:42:13Z</time>
      </trkpt>
      <trkpt lat="48.39064" lon="2.76471">
        <ele>88</ele>
        <time>2018-08-26T10:42:26Z</time>
      </trkpt>
      <trkpt lat="48.39061" lon="2.76459">
        <ele>88</ele>
        <time>2018-08-26T10:42:35Z</time>
      </trkpt>
      <trkpt lat="48.39062" lon="2.7645">
        <ele>88</ele>
        <time>2018-08-26T10:42:48Z</time>
      </trkpt>
      <trkpt lat="48.39064" lon="2.76429">
        <ele>88</ele>
        <time>2018-08-26T10:43:11Z</time>
      </trkpt>
      <trkpt lat="48.39069" lon="2.76422">
        <ele>87</ele>
        <time>2018-08-26T10:43:25Z</time>
      </trkpt>
      <trkpt lat="48.39072" lon="2.76419">
        <ele>88</ele>
        <time>2018-08-26T10:43:36Z</time>
      </trkpt>
      <trkpt lat="48.3908" lon="2.76413">
        <ele>88</ele>
        <time>2018-08-26T10:44:31Z</time>
      </trkpt>
      <trkpt lat="48.3908" lon="2.76406">
        <ele>88</ele>
        <time>2018-08-26T10:45:01Z</time>
      </trkpt>
      <trkpt lat="48.39086" lon="2.76405">
        <ele>88</ele>
        <time>2018-08-26T10:45:25Z</time>
      </trkpt>
      <trkpt lat="48.39092" lon="2.76407">
        <ele>88</ele>
        <time>2018-08-26T10:45:31Z</time>
      </trkpt>
      <trkpt lat="48.39099" lon="2.76406">
        <ele>88</ele>
        <time>2018-08-26T10:45:43Z</time>
      </trkpt>
      <trkpt lat="48.3911" lon="2.76409">
        <ele>88</ele>
        <time>2018-08-26T10:45:52Z</time>
      </trkpt>
      <trkpt lat="48.39119" lon="2.76404">
        <ele>88</ele>
        <time>2018-08-26T10:46:00Z</time>
      </trkpt>
      <trkpt lat="48.39124" lon="2.76404">
        <ele>88</ele>
        <time>2018-08-26T10:46:04Z</time>
      </trkpt>
      <trkpt lat="48.39131" lon="2.76406">
        <ele>88</ele>
        <time>2018-08-26T10:46:11Z</time>
      </trkpt>
      <trkpt lat="48.39141" lon="2.76405">
        <ele>88</ele>
        <time>2018-08-26T10:46:19Z</time>
      </trkpt>
      <trkpt lat="48.39156" lon="2.76401">
        <ele>89</ele>
        <time>2018-08-26T10:46:29Z</time>
      </trkpt>
      <trkpt lat="48.39199" lon="2.76399">
        <ele>89</ele>
        <time>2018-08-26T10:47:01Z</time>
      </trkpt>
      <trkpt lat="48.3924" lon="2.76396">
        <ele>88</ele>
        <time>2018-08-26T10:47:33Z</time>
      </trkpt>
      <trkpt lat="48.39284" lon="2.76395">
        <ele>88</ele>
        <time>2018-08-26T10:48:05Z</time>
      </trkpt>
      <trkpt lat="48.39294" lon="2.76397">
        <ele>88</ele>
        <time>2018-08-26T10:48:12Z</time>
      </trkpt>
      <trkpt lat="48.39298" lon="2.76396">
        <ele>88</ele>
        <time>2018-08-26T10:48:16Z</time>
      </trkpt>
      <trkpt lat="48.39307" lon="2.76399">
        <ele>88</ele>
        <time>2018-08-26T10:48:24Z</time>
      </trkpt>
      <trkpt lat="48.39312" lon="2.76399">
        <ele>88</ele>
        <time>2018-08-26T10:48:28Z</time>
      </trkpt>
      <trkpt lat="48.39321" lon="2.76394">
        <ele>88</ele>
        <time>2018-08-26T10:48:36Z</time>
      </trkpt>
      <trkpt lat="48.39363" lon="2.76391">
        <ele>88</ele>
        <time>2018-08-26T10:49:09Z</time>
      </trkpt>
      <trkpt lat="48.3937" lon="2.76392">
        <ele>88</ele>
        <time>2018-08-26T10:49:15Z</time>
      </trkpt>
      <trkpt lat="48.3938" lon="2.76389">
        <ele>88</ele>
        <time>2018-08-26T10:49:23Z</time>
      </trkpt>
      <trkpt lat="48.3939" lon="2.7639">
        <ele>88</ele>
        <time>2018-08-26T10:49:32Z</time>
      </trkpt>
      <trkpt lat="48.39402" lon="2.76394">
        <ele>89</ele>
        <time>2018-08-26T10:49:54Z</time>
      </trkpt>
      <trkpt lat="48.39402" lon="2.764">
        <ele>89</ele>
        <time>2018-08-26T10:52:05Z</time>
      </trkpt>
      <trkpt lat="48.39398" lon="2.76405">
        <ele>89</ele>
        <time>2018-08-26T10:52:11Z</time>
      </trkpt>
      <trkpt lat="48.39392" lon="2.7641">
        <ele>89</ele>
        <time>2018-08-26T10:52:22Z</time>
      </trkpt>
      <trkpt lat="48.39376" lon="2.7641">
        <ele>89</ele>
        <time>2018-08-26T10:52:48Z</time>
      </trkpt>
      <trkpt lat="48.39372" lon="2.76412">
        <ele>89</ele>
        <time>2018-08-26T10:52:52Z</time>
      </trkpt>
      <trkpt lat="48.39341" lon="2.76413">
        <ele>90</ele>
        <time>2018-08-26T10:53:15Z</time>
      </trkpt>
      <trkpt lat="48.39335" lon="2.7641">
        <ele>90</ele>
        <time>2018-08-26T10:53:19Z</time>
      </trkpt>
      <trkpt lat="48.39315" lon="2.76413">
        <ele>90</ele>
        <time>2018-08-26T10:53:34Z</time>
      </trkpt>
      <trkpt lat="48.39308" lon="2.76408">
        <ele>91</ele>
        <time>2018-08-26T10:54:29Z</time>
      </trkpt>
      <trkpt lat="48.39303" lon="2.7641">
        <ele>91</ele>
        <time>2018-08-26T10:54:35Z</time>
      </trkpt>
      <trkpt lat="48.39297" lon="2.76409">
        <ele>91</ele>
        <time>2018-08-26T10:54:39Z</time>
      </trkpt>
      <trkpt lat="48.39277" lon="2.76409">
        <ele>91</ele>
        <time>2018-08-26T10:54:51Z</time>
      </trkpt>
      <trkpt lat="48.39267" lon="2.76407">
        <ele>92</ele>
        <time>2018-08-26T10:54:57Z</time>
      </trkpt>
      <trkpt lat="48.39262" lon="2.76408">
        <ele>92</ele>
        <time>2018-08-26T10:55:00Z</time>
      </trkpt>
      <trkpt lat="48.39254" lon="2.7641">
        <ele>92</ele>
        <time>2018-08-26T10:55:10Z</time>
      </trkpt>
      <trkpt lat="48.3925" lon="2.7641">
        <ele>92</ele>
        <time>2018-08-26T10:55:20Z</time>
      </trkpt>
      <trkpt lat="48.39244" lon="2.76407">
        <ele>92</ele>
        <time>2018-08-26T10:55:24Z</time>
      </trkpt>
      <trkpt lat="48.39239" lon="2.76407">
        <ele>92</ele>
        <time>2018-08-26T10:55:29Z</time>
      </trkpt>
      <trkpt lat="48.39229" lon="2.76411">
        <ele>92</ele>
        <time>2018-08-26T10:55:36Z</time>
      </trkpt>
      <trkpt lat="48.39187" lon="2.76408">
        <ele>93</ele>
        <time>2018-08-26T10:56:08Z</time>
      </trkpt>
      <trkpt lat="48.39166" lon="2.76409">
        <ele>92</ele>
        <time>2018-08-26T10:56:23Z</time>
      </trkpt>
      <trkpt lat="48.39156" lon="2.76413">
        <ele>93</ele>
        <time>2018-08-26T10:56:30Z</time>
      </trkpt>
      <trkpt lat="48.39118" lon="2.76419">
        <ele>93</ele>
        <time>2018-08-26T10:56:58Z</time>
      </trkpt>
      <trkpt lat="48.39113" lon="2.76417">
        <ele>93</ele>
        <time>2018-08-26T10:57:02Z</time>
      </trkpt>
      <trkpt lat="48.39102" lon="2.76414">
        <ele>93</ele>
        <time>2018-08-26T10:57:11Z</time>
      </trkpt>
      <trkpt lat="48.39097" lon="2.76413">
        <ele>93</ele>
        <time>2018-08-26T10:57:16Z</time>
      </trkpt>
      <trkpt lat="48.39088" lon="2.76404">
        <ele>93</ele>
        <time>2018-08-26T10:57:37Z</time>
      </trkpt>
      <trkpt lat="48.39086" lon="2.764">
        <ele>93</ele>
        <time>2018-08-26T10:59:25Z</time>
      </trkpt>
      <trkpt lat="48.39086" lon="2.76398">
        <ele>96</ele>
        <time>2018-08-26T12:05:06Z</time>
      </trkpt>
      <trkpt lat="48.39079" lon="2.76404">
        <ele>95</ele>
        <time>2018-08-26T12:05:24Z</time>
      </trkpt>
      <trkpt lat="48.39075" lon="2.76411">
        <ele>95</ele>
        <time>2018-08-26T12:05:36Z</time>
      </trkpt>
      <trkpt lat="48.39067" lon="2.76414">
        <ele>96</ele>
        <time>2018-08-26T12:05:52Z</time>
      </trkpt>
      <trkpt lat="48.39065" lon="2.76408">
        <ele>95</ele>
        <time>2018-08-26T12:06:17Z</time>
      </trkpt>
      <trkpt lat="48.39065" lon="2.764">
        <ele>95</ele>
        <time>2018-08-26T12:06:29Z</time>
      </trkpt>
      <trkpt lat="48.39066" lon="2.76386">
        <ele>95</ele>
        <time>2018-08-26T12:06:41Z</time>
      </trkpt>
      <trkpt lat="48.39062" lon="2.76381">
        <ele>95</ele>
        <time>2018-08-26T12:06:47Z</time>
      </trkpt>
      <trkpt lat="48.39058" lon="2.7636">
        <ele>96</ele>
        <time>2018-08-26T12:07:01Z</time>
      </trkpt>
      <trkpt lat="48.39059" lon="2.76352">
        <ele>96</ele>
        <time>2018-08-26T12:07:05Z</time>
      </trkpt>
      <trkpt lat="48.39061" lon="2.76344">
        <ele>96</ele>
        <time>2018-08-26T12:07:10Z</time>
      </trkpt>
      <trkpt lat="48.39057" lon="2.76295">
        <ele>96</ele>
        <time>2018-08-26T12:07:44Z</time>
      </trkpt>
      <trkpt lat="48.39057" lon="2.76288">
        <ele>96</ele>
        <time>2018-08-26T12:07:48Z</time>
      </trkpt>
      <trkpt lat="48.39054" lon="2.76282">
        <ele>96</ele>
        <time>2018-08-26T12:07:52Z</time>
      </trkpt>
      <trkpt lat="48.39055" lon="2.76266">
        <ele>96</ele>
        <time>2018-08-26T12:08:05Z</time>
      </trkpt>
      <trkpt lat="48.39053" lon="2.76259">
        <ele>96</ele>
        <time>2018-08-26T12:08:10Z</time>
      </trkpt>
      <trkpt lat="48.39052" lon="2.76251">
        <ele>96</ele>
        <time>2018-08-26T12:08:14Z</time>
      </trkpt>
      <trkpt lat="48.39053" lon="2.76236">
        <ele>96</ele>
        <time>2018-08-26T12:08:23Z</time>
      </trkpt>
      <trkpt lat="48.39051" lon="2.76223">
        <ele>96</ele>
        <time>2018-08-26T12:08:33Z</time>
      </trkpt>
      <trkpt lat="48.39052" lon="2.76213">
        <ele>96</ele>
        <time>2018-08-26T12:08:40Z</time>
      </trkpt>
      <trkpt lat="48.39049" lon="2.76175">
        <ele>96</ele>
        <time>2018-08-26T12:09:02Z</time>
      </trkpt>
      <trkpt lat="48.3905" lon="2.76167">
        <ele>96</ele>
        <time>2018-08-26T12:09:06Z</time>
      </trkpt>
      <trkpt lat="48.3905" lon="2.76152">
        <ele>96</ele>
        <time>2018-08-26T12:09:15Z</time>
      </trkpt>
      <trkpt lat="48.39047" lon="2.76146">
        <ele>96</ele>
        <time>2018-08-26T12:09:20Z</time>
      </trkpt>
      <trkpt lat="48.39046" lon="2.76139">
        <ele>96</ele>
        <time>2018-08-26T12:09:24Z</time>
      </trkpt>
      <trkpt lat="48.39048" lon="2.76124">
        <ele>96</ele>
        <time>2018-08-26T12:09:33Z</time>
      </trkpt>
      <trkpt lat="48.39049" lon="2.76116">
        <ele>96</ele>
        <time>2018-08-26T12:09:38Z</time>
      </trkpt>
      <trkpt lat="48.39042" lon="2.7605">
        <ele>96</ele>
        <time>2018-08-26T12:10:13Z</time>
      </trkpt>
      <trkpt lat="48.39042" lon="2.76006">
        <ele>95</ele>
        <time>2018-08-26T12:10:40Z</time>
      </trkpt>
      <trkpt lat="48.39043" lon="2.75941">
        <ele>95</ele>
        <time>2018-08-26T12:11:12Z</time>
      </trkpt>
      <trkpt lat="48.3904" lon="2.75916">
        <ele>95</ele>
        <time>2018-08-26T12:11:24Z</time>
      </trkpt>
      <trkpt lat="48.39035" lon="2.75894">
        <ele>94</ele>
        <time>2018-08-26T12:11:38Z</time>
      </trkpt>
      <trkpt lat="48.39035" lon="2.75886">
        <ele>94</ele>
        <time>2018-08-26T12:11:43Z</time>
      </trkpt>
      <trkpt lat="48.39038" lon="2.75877">
        <ele>94</ele>
        <time>2018-08-26T12:11:50Z</time>
      </trkpt>
      <trkpt lat="48.39038" lon="2.75841">
        <ele>94</ele>
        <time>2018-08-26T12:12:10Z</time>
      </trkpt>
      <trkpt lat="48.39039" lon="2.75834">
        <ele>94</ele>
        <time>2018-08-26T12:12:14Z</time>
      </trkpt>
      <trkpt lat="48.39037" lon="2.75826">
        <ele>94</ele>
        <time>2018-08-26T12:12:18Z</time>
      </trkpt>
      <trkpt lat="48.39035" lon="2.75764">
        <ele>94</ele>
        <time>2018-08-26T12:12:52Z</time>
      </trkpt>
      <trkpt lat="48.39033" lon="2.7572">
        <ele>94</ele>
        <time>2018-08-26T12:13:21Z</time>
      </trkpt>
      <trkpt lat="48.39031" lon="2.75702">
        <ele>94</ele>
        <time>2018-08-26T12:13:33Z</time>
      </trkpt>
      <trkpt lat="48.3903" lon="2.7564">
        <ele>92</ele>
        <time>2018-08-26T12:14:01Z</time>
      </trkpt>
      <trkpt lat="48.39029" lon="2.75633">
        <ele>91</ele>
        <time>2018-08-26T12:14:05Z</time>
      </trkpt>
      <trkpt lat="48.3903" lon="2.75626">
        <ele>91</ele>
        <time>2018-08-26T12:14:09Z</time>
      </trkpt>
      <trkpt lat="48.3903" lon="2.75618">
        <ele>91</ele>
        <time>2018-08-26T12:14:13Z</time>
      </trkpt>
      <trkpt lat="48.39029" lon="2.75611">
        <ele>91</ele>
        <time>2018-08-26T12:14:17Z</time>
      </trkpt>
      <trkpt lat="48.39026" lon="2.75603">
        <ele>91</ele>
        <time>2018-08-26T12:14:21Z</time>
      </trkpt>
      <trkpt lat="48.39028" lon="2.75593">
        <ele>91</ele>
        <time>2018-08-26T12:14:27Z</time>
      </trkpt>
      <trkpt lat="48.39028" lon="2.75587">
        <ele>91</ele>
        <time>2018-08-26T12:14:31Z</time>
      </trkpt>
      <trkpt lat="48.39028" lon="2.75576">
        <ele>90</ele>
        <time>2018-08-26T12:14:39Z</time>
      </trkpt>
      <trkpt lat="48.39029" lon="2.75569">
        <ele>91</ele>
        <time>2018-08-26T12:14:43Z</time>
      </trkpt>
      <trkpt lat="48.39027" lon="2.75559">
        <ele>91</ele>
        <time>2018-08-26T12:14:50Z</time>
      </trkpt>
      <trkpt lat="48.39023" lon="2.75552">
        <ele>91</ele>
        <time>2018-08-26T12:14:59Z</time>
      </trkpt>
      <trkpt lat="48.39002" lon="2.75537">
        <ele>92</ele>
        <time>2018-08-26T12:15:23Z</time>
      </trkpt>
      <trkpt lat="48.38996" lon="2.75524">
        <ele>92</ele>
        <time>2018-08-26T12:15:32Z</time>
      </trkpt>
      <trkpt lat="48.38994" lon="2.75517">
        <ele>91</ele>
        <time>2018-08-26T12:16:21Z</time>
      </trkpt>
      <trkpt lat="48.3899" lon="2.75504">
        <ele>91</ele>
        <time>2018-08-26T12:16:34Z</time>
      </trkpt>
      <trkpt lat="48.3899" lon="2.75482">
        <ele>91</ele>
        <time>2018-08-26T12:16:48Z</time>
      </trkpt>
      <trkpt lat="48.38993" lon="2.75463">
        <ele>91</ele>
        <time>2018-08-26T12:17:01Z</time>
      </trkpt>
      <trkpt lat="48.38993" lon="2.75456">
        <ele>91</ele>
        <time>2018-08-26T12:17:06Z</time>
      </trkpt>
      <trkpt lat="48.38996" lon="2.75448">
        <ele>92</ele>
        <time>2018-08-26T12:17:13Z</time>
      </trkpt>
      <trkpt lat="48.39001" lon="2.75442">
        <ele>91</ele>
        <time>2018-08-26T12:17:20Z</time>
      </trkpt>
      <trkpt lat="48.39006" lon="2.75439">
        <ele>92</ele>
        <time>2018-08-26T12:17:25Z</time>
      </trkpt>
      <trkpt lat="48.39011" lon="2.75433">
        <ele>92</ele>
        <time>2018-08-26T12:17:32Z</time>
      </trkpt>
      <trkpt lat="48.39016" lon="2.75432">
        <ele>92</ele>
        <time>2018-08-26T12:18:04Z</time>
      </trkpt>
      <trkpt lat="48.39019" lon="2.75426">
        <ele>92</ele>
        <time>2018-08-26T12:18:10Z</time>
      </trkpt>
      <trkpt lat="48.39019" lon="2.75419">
        <ele>91</ele>
        <time>2018-08-26T12:18:15Z</time>
      </trkpt>
      <trkpt lat="48.39016" lon="2.75395">
        <ele>90</ele>
        <time>2018-08-26T12:18:31Z</time>
      </trkpt>
      <trkpt lat="48.39015" lon="2.75358">
        <ele>89</ele>
        <time>2018-08-26T12:18:56Z</time>
      </trkpt>
      <trkpt lat="48.39014" lon="2.7535">
        <ele>89</ele>
        <time>2018-08-26T12:19:00Z</time>
      </trkpt>
      <trkpt lat="48.39015" lon="2.75343">
        <ele>89</ele>
        <time>2018-08-26T12:19:04Z</time>
      </trkpt>
      <trkpt lat="48.3901" lon="2.75312">
        <ele>89</ele>
        <time>2018-08-26T12:19:18Z</time>
      </trkpt>
      <trkpt lat="48.39011" lon="2.75305">
        <ele>89</ele>
        <time>2018-08-26T12:19:21Z</time>
      </trkpt>
      <trkpt lat="48.39009" lon="2.75298">
        <ele>89</ele>
        <time>2018-08-26T12:19:26Z</time>
      </trkpt>
      <trkpt lat="48.39007" lon="2.75265">
        <ele>88</ele>
        <time>2018-08-26T12:19:46Z</time>
      </trkpt>
      <trkpt lat="48.39006" lon="2.75258">
        <ele>88</ele>
        <time>2018-08-26T12:19:51Z</time>
      </trkpt>
      <trkpt lat="48.39007" lon="2.7525">
        <ele>88</ele>
        <time>2018-08-26T12:19:55Z</time>
      </trkpt>
      <trkpt lat="48.39004" lon="2.75242">
        <ele>88</ele>
        <time>2018-08-26T12:19:59Z</time>
      </trkpt>
      <trkpt lat="48.39006" lon="2.75219">
        <ele>88</ele>
        <time>2018-08-26T12:20:10Z</time>
      </trkpt>
      <trkpt lat="48.39003" lon="2.75205">
        <ele>88</ele>
        <time>2018-08-26T12:20:18Z</time>
      </trkpt>
      <trkpt lat="48.39004" lon="2.7519">
        <ele>88</ele>
        <time>2018-08-26T12:20:25Z</time>
      </trkpt>
      <trkpt lat="48.38997" lon="2.75143">
        <ele>87</ele>
        <time>2018-08-26T12:20:46Z</time>
      </trkpt>
      <trkpt lat="48.38997" lon="2.75132">
        <ele>88</ele>
        <time>2018-08-26T12:20:53Z</time>
      </trkpt>
      <trkpt lat="48.38996" lon="2.75125">
        <ele>88</ele>
        <time>2018-08-26T12:20:56Z</time>
      </trkpt>
      <trkpt lat="48.38995" lon="2.75118">
        <ele>88</ele>
        <time>2018-08-26T12:21:00Z</time>
      </trkpt>
      <trkpt lat="48.38994" lon="2.7511">
        <ele>88</ele>
        <time>2018-08-26T12:21:05Z</time>
      </trkpt>
      <trkpt lat="48.38996" lon="2.75073">
        <ele>88</ele>
        <time>2018-08-26T12:21:24Z</time>
      </trkpt>
      <trkpt lat="48.38996" lon="2.75056">
        <ele>87</ele>
        <time>2018-08-26T12:21:33Z</time>
      </trkpt>
      <trkpt lat="48.38998" lon="2.75048">
        <ele>87</ele>
        <time>2018-08-26T12:21:37Z</time>
      </trkpt>
      <trkpt lat="48.38995" lon="2.75034">
        <ele>87</ele>
        <time>2018-08-26T12:21:46Z</time>
      </trkpt>
      <trkpt lat="48.38993" lon="2.75026">
        <ele>87</ele>
        <time>2018-08-26T12:21:50Z</time>
      </trkpt>
      <trkpt lat="48.38992" lon="2.7502">
        <ele>87</ele>
        <time>2018-08-26T12:21:54Z</time>
      </trkpt>
      <trkpt lat="48.3899" lon="2.75004">
        <ele>86</ele>
        <time>2018-08-26T12:22:04Z</time>
      </trkpt>
      <trkpt lat="48.38991" lon="2.74987">
        <ele>87</ele>
        <time>2018-08-26T12:22:14Z</time>
      </trkpt>
      <trkpt lat="48.38987" lon="2.74973">
        <ele>87</ele>
        <time>2018-08-26T12:22:23Z</time>
      </trkpt>
      <trkpt lat="48.38985" lon="2.74966">
        <ele>87</ele>
        <time>2018-08-26T12:22:28Z</time>
      </trkpt>
      <trkpt lat="48.38985" lon="2.74957">
        <ele>86</ele>
        <time>2018-08-26T12:22:32Z</time>
      </trkpt>
      <trkpt lat="48.38985" lon="2.74897">
        <ele>87</ele>
        <time>2018-08-26T12:23:06Z</time>
      </trkpt>
      <trkpt lat="48.38984" lon="2.74881">
        <ele>87</ele>
        <time>2018-08-26T12:23:14Z</time>
      </trkpt>
      <trkpt lat="48.38979" lon="2.74836">
        <ele>88</ele>
        <time>2018-08-26T12:23:38Z</time>
      </trkpt>
      <trkpt lat="48.38976" lon="2.74774">
        <ele>87</ele>
        <time>2018-08-26T12:24:12Z</time>
      </trkpt>
      <trkpt lat="48.38974" lon="2.74758">
        <ele>87</ele>
        <time>2018-08-26T12:24:22Z</time>
      </trkpt>
      <trkpt lat="48.38973" lon="2.74751">
        <ele>87</ele>
        <time>2018-08-26T12:24:26Z</time>
      </trkpt>
      <trkpt lat="48.38973" lon="2.74744">
        <ele>88</ele>
        <time>2018-08-26T12:24:30Z</time>
      </trkpt>
      <trkpt lat="48.38968" lon="2.74676">
        <ele>88</ele>
        <time>2018-08-26T12:25:03Z</time>
      </trkpt>
      <trkpt lat="48.38968" lon="2.74638">
        <ele>88</ele>
        <time>2018-08-26T12:25:23Z</time>
      </trkpt>
      <trkpt lat="48.38969" lon="2.74622">
        <ele>88</ele>
        <time>2018-08-26T12:25:33Z</time>
      </trkpt>
      <trkpt lat="48.38967" lon="2.74592">
        <ele>88</ele>
        <time>2018-08-26T12:25:49Z</time>
      </trkpt>
      <trkpt lat="48.38963" lon="2.74577">
        <ele>89</ele>
        <time>2018-08-26T12:25:57Z</time>
      </trkpt>
      <trkpt lat="48.38962" lon="2.74534">
        <ele>89</ele>
        <time>2018-08-26T12:26:23Z</time>
      </trkpt>
      <trkpt lat="48.38959" lon="2.74517">
        <ele>89</ele>
        <time>2018-08-26T12:26:33Z</time>
      </trkpt>
      <trkpt lat="48.38956" lon="2.74512">
        <ele>89</ele>
        <time>2018-08-26T12:26:36Z</time>
      </trkpt>
      <trkpt lat="48.38955" lon="2.74504">
        <ele>89</ele>
        <time>2018-08-26T12:26:40Z</time>
      </trkpt>
      <trkpt lat="48.38957" lon="2.7448">
        <ele>89</ele>
        <time>2018-08-26T12:26:51Z</time>
      </trkpt>
      <trkpt lat="48.38954" lon="2.74419">
        <ele>90</ele>
        <time>2018-08-26T12:27:25Z</time>
      </trkpt>
      <trkpt lat="48.38953" lon="2.74403">
        <ele>90</ele>
        <time>2018-08-26T12:27:33Z</time>
      </trkpt>
      <trkpt lat="48.38955" lon="2.74389">
        <ele>91</ele>
        <time>2018-08-26T12:27:42Z</time>
      </trkpt>
      <trkpt lat="48.38954" lon="2.74373">
        <ele>91</ele>
        <time>2018-08-26T12:27:50Z</time>
      </trkpt>
      <trkpt lat="48.38961" lon="2.74357">
        <ele>91</ele>
        <time>2018-08-26T12:28:06Z</time>
      </trkpt>
      <trkpt lat="48.38963" lon="2.74338">
        <ele>91</ele>
        <time>2018-08-26T12:28:19Z</time>
      </trkpt>
      <trkpt lat="48.38962" lon="2.74331">
        <ele>90</ele>
        <time>2018-08-26T12:28:24Z</time>
      </trkpt>
      <trkpt lat="48.3896" lon="2.74325">
        <ele>91</ele>
        <time>2018-08-26T12:28:29Z</time>
      </trkpt>
      <trkpt lat="48.38956" lon="2.74319">
        <ele>91</ele>
        <time>2018-08-26T12:28:37Z</time>
      </trkpt>
      <trkpt lat="48.38955" lon="2.74312">
        <ele>91</ele>
        <time>2018-08-26T12:28:42Z</time>
      </trkpt>
      <trkpt lat="48.38955" lon="2.74304">
        <ele>91</ele>
        <time>2018-08-26T12:28:46Z</time>
      </trkpt>
      <trkpt lat="48.38956" lon="2.74267">
        <ele>92</ele>
        <time>2018-08-26T12:29:14Z</time>
      </trkpt>
      <trkpt lat="48.38954" lon="2.74221">
        <ele>91</ele>
        <time>2018-08-26T12:29:38Z</time>
      </trkpt>
      <trkpt lat="48.38953" lon="2.74214">
        <ele>91</ele>
        <time>2018-08-26T12:29:42Z</time>
      </trkpt>
      <trkpt lat="48.38953" lon="2.74199">
        <ele>91</ele>
        <time>2018-08-26T12:29:53Z</time>
      </trkpt>
      <trkpt lat="48.38952" lon="2.7419">
        <ele>91</ele>
        <time>2018-08-26T12:29:59Z</time>
      </trkpt>
      <trkpt lat="48.38952" lon="2.74173">
        <ele>91</ele>
        <time>2018-08-26T12:30:08Z</time>
      </trkpt>
      <trkpt lat="48.38952" lon="2.74152">
        <ele>92</ele>
        <time>2018-08-26T12:30:19Z</time>
      </trkpt>
      <trkpt lat="48.38952" lon="2.74138">
        <ele>91</ele>
        <time>2018-08-26T12:30:27Z</time>
      </trkpt>
      <trkpt lat="48.38953" lon="2.7413">
        <ele>91</ele>
        <time>2018-08-26T12:30:32Z</time>
      </trkpt>
      <trkpt lat="48.38956" lon="2.74075">
        <ele>91</ele>
        <time>2018-08-26T12:31:03Z</time>
      </trkpt>
      <trkpt lat="48.38957" lon="2.74011">
        <ele>91</ele>
        <time>2018-08-26T12:31:34Z</time>
      </trkpt>
      <trkpt lat="48.38957" lon="2.73949">
        <ele>90</ele>
        <time>2018-08-26T12:32:08Z</time>
      </trkpt>
      <trkpt lat="48.38957" lon="2.73917">
        <ele>90</ele>
        <time>2018-08-26T12:32:25Z</time>
      </trkpt>
      <trkpt lat="48.38955" lon="2.73909">
        <ele>90</ele>
        <time>2018-08-26T12:32:29Z</time>
      </trkpt>
      <trkpt lat="48.38958" lon="2.7388">
        <ele>90</ele>
        <time>2018-08-26T12:32:45Z</time>
      </trkpt>
      <trkpt lat="48.3896" lon="2.73874">
        <ele>90</ele>
        <time>2018-08-26T12:32:49Z</time>
      </trkpt>
      <trkpt lat="48.38959" lon="2.7385">
        <ele>90</ele>
        <time>2018-08-26T12:33:02Z</time>
      </trkpt>
      <trkpt lat="48.38959" lon="2.73786">
        <ele>90</ele>
        <time>2018-08-26T12:33:35Z</time>
      </trkpt>
      <trkpt lat="48.38961" lon="2.7377">
        <ele>90</ele>
        <time>2018-08-26T12:33:44Z</time>
      </trkpt>
      <trkpt lat="48.38961" lon="2.73755">
        <ele>91</ele>
        <time>2018-08-26T12:33:52Z</time>
      </trkpt>
      <trkpt lat="48.3896" lon="2.73737">
        <ele>91</ele>
        <time>2018-08-26T12:34:03Z</time>
      </trkpt>
      <trkpt lat="48.38962" lon="2.73723">
        <ele>91</ele>
        <time>2018-08-26T12:34:12Z</time>
      </trkpt>
      <trkpt lat="48.38961" lon="2.73715">
        <ele>91</ele>
        <time>2018-08-26T12:34:17Z</time>
      </trkpt>
      <trkpt lat="48.38958" lon="2.73702">
        <ele>91</ele>
        <time>2018-08-26T12:34:25Z</time>
      </trkpt>
      <trkpt lat="48.38959" lon="2.73663">
        <ele>91</ele>
        <time>2018-08-26T12:34:46Z</time>
      </trkpt>
      <trkpt lat="48.38961" lon="2.73656">
        <ele>91</ele>
        <time>2018-08-26T12:34:50Z</time>
      </trkpt>
      <trkpt lat="48.38962" lon="2.73647">
        <ele>91</ele>
        <time>2018-08-26T12:34:54Z</time>
      </trkpt>
      <trkpt lat="48.38959" lon="2.73625">
        <ele>91</ele>
        <time>2018-08-26T12:35:05Z</time>
      </trkpt>
      <trkpt lat="48.38961" lon="2.73563">
        <ele>91</ele>
        <time>2018-08-26T12:35:36Z</time>
      </trkpt>
      <trkpt lat="48.38962" lon="2.73556">
        <ele>91</ele>
        <time>2018-08-26T12:35:40Z</time>
      </trkpt>
      <trkpt lat="48.38962" lon="2.7355">
        <ele>91</ele>
        <time>2018-08-26T12:35:44Z</time>
      </trkpt>
      <trkpt lat="48.38964" lon="2.73543">
        <ele>91</ele>
        <time>2018-08-26T12:36:58Z</time>
      </trkpt>
      <trkpt lat="48.38959" lon="2.73533">
        <ele>91</ele>
        <time>2018-08-26T12:37:40Z</time>
      </trkpt>
      <trkpt lat="48.38955" lon="2.73522">
        <ele>91</ele>
        <time>2018-08-26T12:37:50Z</time>
      </trkpt>
      <trkpt lat="48.38949" lon="2.73513">
        <ele>91</ele>
        <time>2018-08-26T12:38:00Z</time>
      </trkpt>
      <trkpt lat="48.38942" lon="2.73509">
        <ele>91</ele>
        <time>2018-08-26T12:38:08Z</time>
      </trkpt>
      <trkpt lat="48.38935" lon="2.73495">
        <ele>91</ele>
        <time>2018-08-26T12:38:18Z</time>
      </trkpt>
      <trkpt lat="48.3893" lon="2.73483">
        <ele>91</ele>
        <time>2018-08-26T12:38:26Z</time>
      </trkpt>
      <trkpt lat="48.38927" lon="2.73478">
        <ele>91</ele>
        <time>2018-08-26T12:38:31Z</time>
      </trkpt>
      <trkpt lat="48.38921" lon="2.73473">
        <ele>91</ele>
        <time>2018-08-26T12:38:39Z</time>
      </trkpt>
      <trkpt lat="48.38912" lon="2.73465">
        <ele>92</ele>
        <time>2018-08-26T12:38:49Z</time>
      </trkpt>
      <trkpt lat="48.38909" lon="2.73459">
        <ele>91</ele>
        <time>2018-08-26T12:38:53Z</time>
      </trkpt>
      <trkpt lat="48.38905" lon="2.73455">
        <ele>91</ele>
        <time>2018-08-26T12:38:58Z</time>
      </trkpt>
      <trkpt lat="48.38896" lon="2.73447">
        <ele>91</ele>
        <time>2018-08-26T12:39:07Z</time>
      </trkpt>
      <trkpt lat="48.38893" lon="2.73442">
        <ele>91</ele>
        <time>2018-08-26T12:39:11Z</time>
      </trkpt>
      <trkpt lat="48.3887" lon="2.73412">
        <ele>92</ele>
        <time>2018-08-26T12:39:35Z</time>
      </trkpt>
      <trkpt lat="48.38866" lon="2.73408">
        <ele>91</ele>
        <time>2018-08-26T12:39:40Z</time>
      </trkpt>
      <trkpt lat="48.38864" lon="2.73401">
        <ele>91</ele>
        <time>2018-08-26T12:39:44Z</time>
      </trkpt>
      <trkpt lat="48.38853" lon="2.73387">
        <ele>91</ele>
        <time>2018-08-26T12:39:56Z</time>
      </trkpt>
      <trkpt lat="48.38851" lon="2.73381">
        <ele>91</ele>
        <time>2018-08-26T12:40:00Z</time>
      </trkpt>
      <trkpt lat="48.3884" lon="2.73372">
        <ele>91</ele>
        <time>2018-08-26T12:40:11Z</time>
      </trkpt>
      <trkpt lat="48.38837" lon="2.73367">
        <ele>91</ele>
        <time>2018-08-26T12:40:15Z</time>
      </trkpt>
      <trkpt lat="48.38804" lon="2.7333">
        <ele>91</ele>
        <time>2018-08-26T12:40:48Z</time>
      </trkpt>
      <trkpt lat="48.38793" lon="2.73313">
        <ele>91</ele>
        <time>2018-08-26T12:41:00Z</time>
      </trkpt>
      <trkpt lat="48.38792" lon="2.73306">
        <ele>91</ele>
        <time>2018-08-26T12:41:03Z</time>
      </trkpt>
      <trkpt lat="48.38788" lon="2.733">
        <ele>91</ele>
        <time>2018-08-26T12:41:08Z</time>
      </trkpt>
      <trkpt lat="48.38753" lon="2.7326">
        <ele>91</ele>
        <time>2018-08-26T12:41:41Z</time>
      </trkpt>
      <trkpt lat="48.3875" lon="2.7325">
        <ele>91</ele>
        <time>2018-08-26T12:41:47Z</time>
      </trkpt>
      <trkpt lat="48.38723" lon="2.73215">
        <ele>89</ele>
        <time>2018-08-26T12:42:18Z</time>
      </trkpt>
      <trkpt lat="48.38714" lon="2.73204">
        <ele>89</ele>
        <time>2018-08-26T12:42:27Z</time>
      </trkpt>
      <trkpt lat="48.3871" lon="2.73199">
        <ele>90</ele>
        <time>2018-08-26T12:42:31Z</time>
      </trkpt>
      <trkpt lat="48.38698" lon="2.73185">
        <ele>90</ele>
        <time>2018-08-26T12:42:44Z</time>
      </trkpt>
      <trkpt lat="48.38691" lon="2.73169">
        <ele>89</ele>
        <time>2018-08-26T12:42:54Z</time>
      </trkpt>
      <trkpt lat="48.38685" lon="2.73155">
        <ele>89</ele>
        <time>2018-08-26T12:43:01Z</time>
      </trkpt>
      <trkpt lat="48.38676" lon="2.73146">
        <ele>89</ele>
        <time>2018-08-26T12:43:10Z</time>
      </trkpt>
      <trkpt lat="48.38672" lon="2.7314">
        <ele>89</ele>
        <time>2018-08-26T12:43:14Z</time>
      </trkpt>
      <trkpt lat="48.38669" lon="2.73134">
        <ele>89</ele>
        <time>2018-08-26T12:43:17Z</time>
      </trkpt>
      <trkpt lat="48.38644" lon="2.73105">
        <ele>88</ele>
        <time>2018-08-26T12:43:42Z</time>
      </trkpt>
      <trkpt lat="48.38633" lon="2.73085">
        <ele>88</ele>
        <time>2018-08-26T12:43:55Z</time>
      </trkpt>
      <trkpt lat="48.38599" lon="2.73045">
        <ele>88</ele>
        <time>2018-08-26T12:44:28Z</time>
      </trkpt>
      <trkpt lat="48.38586" lon="2.73032">
        <ele>87</ele>
        <time>2018-08-26T12:44:40Z</time>
      </trkpt>
      <trkpt lat="48.38583" lon="2.73027">
        <ele>87</ele>
        <time>2018-08-26T12:44:44Z</time>
      </trkpt>
      <trkpt lat="48.38571" lon="2.73">
        <ele>87</ele>
        <time>2018-08-26T12:45:01Z</time>
      </trkpt>
      <trkpt lat="48.38568" lon="2.72995">
        <ele>87</ele>
        <time>2018-08-26T12:45:06Z</time>
      </trkpt>
      <trkpt lat="48.38562" lon="2.7299">
        <ele>87</ele>
        <time>2018-08-26T12:45:12Z</time>
      </trkpt>
      <trkpt lat="48.38557" lon="2.72985">
        <ele>87</ele>
        <time>2018-08-26T12:45:16Z</time>
      </trkpt>
      <trkpt lat="48.38552" lon="2.72973">
        <ele>87</ele>
        <time>2018-08-26T12:45:24Z</time>
      </trkpt>
      <trkpt lat="48.38548" lon="2.72967">
        <ele>87</ele>
        <time>2018-08-26T12:45:28Z</time>
      </trkpt>
      <trkpt lat="48.38541" lon="2.72955">
        <ele>87</ele>
        <time>2018-08-26T12:45:37Z</time>
      </trkpt>
      <trkpt lat="48.38512" lon="2.72916">
        <ele>87</ele>
        <time>2018-08-26T12:46:10Z</time>
      </trkpt>
      <trkpt lat="48.38505" lon="2.72905">
        <ele>87</ele>
        <time>2018-08-26T12:46:18Z</time>
      </trkpt>
      <trkpt lat="48.38501" lon="2.72901">
        <ele>87</ele>
        <time>2018-08-26T12:46:21Z</time>
      </trkpt>
      <trkpt lat="48.38485" lon="2.72878">
        <ele>87</ele>
        <time>2018-08-26T12:46:37Z</time>
      </trkpt>
      <trkpt lat="48.38461" lon="2.72854">
        <ele>87</ele>
        <time>2018-08-26T12:46:58Z</time>
      </trkpt>
      <trkpt lat="48.38448" lon="2.72833">
        <ele>87</ele>
        <time>2018-08-26T12:47:15Z</time>
      </trkpt>
      <trkpt lat="48.38445" lon="2.72826">
        <ele>87</ele>
        <time>2018-08-26T12:47:19Z</time>
      </trkpt>
      <trkpt lat="48.38442" lon="2.7282">
        <ele>87</ele>
        <time>2018-08-26T12:47:23Z</time>
      </trkpt>
      <trkpt lat="48.38439" lon="2.72814">
        <ele>87</ele>
        <time>2018-08-26T12:47:28Z</time>
      </trkpt>
      <trkpt lat="48.38435" lon="2.72811">
        <ele>87</ele>
        <time>2018-08-26T12:47:32Z</time>
      </trkpt>
      <trkpt lat="48.38413" lon="2.72784">
        <ele>88</ele>
        <time>2018-08-26T12:47:55Z</time>
      </trkpt>
      <trkpt lat="48.38409" lon="2.7278">
        <ele>88</ele>
        <time>2018-08-26T12:47:59Z</time>
      </trkpt>
      <trkpt lat="48.384" lon="2.72759">
        <ele>88</ele>
        <time>2018-08-26T12:48:10Z</time>
      </trkpt>
      <trkpt lat="48.38381" lon="2.72734">
        <ele>89</ele>
        <time>2018-08-26T12:48:29Z</time>
      </trkpt>
      <trkpt lat="48.38349" lon="2.72694">
        <ele>88</ele>
        <time>2018-08-26T12:49:01Z</time>
      </trkpt>
      <trkpt lat="48.38322" lon="2.72656">
        <ele>89</ele>
        <time>2018-08-26T12:49:36Z</time>
      </trkpt>
      <trkpt lat="48.38299" lon="2.72627">
        <ele>90</ele>
        <time>2018-08-26T12:49:59Z</time>
      </trkpt>
      <trkpt lat="48.38294" lon="2.72624">
        <ele>90</ele>
        <time>2018-08-26T12:50:04Z</time>
      </trkpt>
      <trkpt lat="48.38289" lon="2.72619">
        <ele>90</ele>
        <time>2018-08-26T12:50:12Z</time>
      </trkpt>
      <trkpt lat="48.38286" lon="2.72614">
        <ele>90</ele>
        <time>2018-08-26T12:50:17Z</time>
      </trkpt>
      <trkpt lat="48.38284" lon="2.72605">
        <ele>90</ele>
        <time>2018-08-26T12:50:36Z</time>
      </trkpt>
      <trkpt lat="48.38273" lon="2.72591">
        <ele>90</ele>
        <time>2018-08-26T12:50:49Z</time>
      </trkpt>
      <trkpt lat="48.38271" lon="2.72585">
        <ele>90</ele>
        <time>2018-08-26T12:50:53Z</time>
      </trkpt>
      <trkpt lat="48.38263" lon="2.72573">
        <ele>91</ele>
        <time>2018-08-26T12:51:01Z</time>
      </trkpt>
      <trkpt lat="48.38255" lon="2.72562">
        <ele>90</ele>
        <time>2018-08-26T12:51:11Z</time>
      </trkpt>
      <trkpt lat="48.38226" lon="2.72523">
        <ele>91</ele>
        <time>2018-08-26T12:51:44Z</time>
      </trkpt>
      <trkpt lat="48.38215" lon="2.72507">
        <ele>92</ele>
        <time>2018-08-26T12:51:56Z</time>
      </trkpt>
      <trkpt lat="48.38207" lon="2.72495">
        <ele>91</ele>
        <time>2018-08-26T12:52:04Z</time>
      </trkpt>
      <trkpt lat="48.38188" lon="2.72467">
        <ele>91</ele>
        <time>2018-08-26T12:52:24Z</time>
      </trkpt>
      <trkpt lat="48.38183" lon="2.72463">
        <ele>91</ele>
        <time>2018-08-26T12:52:29Z</time>
      </trkpt>
      <trkpt lat="48.38177" lon="2.7245">
        <ele>91</ele>
        <time>2018-08-26T12:52:38Z</time>
      </trkpt>
      <trkpt lat="48.38157" lon="2.72428">
        <ele>92</ele>
        <time>2018-08-26T12:52:57Z</time>
      </trkpt>
      <trkpt lat="48.38154" lon="2.72421">
        <ele>92</ele>
        <time>2018-08-26T12:53:02Z</time>
      </trkpt>
      <trkpt lat="48.38133" lon="2.72395">
        <ele>93</ele>
        <time>2018-08-26T12:53:23Z</time>
      </trkpt>
      <trkpt lat="48.38129" lon="2.72391">
        <ele>94</ele>
        <time>2018-08-26T12:53:31Z</time>
      </trkpt>
      <trkpt lat="48.3813" lon="2.72383">
        <ele>92</ele>
        <time>2018-08-26T12:56:01Z</time>
      </trkpt>
      <trkpt lat="48.38131" lon="2.72376">
        <ele>92</ele>
        <time>2018-08-26T12:57:49Z</time>
      </trkpt>
      <trkpt lat="48.38132" lon="2.72389">
        <ele>90</ele>
        <time>2018-08-26T12:59:25Z</time>
      </trkpt>
      <trkpt lat="48.38132" lon="2.72411">
        <ele>90</ele>
        <time>2018-08-26T12:59:41Z</time>
      </trkpt>
      <trkpt lat="48.38133" lon="2.72419">
        <ele>90</ele>
        <time>2018-08-26T12:59:45Z</time>
      </trkpt>
      <trkpt lat="48.3813" lon="2.72435">
        <ele>90</ele>
        <time>2018-08-26T12:59:57Z</time>
      </trkpt>
      <trkpt lat="48.38127" lon="2.72441">
        <ele>90</ele>
        <time>2018-08-26T13:00:01Z</time>
      </trkpt>
      <trkpt lat="48.38127" lon="2.72471">
        <ele>89</ele>
        <time>2018-08-26T13:00:18Z</time>
      </trkpt>
      <trkpt lat="48.38128" lon="2.72479">
        <ele>89</ele>
        <time>2018-08-26T13:00:22Z</time>
      </trkpt>
      <trkpt lat="48.38128" lon="2.72487">
        <ele>89</ele>
        <time>2018-08-26T13:00:26Z</time>
      </trkpt>
      <trkpt lat="48.38126" lon="2.72494">
        <ele>89</ele>
        <time>2018-08-26T13:00:30Z</time>
      </trkpt>
      <trkpt lat="48.38127" lon="2.72517">
        <ele>88</ele>
        <time>2018-08-26T13:00:43Z</time>
      </trkpt>
      <trkpt lat="48.38128" lon="2.72533">
        <ele>88</ele>
        <time>2018-08-26T13:00:51Z</time>
      </trkpt>
      <trkpt lat="48.38126" lon="2.72547">
        <ele>88</ele>
        <time>2018-08-26T13:00:59Z</time>
      </trkpt>
      <trkpt lat="48.38126" lon="2.72563">
        <ele>88</ele>
        <time>2018-08-26T13:01:07Z</time>
      </trkpt>
      <trkpt lat="48.38121" lon="2.72588">
        <ele>87</ele>
        <time>2018-08-26T13:01:22Z</time>
      </trkpt>
      <trkpt lat="48.38124" lon="2.72602">
        <ele>87</ele>
        <time>2018-08-26T13:01:30Z</time>
      </trkpt>
      <trkpt lat="48.38116" lon="2.7266">
        <ele>87</ele>
        <time>2018-08-26T13:02:03Z</time>
      </trkpt>
      <trkpt lat="48.38115" lon="2.72668">
        <ele>87</ele>
        <time>2018-08-26T13:02:07Z</time>
      </trkpt>
      <trkpt lat="48.38115" lon="2.72674">
        <ele>87</ele>
        <time>2018-08-26T13:02:11Z</time>
      </trkpt>
      <trkpt lat="48.38112" lon="2.7269">
        <ele>87</ele>
        <time>2018-08-26T13:02:19Z</time>
      </trkpt>
      <trkpt lat="48.38111" lon="2.72698">
        <ele>87</ele>
        <time>2018-08-26T13:02:24Z</time>
      </trkpt>
      <trkpt lat="48.38107" lon="2.72719">
        <ele>87</ele>
        <time>2018-08-26T13:02:36Z</time>
      </trkpt>
      <trkpt lat="48.38106" lon="2.72742">
        <ele>88</ele>
        <time>2018-08-26T13:02:48Z</time>
      </trkpt>
      <trkpt lat="48.38105" lon="2.7275">
        <ele>88</ele>
        <time>2018-08-26T13:02:52Z</time>
      </trkpt>
      <trkpt lat="48.38099" lon="2.72769">
        <ele>88</ele>
        <time>2018-08-26T13:03:02Z</time>
      </trkpt>
      <trkpt lat="48.38097" lon="2.72783">
        <ele>88</ele>
        <time>2018-08-26T13:03:08Z</time>
      </trkpt>
      <trkpt lat="48.38094" lon="2.72806">
        <ele>88</ele>
        <time>2018-08-26T13:03:20Z</time>
      </trkpt>
      <trkpt lat="48.38094" lon="2.72813">
        <ele>89</ele>
        <time>2018-08-26T13:03:24Z</time>
      </trkpt>
      <trkpt lat="48.38096" lon="2.7282">
        <ele>88</ele>
        <time>2018-08-26T13:03:28Z</time>
      </trkpt>
      <trkpt lat="48.38096" lon="2.72827">
        <ele>88</ele>
        <time>2018-08-26T13:03:32Z</time>
      </trkpt>
      <trkpt lat="48.38094" lon="2.72835">
        <ele>88</ele>
        <time>2018-08-26T13:03:36Z</time>
      </trkpt>
      <trkpt lat="48.38093" lon="2.72842">
        <ele>88</ele>
        <time>2018-08-26T13:03:40Z</time>
      </trkpt>
      <trkpt lat="48.38092" lon="2.72865">
        <ele>88</ele>
        <time>2018-08-26T13:03:53Z</time>
      </trkpt>
      <trkpt lat="48.38086" lon="2.72904">
        <ele>87</ele>
        <time>2018-08-26T13:04:13Z</time>
      </trkpt>
      <trkpt lat="48.38086" lon="2.7291">
        <ele>87</ele>
        <time>2018-08-26T13:04:16Z</time>
      </trkpt>
      <trkpt lat="48.38084" lon="2.72918">
        <ele>86</ele>
        <time>2018-08-26T13:04:20Z</time>
      </trkpt>
      <trkpt lat="48.38083" lon="2.72933">
        <ele>85</ele>
        <time>2018-08-26T13:04:27Z</time>
      </trkpt>
      <trkpt lat="48.3808" lon="2.72937">
        <ele>86</ele>
        <time>2018-08-26T13:04:44Z</time>
      </trkpt>
      <trkpt lat="48.38079" lon="2.7295">
        <ele>84</ele>
        <time>2018-08-26T13:05:01Z</time>
      </trkpt>
      <trkpt lat="48.38078" lon="2.72964">
        <ele>83</ele>
        <time>2018-08-26T13:05:08Z</time>
      </trkpt>
      <trkpt lat="48.38078" lon="2.72971">
        <ele>82</ele>
        <time>2018-08-26T13:05:12Z</time>
      </trkpt>
      <trkpt lat="48.38083" lon="2.72986">
        <ele>81</ele>
        <time>2018-08-26T13:05:21Z</time>
      </trkpt>
      <trkpt lat="48.38081" lon="2.73002">
        <ele>81</ele>
        <time>2018-08-26T13:05:29Z</time>
      </trkpt>
      <trkpt lat="48.38075" lon="2.73037">
        <ele>80</ele>
        <time>2018-08-26T13:05:45Z</time>
      </trkpt>
      <trkpt lat="48.38078" lon="2.7306">
        <ele>80</ele>
        <time>2018-08-26T13:05:56Z</time>
      </trkpt>
      <trkpt lat="48.38079" lon="2.73069">
        <ele>81</ele>
        <time>2018-08-26T13:06:00Z</time>
      </trkpt>
      <trkpt lat="48.38078" lon="2.73076">
        <ele>81</ele>
        <time>2018-08-26T13:06:03Z</time>
      </trkpt>
      <trkpt lat="48.38076" lon="2.73084">
        <ele>81</ele>
        <time>2018-08-26T13:06:07Z</time>
      </trkpt>
      <trkpt lat="48.3807" lon="2.73097">
        <ele>81</ele>
        <time>2018-08-26T13:06:13Z</time>
      </trkpt>
      <trkpt lat="48.38068" lon="2.73103">
        <ele>81</ele>
        <time>2018-08-26T13:06:16Z</time>
      </trkpt>
      <trkpt lat="48.38067" lon="2.73111">
        <ele>81</ele>
        <time>2018-08-26T13:06:20Z</time>
      </trkpt>
      <trkpt lat="48.38064" lon="2.73115">
        <ele>81</ele>
        <time>2018-08-26T13:06:34Z</time>
      </trkpt>
      <trkpt lat="48.38062" lon="2.73124">
        <ele>81</ele>
        <time>2018-08-26T13:06:55Z</time>
      </trkpt>
      <trkpt lat="48.38063" lon="2.73131">
        <ele>80</ele>
        <time>2018-08-26T13:06:59Z</time>
      </trkpt>
      <trkpt lat="48.38062" lon="2.73138">
        <ele>80</ele>
        <time>2018-08-26T13:07:02Z</time>
      </trkpt>
      <trkpt lat="48.3806" lon="2.73145">
        <ele>80</ele>
        <time>2018-08-26T13:07:06Z</time>
      </trkpt>
      <trkpt lat="48.38059" lon="2.73152">
        <ele>79</ele>
        <time>2018-08-26T13:07:09Z</time>
      </trkpt>
      <trkpt lat="48.38057" lon="2.7317">
        <ele>79</ele>
        <time>2018-08-26T13:07:16Z</time>
      </trkpt>
      <trkpt lat="48.38055" lon="2.73176">
        <ele>79</ele>
        <time>2018-08-26T13:07:20Z</time>
      </trkpt>
      <trkpt lat="48.38054" lon="2.73183">
        <ele>79</ele>
        <time>2018-08-26T13:07:24Z</time>
      </trkpt>
      <trkpt lat="48.38054" lon="2.73197">
        <ele>79</ele>
        <time>2018-08-26T13:07:32Z</time>
      </trkpt>
      <trkpt lat="48.38054" lon="2.73205">
        <ele>79</ele>
        <time>2018-08-26T13:07:36Z</time>
      </trkpt>
      <trkpt lat="48.38053" lon="2.73243">
        <ele>79</ele>
        <time>2018-08-26T13:07:56Z</time>
      </trkpt>
      <trkpt lat="48.38054" lon="2.7325">
        <ele>79</ele>
        <time>2018-08-26T13:07:59Z</time>
      </trkpt>
      <trkpt lat="48.38053" lon="2.73257">
        <ele>79</ele>
        <time>2018-08-26T13:08:02Z</time>
      </trkpt>
      <trkpt lat="48.38042" lon="2.73319">
        <ele>79</ele>
        <time>2018-08-26T13:08:29Z</time>
      </trkpt>
      <trkpt lat="48.38041" lon="2.73326">
        <ele>79</ele>
        <time>2018-08-26T13:08:33Z</time>
      </trkpt>
      <trkpt lat="48.38042" lon="2.73335">
        <ele>79</ele>
        <time>2018-08-26T13:08:37Z</time>
      </trkpt>
      <trkpt lat="48.3804" lon="2.73341">
        <ele>79</ele>
        <time>2018-08-26T13:08:40Z</time>
      </trkpt>
      <trkpt lat="48.38039" lon="2.73348">
        <ele>79</ele>
        <time>2018-08-26T13:08:43Z</time>
      </trkpt>
      <trkpt lat="48.38039" lon="2.73357">
        <ele>80</ele>
        <time>2018-08-26T13:08:47Z</time>
      </trkpt>
      <trkpt lat="48.38036" lon="2.73387">
        <ele>79</ele>
        <time>2018-08-26T13:09:01Z</time>
      </trkpt>
      <trkpt lat="48.38032" lon="2.73402">
        <ele>79</ele>
        <time>2018-08-26T13:09:09Z</time>
      </trkpt>
      <trkpt lat="48.3803" lon="2.73409">
        <ele>80</ele>
        <time>2018-08-26T13:09:13Z</time>
      </trkpt>
      <trkpt lat="48.3803" lon="2.73416">
        <ele>80</ele>
        <time>2018-08-26T13:09:16Z</time>
      </trkpt>
      <trkpt lat="48.3803" lon="2.73425">
        <ele>80</ele>
        <time>2018-08-26T13:09:20Z</time>
      </trkpt>
      <trkpt lat="48.38029" lon="2.73434">
        <ele>80</ele>
        <time>2018-08-26T13:09:24Z</time>
      </trkpt>
      <trkpt lat="48.38029" lon="2.7344">
        <ele>80</ele>
        <time>2018-08-26T13:09:28Z</time>
      </trkpt>
      <trkpt lat="48.38027" lon="2.73449">
        <ele>80</ele>
        <time>2018-08-26T13:09:32Z</time>
      </trkpt>
      <trkpt lat="48.38019" lon="2.73463">
        <ele>80</ele>
        <time>2018-08-26T13:09:39Z</time>
      </trkpt>
      <trkpt lat="48.38018" lon="2.7347">
        <ele>80</ele>
        <time>2018-08-26T13:09:42Z</time>
      </trkpt>
      <trkpt lat="48.38018" lon="2.73478">
        <ele>80</ele>
        <time>2018-08-26T13:09:45Z</time>
      </trkpt>
      <trkpt lat="48.38023" lon="2.735">
        <ele>80</ele>
        <time>2018-08-26T13:09:55Z</time>
      </trkpt>
      <trkpt lat="48.3802" lon="2.73524">
        <ele>80</ele>
        <time>2018-08-26T13:10:08Z</time>
      </trkpt>
      <trkpt lat="48.38026" lon="2.73556">
        <ele>80</ele>
        <time>2018-08-26T13:10:24Z</time>
      </trkpt>
      <trkpt lat="48.38025" lon="2.73562">
        <ele>80</ele>
        <time>2018-08-26T13:10:27Z</time>
      </trkpt>
      <trkpt lat="48.38026" lon="2.73595">
        <ele>80</ele>
        <time>2018-08-26T13:10:43Z</time>
      </trkpt>
      <trkpt lat="48.38025" lon="2.73603">
        <ele>80</ele>
        <time>2018-08-26T13:10:47Z</time>
      </trkpt>
      <trkpt lat="48.38025" lon="2.73624">
        <ele>80</ele>
        <time>2018-08-26T13:10:58Z</time>
      </trkpt>
      <trkpt lat="48.38024" lon="2.73639">
        <ele>80</ele>
        <time>2018-08-26T13:11:06Z</time>
      </trkpt>
      <trkpt lat="48.38025" lon="2.73647">
        <ele>80</ele>
        <time>2018-08-26T13:11:09Z</time>
      </trkpt>
      <trkpt lat="48.38022" lon="2.73692">
        <ele>81</ele>
        <time>2018-08-26T13:11:32Z</time>
      </trkpt>
      <trkpt lat="48.38019" lon="2.73701">
        <ele>80</ele>
        <time>2018-08-26T13:11:36Z</time>
      </trkpt>
      <trkpt lat="48.38017" lon="2.73722">
        <ele>81</ele>
        <time>2018-08-26T13:11:46Z</time>
      </trkpt>
      <trkpt lat="48.38019" lon="2.73729">
        <ele>80</ele>
        <time>2018-08-26T13:11:50Z</time>
      </trkpt>
      <trkpt lat="48.38017" lon="2.73737">
        <ele>81</ele>
        <time>2018-08-26T13:11:54Z</time>
      </trkpt>
      <trkpt lat="48.38013" lon="2.73742">
        <ele>81</ele>
        <time>2018-08-26T13:11:57Z</time>
      </trkpt>
      <trkpt lat="48.38009" lon="2.73755">
        <ele>81</ele>
        <time>2018-08-26T13:12:04Z</time>
      </trkpt>
      <trkpt lat="48.38008" lon="2.7377">
        <ele>81</ele>
        <time>2018-08-26T13:12:11Z</time>
      </trkpt>
      <trkpt lat="48.38007" lon="2.73778">
        <ele>81</ele>
        <time>2018-08-26T13:12:15Z</time>
      </trkpt>
      <trkpt lat="48.38006" lon="2.73785">
        <ele>81</ele>
        <time>2018-08-26T13:12:19Z</time>
      </trkpt>
      <trkpt lat="48.38007" lon="2.73807">
        <ele>81</ele>
        <time>2018-08-26T13:12:31Z</time>
      </trkpt>
      <trkpt lat="48.38005" lon="2.73817">
        <ele>81</ele>
        <time>2018-08-26T13:12:40Z</time>
      </trkpt>
      <trkpt lat="48.38001" lon="2.73833">
        <ele>82</ele>
        <time>2018-08-26T13:12:48Z</time>
      </trkpt>
      <trkpt lat="48.37998" lon="2.73849">
        <ele>81</ele>
        <time>2018-08-26T13:12:55Z</time>
      </trkpt>
      <trkpt lat="48.38002" lon="2.73869">
        <ele>81</ele>
        <time>2018-08-26T13:13:05Z</time>
      </trkpt>
      <trkpt lat="48.38002" lon="2.73877">
        <ele>81</ele>
        <time>2018-08-26T13:13:10Z</time>
      </trkpt>
      <trkpt lat="48.37996" lon="2.73897">
        <ele>82</ele>
        <time>2018-08-26T13:13:22Z</time>
      </trkpt>
      <trkpt lat="48.38001" lon="2.73921">
        <ele>83</ele>
        <time>2018-08-26T13:13:34Z</time>
      </trkpt>
      <trkpt lat="48.38002" lon="2.73937">
        <ele>84</ele>
        <time>2018-08-26T13:13:43Z</time>
      </trkpt>
      <trkpt lat="48.38003" lon="2.73944">
        <ele>84</ele>
        <time>2018-08-26T13:13:48Z</time>
      </trkpt>
      <trkpt lat="48.38002" lon="2.73951">
        <ele>84</ele>
        <time>2018-08-26T13:13:53Z</time>
      </trkpt>
      <trkpt lat="48.37999" lon="2.73959">
        <ele>85</ele>
        <time>2018-08-26T13:13:58Z</time>
      </trkpt>
      <trkpt lat="48.37999" lon="2.73966">
        <ele>85</ele>
        <time>2018-08-26T13:14:02Z</time>
      </trkpt>
      <trkpt lat="48.38002" lon="2.73981">
        <ele>85</ele>
        <time>2018-08-26T13:14:10Z</time>
      </trkpt>
      <trkpt lat="48.38" lon="2.73988">
        <ele>85</ele>
        <time>2018-08-26T13:14:14Z</time>
      </trkpt>
      <trkpt lat="48.37997" lon="2.73994">
        <ele>85</ele>
        <time>2018-08-26T13:14:17Z</time>
      </trkpt>
      <trkpt lat="48.37999" lon="2.74002">
        <ele>85</ele>
        <time>2018-08-26T13:14:20Z</time>
      </trkpt>
      <trkpt lat="48.38001" lon="2.74011">
        <ele>85</ele>
        <time>2018-08-26T13:14:24Z</time>
      </trkpt>
      <trkpt lat="48.37998" lon="2.74019">
        <ele>85</ele>
        <time>2018-08-26T13:14:28Z</time>
      </trkpt>
      <trkpt lat="48.37994" lon="2.74024">
        <ele>85</ele>
        <time>2018-08-26T13:14:31Z</time>
      </trkpt>
      <trkpt lat="48.37992" lon="2.7403">
        <ele>85</ele>
        <time>2018-08-26T13:14:35Z</time>
      </trkpt>
      <trkpt lat="48.37991" lon="2.74039">
        <ele>84</ele>
        <time>2018-08-26T13:14:39Z</time>
      </trkpt>
      <trkpt lat="48.37996" lon="2.7406">
        <ele>84</ele>
        <time>2018-08-26T13:14:49Z</time>
      </trkpt>
      <trkpt lat="48.3799" lon="2.74081">
        <ele>83</ele>
        <time>2018-08-26T13:15:02Z</time>
      </trkpt>
      <trkpt lat="48.37985" lon="2.74088">
        <ele>83</ele>
        <time>2018-08-26T13:15:06Z</time>
      </trkpt>
      <trkpt lat="48.37984" lon="2.74095">
        <ele>83</ele>
        <time>2018-08-26T13:15:08Z</time>
      </trkpt>
      <trkpt lat="48.37983" lon="2.74102">
        <ele>83</ele>
        <time>2018-08-26T13:15:11Z</time>
      </trkpt>
      <trkpt lat="48.3798" lon="2.74107">
        <ele>83</ele>
        <time>2018-08-26T13:15:14Z</time>
      </trkpt>
      <trkpt lat="48.37978" lon="2.74115">
        <ele>82</ele>
        <time>2018-08-26T13:15:18Z</time>
      </trkpt>
      <trkpt lat="48.3798" lon="2.74122">
        <ele>82</ele>
        <time>2018-08-26T13:15:22Z</time>
      </trkpt>
      <trkpt lat="48.37983" lon="2.7413">
        <ele>82</ele>
        <time>2018-08-26T13:15:25Z</time>
      </trkpt>
      <trkpt lat="48.37983" lon="2.74139">
        <ele>82</ele>
        <time>2018-08-26T13:15:29Z</time>
      </trkpt>
      <trkpt lat="48.37976" lon="2.74161">
        <ele>82</ele>
        <time>2018-08-26T13:15:41Z</time>
      </trkpt>
      <trkpt lat="48.37976" lon="2.74169">
        <ele>82</ele>
        <time>2018-08-26T13:15:45Z</time>
      </trkpt>
      <trkpt lat="48.37974" lon="2.74177">
        <ele>82</ele>
        <time>2018-08-26T13:15:49Z</time>
      </trkpt>
      <trkpt lat="48.37974" lon="2.74185">
        <ele>82</ele>
        <time>2018-08-26T13:15:53Z</time>
      </trkpt>
      <trkpt lat="48.3797" lon="2.74209">
        <ele>82</ele>
        <time>2018-08-26T13:16:08Z</time>
      </trkpt>
      <trkpt lat="48.3797" lon="2.74224">
        <ele>82</ele>
        <time>2018-08-26T13:16:16Z</time>
      </trkpt>
      <trkpt lat="48.37966" lon="2.74239">
        <ele>82</ele>
        <time>2018-08-26T13:16:24Z</time>
      </trkpt>
      <trkpt lat="48.37962" lon="2.74261">
        <ele>82</ele>
        <time>2018-08-26T13:16:36Z</time>
      </trkpt>
      <trkpt lat="48.37959" lon="2.74272">
        <ele>82</ele>
        <time>2018-08-26T13:16:46Z</time>
      </trkpt>
      <trkpt lat="48.37958" lon="2.74279">
        <ele>82</ele>
        <time>2018-08-26T13:16:52Z</time>
      </trkpt>
      <trkpt lat="48.37959" lon="2.74317">
        <ele>83</ele>
        <time>2018-08-26T13:17:11Z</time>
      </trkpt>
      <trkpt lat="48.37961" lon="2.74332">
        <ele>83</ele>
        <time>2018-08-26T13:17:24Z</time>
      </trkpt>
      <trkpt lat="48.37959" lon="2.74338">
        <ele>84</ele>
        <time>2018-08-26T13:17:31Z</time>
      </trkpt>
      <trkpt lat="48.3796" lon="2.74354">
        <ele>83</ele>
        <time>2018-08-26T13:17:39Z</time>
      </trkpt>
      <trkpt lat="48.37958" lon="2.74363">
        <ele>84</ele>
        <time>2018-08-26T13:17:43Z</time>
      </trkpt>
      <trkpt lat="48.37958" lon="2.74371">
        <ele>83</ele>
        <time>2018-08-26T13:17:47Z</time>
      </trkpt>
      <trkpt lat="48.37955" lon="2.74386">
        <ele>83</ele>
        <time>2018-08-26T13:17:54Z</time>
      </trkpt>
      <trkpt lat="48.37955" lon="2.74408">
        <ele>83</ele>
        <time>2018-08-26T13:18:04Z</time>
      </trkpt>
      <trkpt lat="48.37949" lon="2.7443">
        <ele>84</ele>
        <time>2018-08-26T13:18:15Z</time>
      </trkpt>
      <trkpt lat="48.37948" lon="2.74438">
        <ele>84</ele>
        <time>2018-08-26T13:18:19Z</time>
      </trkpt>
      <trkpt lat="48.37945" lon="2.74445">
        <ele>84</ele>
        <time>2018-08-26T13:18:23Z</time>
      </trkpt>
      <trkpt lat="48.37945" lon="2.74452">
        <ele>83</ele>
        <time>2018-08-26T13:18:27Z</time>
      </trkpt>
      <trkpt lat="48.37946" lon="2.7446">
        <ele>83</ele>
        <time>2018-08-26T13:18:31Z</time>
      </trkpt>
      <trkpt lat="48.37945" lon="2.74468">
        <ele>83</ele>
        <time>2018-08-26T13:18:35Z</time>
      </trkpt>
      <trkpt lat="48.37947" lon="2.74474">
        <ele>83</ele>
        <time>2018-08-26T13:18:38Z</time>
      </trkpt>
      <trkpt lat="48.37951" lon="2.7448">
        <ele>84</ele>
        <time>2018-08-26T13:18:41Z</time>
      </trkpt>
      <trkpt lat="48.37951" lon="2.74488">
        <ele>84</ele>
        <time>2018-08-26T13:18:45Z</time>
      </trkpt>
      <trkpt lat="48.37957" lon="2.74495">
        <ele>84</ele>
        <time>2018-08-26T13:18:48Z</time>
      </trkpt>
      <trkpt lat="48.37957" lon="2.74503">
        <ele>84</ele>
        <time>2018-08-26T13:18:52Z</time>
      </trkpt>
      <trkpt lat="48.37952" lon="2.74508">
        <ele>84</ele>
        <time>2018-08-26T13:18:55Z</time>
      </trkpt>
      <trkpt lat="48.37947" lon="2.74522">
        <ele>84</ele>
        <time>2018-08-26T13:19:02Z</time>
      </trkpt>
      <trkpt lat="48.3795" lon="2.74528">
        <ele>85</ele>
        <time>2018-08-26T13:19:05Z</time>
      </trkpt>
      <trkpt lat="48.37949" lon="2.74536">
        <ele>85</ele>
        <time>2018-08-26T13:19:09Z</time>
      </trkpt>
      <trkpt lat="48.37947" lon="2.74542">
        <ele>85</ele>
        <time>2018-08-26T13:19:13Z</time>
      </trkpt>
      <trkpt lat="48.37945" lon="2.74548">
        <ele>85</ele>
        <time>2018-08-26T13:19:17Z</time>
      </trkpt>
      <trkpt lat="48.37942" lon="2.74554">
        <ele>85</ele>
        <time>2018-08-26T13:19:20Z</time>
      </trkpt>
      <trkpt lat="48.3794" lon="2.7456">
        <ele>85</ele>
        <time>2018-08-26T13:19:23Z</time>
      </trkpt>
      <trkpt lat="48.3794" lon="2.74576">
        <ele>85</ele>
        <time>2018-08-26T13:19:31Z</time>
      </trkpt>
      <trkpt lat="48.37942" lon="2.74583">
        <ele>85</ele>
        <time>2018-08-26T13:19:34Z</time>
      </trkpt>
      <trkpt lat="48.37943" lon="2.7459">
        <ele>85</ele>
        <time>2018-08-26T13:19:38Z</time>
      </trkpt>
      <trkpt lat="48.37938" lon="2.74619">
        <ele>85</ele>
        <time>2018-08-26T13:19:55Z</time>
      </trkpt>
      <trkpt lat="48.37929" lon="2.74637">
        <ele>86</ele>
        <time>2018-08-26T13:20:07Z</time>
      </trkpt>
      <trkpt lat="48.37928" lon="2.74644">
        <ele>86</ele>
        <time>2018-08-26T13:20:10Z</time>
      </trkpt>
      <trkpt lat="48.3793" lon="2.74652">
        <ele>86</ele>
        <time>2018-08-26T13:20:14Z</time>
      </trkpt>
      <trkpt lat="48.37934" lon="2.74667">
        <ele>86</ele>
        <time>2018-08-26T13:20:22Z</time>
      </trkpt>
      <trkpt lat="48.37934" lon="2.74674">
        <ele>87</ele>
        <time>2018-08-26T13:20:26Z</time>
      </trkpt>
      <trkpt lat="48.37929" lon="2.74685">
        <ele>87</ele>
        <time>2018-08-26T13:20:32Z</time>
      </trkpt>
      <trkpt lat="48.3793" lon="2.7472">
        <ele>88</ele>
        <time>2018-08-26T13:20:53Z</time>
      </trkpt>
      <trkpt lat="48.37929" lon="2.74727">
        <ele>88</ele>
        <time>2018-08-26T13:20:57Z</time>
      </trkpt>
      <trkpt lat="48.37924" lon="2.74732">
        <ele>88</ele>
        <time>2018-08-26T13:21:00Z</time>
      </trkpt>
      <trkpt lat="48.37922" lon="2.7474">
        <ele>88</ele>
        <time>2018-08-26T13:21:04Z</time>
      </trkpt>
      <trkpt lat="48.37923" lon="2.74745">
        <ele>88</ele>
        <time>2018-08-26T13:21:07Z</time>
      </trkpt>
      <trkpt lat="48.37919" lon="2.74761">
        <ele>88</ele>
        <time>2018-08-26T13:21:17Z</time>
      </trkpt>
      <trkpt lat="48.3792" lon="2.74807">
        <ele>89</ele>
        <time>2018-08-26T13:21:42Z</time>
      </trkpt>
      <trkpt lat="48.37913" lon="2.74827">
        <ele>90</ele>
        <time>2018-08-26T13:21:54Z</time>
      </trkpt>
      <trkpt lat="48.37912" lon="2.74835">
        <ele>90</ele>
        <time>2018-08-26T13:21:58Z</time>
      </trkpt>
      <trkpt lat="48.37911" lon="2.74889">
        <ele>92</ele>
        <time>2018-08-26T13:22:28Z</time>
      </trkpt>
      <trkpt lat="48.37907" lon="2.74908">
        <ele>93</ele>
        <time>2018-08-26T13:22:50Z</time>
      </trkpt>
      <trkpt lat="48.37902" lon="2.74922">
        <ele>93</ele>
        <time>2018-08-26T13:23:00Z</time>
      </trkpt>
      <trkpt lat="48.37893" lon="2.74927">
        <ele>94</ele>
        <time>2018-08-26T13:23:29Z</time>
      </trkpt>
      <trkpt lat="48.37892" lon="2.74934">
        <ele>93</ele>
        <time>2018-08-26T13:23:33Z</time>
      </trkpt>
      <trkpt lat="48.37894" lon="2.74941">
        <ele>93</ele>
        <time>2018-08-26T13:23:36Z</time>
      </trkpt>
      <trkpt lat="48.37889" lon="2.74954">
        <ele>93</ele>
        <time>2018-08-26T13:23:46Z</time>
      </trkpt>
      <trkpt lat="48.37883" lon="2.74965">
        <ele>93</ele>
        <time>2018-08-26T13:23:55Z</time>
      </trkpt>
      <trkpt lat="48.37871" lon="2.74982">
        <ele>94</ele>
        <time>2018-08-26T13:24:06Z</time>
      </trkpt>
      <trkpt lat="48.37868" lon="2.74988">
        <ele>94</ele>
        <time>2018-08-26T13:24:10Z</time>
      </trkpt>
      <trkpt lat="48.37866" lon="2.74995">
        <ele>94</ele>
        <time>2018-08-26T13:24:14Z</time>
      </trkpt>
      <trkpt lat="48.37854" lon="2.75008">
        <ele>93</ele>
        <time>2018-08-26T13:24:25Z</time>
      </trkpt>
      <trkpt lat="48.37845" lon="2.75018">
        <ele>94</ele>
        <time>2018-08-26T13:24:33Z</time>
      </trkpt>
      <trkpt lat="48.37841" lon="2.75032">
        <ele>94</ele>
        <time>2018-08-26T13:24:43Z</time>
      </trkpt>
      <trkpt lat="48.37835" lon="2.75061">
        <ele>94</ele>
        <time>2018-08-26T13:24:59Z</time>
      </trkpt>
      <trkpt lat="48.37827" lon="2.7508">
        <ele>93</ele>
        <time>2018-08-26T13:25:11Z</time>
      </trkpt>
      <trkpt lat="48.37824" lon="2.75087">
        <ele>93</ele>
        <time>2018-08-26T13:25:15Z</time>
      </trkpt>
      <trkpt lat="48.37822" lon="2.75094">
        <ele>93</ele>
        <time>2018-08-26T13:25:19Z</time>
      </trkpt>
      <trkpt lat="48.37822" lon="2.75102">
        <ele>93</ele>
        <time>2018-08-26T13:25:24Z</time>
      </trkpt>
      <trkpt lat="48.37817" lon="2.75115">
        <ele>94</ele>
        <time>2018-08-26T13:25:33Z</time>
      </trkpt>
      <trkpt lat="48.37817" lon="2.75124">
        <ele>94</ele>
        <time>2018-08-26T13:25:39Z</time>
      </trkpt>
      <trkpt lat="48.37811" lon="2.75152">
        <ele>94</ele>
        <time>2018-08-26T13:25:57Z</time>
      </trkpt>
      <trkpt lat="48.3781" lon="2.75192">
        <ele>94</ele>
        <time>2018-08-26T13:26:20Z</time>
      </trkpt>
      <trkpt lat="48.3781" lon="2.75199">
        <ele>94</ele>
        <time>2018-08-26T13:26:24Z</time>
      </trkpt>
      <trkpt lat="48.3781" lon="2.75259">
        <ele>95</ele>
        <time>2018-08-26T13:26:59Z</time>
      </trkpt>
      <trkpt lat="48.37809" lon="2.7529">
        <ele>95</ele>
        <time>2018-08-26T13:27:17Z</time>
      </trkpt>
      <trkpt lat="48.37811" lon="2.75312">
        <ele>94</ele>
        <time>2018-08-26T13:27:29Z</time>
      </trkpt>
      <trkpt lat="48.37811" lon="2.75326">
        <ele>94</ele>
        <time>2018-08-26T13:27:38Z</time>
      </trkpt>
      <trkpt lat="48.3781" lon="2.75333">
        <ele>95</ele>
        <time>2018-08-26T13:27:52Z</time>
      </trkpt>
      <trkpt lat="48.37807" lon="2.7534">
        <ele>95</ele>
        <time>2018-08-26T13:27:57Z</time>
      </trkpt>
      <trkpt lat="48.37804" lon="2.75345">
        <ele>95</ele>
        <time>2018-08-26T13:28:02Z</time>
      </trkpt>
      <trkpt lat="48.37798" lon="2.75349">
        <ele>95</ele>
        <time>2018-08-26T13:28:10Z</time>
      </trkpt>
      <trkpt lat="48.37777" lon="2.75355">
        <ele>93</ele>
        <time>2018-08-26T13:28:32Z</time>
      </trkpt>
      <trkpt lat="48.37769" lon="2.75368">
        <ele>92</ele>
        <time>2018-08-26T13:28:52Z</time>
      </trkpt>
      <trkpt lat="48.37767" lon="2.75384">
        <ele>93</ele>
        <time>2018-08-26T13:29:04Z</time>
      </trkpt>
      <trkpt lat="48.37767" lon="2.75393">
        <ele>93</ele>
        <time>2018-08-26T13:29:12Z</time>
      </trkpt>
      <trkpt lat="48.37766" lon="2.754">
        <ele>93</ele>
        <time>2018-08-26T13:29:16Z</time>
      </trkpt>
      <trkpt lat="48.37755" lon="2.75443">
        <ele>94</ele>
        <time>2018-08-26T13:29:38Z</time>
      </trkpt>
      <trkpt lat="48.37755" lon="2.75451">
        <ele>94</ele>
        <time>2018-08-26T13:29:41Z</time>
      </trkpt>
      <trkpt lat="48.37751" lon="2.75475">
        <ele>94</ele>
        <time>2018-08-26T13:29:53Z</time>
      </trkpt>
      <trkpt lat="48.37751" lon="2.75482">
        <ele>94</ele>
        <time>2018-08-26T13:29:57Z</time>
      </trkpt>
      <trkpt lat="48.37742" lon="2.75532">
        <ele>94</ele>
        <time>2018-08-26T13:30:26Z</time>
      </trkpt>
      <trkpt lat="48.37739" lon="2.75539">
        <ele>94</ele>
        <time>2018-08-26T13:30:30Z</time>
      </trkpt>
      <trkpt lat="48.37735" lon="2.75552">
        <ele>95</ele>
        <time>2018-08-26T13:30:38Z</time>
      </trkpt>
      <trkpt lat="48.37734" lon="2.75576">
        <ele>95</ele>
        <time>2018-08-26T13:30:51Z</time>
      </trkpt>
      <trkpt lat="48.37735" lon="2.75584">
        <ele>95</ele>
        <time>2018-08-26T13:30:55Z</time>
      </trkpt>
      <trkpt lat="48.37734" lon="2.75616">
        <ele>95</ele>
        <time>2018-08-26T13:31:11Z</time>
      </trkpt>
      <trkpt lat="48.37721" lon="2.75675">
        <ele>95</ele>
        <time>2018-08-26T13:31:45Z</time>
      </trkpt>
      <trkpt lat="48.37713" lon="2.7573">
        <ele>95</ele>
        <time>2018-08-26T13:32:15Z</time>
      </trkpt>
      <trkpt lat="48.37712" lon="2.75737">
        <ele>95</ele>
        <time>2018-08-26T13:32:20Z</time>
      </trkpt>
      <trkpt lat="48.37712" lon="2.75744">
        <ele>96</ele>
        <time>2018-08-26T13:32:25Z</time>
      </trkpt>
      <trkpt lat="48.37711" lon="2.75752">
        <ele>96</ele>
        <time>2018-08-26T13:32:30Z</time>
      </trkpt>
      <trkpt lat="48.37709" lon="2.75766">
        <ele>96</ele>
        <time>2018-08-26T13:32:40Z</time>
      </trkpt>
      <trkpt lat="48.37706" lon="2.75781">
        <ele>96</ele>
        <time>2018-08-26T13:32:48Z</time>
      </trkpt>
      <trkpt lat="48.37705" lon="2.75789">
        <ele>96</ele>
        <time>2018-08-26T13:32:52Z</time>
      </trkpt>
      <trkpt lat="48.37705" lon="2.75797">
        <ele>97</ele>
        <time>2018-08-26T13:32:56Z</time>
      </trkpt>
      <trkpt lat="48.37701" lon="2.75819">
        <ele>97</ele>
        <time>2018-08-26T13:33:08Z</time>
      </trkpt>
      <trkpt lat="48.37698" lon="2.75825">
        <ele>97</ele>
        <time>2018-08-26T13:33:13Z</time>
      </trkpt>
      <trkpt lat="48.37697" lon="2.75832">
        <ele>97</ele>
        <time>2018-08-26T13:33:16Z</time>
      </trkpt>
      <trkpt lat="48.37698" lon="2.75849">
        <ele>98</ele>
        <time>2018-08-26T13:33:24Z</time>
      </trkpt>
      <trkpt lat="48.37697" lon="2.75857">
        <ele>97</ele>
        <time>2018-08-26T13:33:28Z</time>
      </trkpt>
      <trkpt lat="48.37696" lon="2.75872">
        <ele>97</ele>
        <time>2018-08-26T13:33:37Z</time>
      </trkpt>
      <trkpt lat="48.37693" lon="2.75893">
        <ele>97</ele>
        <time>2018-08-26T13:33:48Z</time>
      </trkpt>
      <trkpt lat="48.37691" lon="2.759">
        <ele>97</ele>
        <time>2018-08-26T13:33:51Z</time>
      </trkpt>
      <trkpt lat="48.3769" lon="2.75906">
        <ele>97</ele>
        <time>2018-08-26T13:33:54Z</time>
      </trkpt>
      <trkpt lat="48.3769" lon="2.75913">
        <ele>97</ele>
        <time>2018-08-26T13:33:58Z</time>
      </trkpt>
      <trkpt lat="48.37684" lon="2.75934">
        <ele>97</ele>
        <time>2018-08-26T13:34:10Z</time>
      </trkpt>
      <trkpt lat="48.37679" lon="2.75949">
        <ele>97</ele>
        <time>2018-08-26T13:34:20Z</time>
      </trkpt>
      <trkpt lat="48.37678" lon="2.75957">
        <ele>97</ele>
        <time>2018-08-26T13:34:24Z</time>
      </trkpt>
      <trkpt lat="48.37677" lon="2.75964">
        <ele>97</ele>
        <time>2018-08-26T13:34:28Z</time>
      </trkpt>
      <trkpt lat="48.37676" lon="2.75971">
        <ele>97</ele>
        <time>2018-08-26T13:34:32Z</time>
      </trkpt>
      <trkpt lat="48.37677" lon="2.76002">
        <ele>97</ele>
        <time>2018-08-26T13:34:47Z</time>
      </trkpt>
      <trkpt lat="48.37667" lon="2.76054">
        <ele>97</ele>
        <time>2018-08-26T13:35:14Z</time>
      </trkpt>
      <trkpt lat="48.37668" lon="2.76085">
        <ele>97</ele>
        <time>2018-08-26T13:35:29Z</time>
      </trkpt>
      <trkpt lat="48.37664" lon="2.76114">
        <ele>96</ele>
        <time>2018-08-26T13:35:45Z</time>
      </trkpt>
      <trkpt lat="48.37664" lon="2.76122">
        <ele>96</ele>
        <time>2018-08-26T13:35:49Z</time>
      </trkpt>
      <trkpt lat="48.37667" lon="2.76144">
        <ele>96</ele>
        <time>2018-08-26T13:36:01Z</time>
      </trkpt>
      <trkpt lat="48.37666" lon="2.76152">
        <ele>96</ele>
        <time>2018-08-26T13:36:06Z</time>
      </trkpt>
      <trkpt lat="48.37655" lon="2.76169">
        <ele>95</ele>
        <time>2018-08-26T13:36:16Z</time>
      </trkpt>
      <trkpt lat="48.37655" lon="2.76182">
        <ele>95</ele>
        <time>2018-08-26T13:36:23Z</time>
      </trkpt>
      <trkpt lat="48.37652" lon="2.76196">
        <ele>95</ele>
        <time>2018-08-26T13:36:31Z</time>
      </trkpt>
      <trkpt lat="48.37649" lon="2.76201">
        <ele>95</ele>
        <time>2018-08-26T13:36:35Z</time>
      </trkpt>
      <trkpt lat="48.37643" lon="2.76228">
        <ele>95</ele>
        <time>2018-08-26T13:36:53Z</time>
      </trkpt>
      <trkpt lat="48.37643" lon="2.76235">
        <ele>95</ele>
        <time>2018-08-26T13:36:57Z</time>
      </trkpt>
      <trkpt lat="48.37635" lon="2.76287">
        <ele>95</ele>
        <time>2018-08-26T13:37:31Z</time>
      </trkpt>
      <trkpt lat="48.37635" lon="2.76309">
        <ele>95</ele>
        <time>2018-08-26T13:37:43Z</time>
      </trkpt>
      <trkpt lat="48.37629" lon="2.76341">
        <ele>95</ele>
        <time>2018-08-26T13:37:58Z</time>
      </trkpt>
      <trkpt lat="48.37627" lon="2.76371">
        <ele>96</ele>
        <time>2018-08-26T13:38:14Z</time>
      </trkpt>
      <trkpt lat="48.37615" lon="2.7642">
        <ele>96</ele>
        <time>2018-08-26T13:38:40Z</time>
      </trkpt>
      <trkpt lat="48.37613" lon="2.76435">
        <ele>96</ele>
        <time>2018-08-26T13:38:49Z</time>
      </trkpt>
      <trkpt lat="48.37603" lon="2.7647">
        <ele>96</ele>
        <time>2018-08-26T13:39:11Z</time>
      </trkpt>
      <trkpt lat="48.37602" lon="2.76492">
        <ele>97</ele>
        <time>2018-08-26T13:39:23Z</time>
      </trkpt>
      <trkpt lat="48.37598" lon="2.76527">
        <ele>97</ele>
        <time>2018-08-26T13:39:43Z</time>
      </trkpt>
      <trkpt lat="48.37592" lon="2.76539">
        <ele>96</ele>
        <time>2018-08-26T13:39:50Z</time>
      </trkpt>
      <trkpt lat="48.37593" lon="2.76551">
        <ele>96</ele>
        <time>2018-08-26T13:39:58Z</time>
      </trkpt>
      <trkpt lat="48.37592" lon="2.76567">
        <ele>96</ele>
        <time>2018-08-26T13:40:05Z</time>
      </trkpt>
      <trkpt lat="48.37589" lon="2.76573">
        <ele>96</ele>
        <time>2018-08-26T13:40:10Z</time>
      </trkpt>
      <trkpt lat="48.3758" lon="2.76627">
        <ele>97</ele>
        <time>2018-08-26T13:40:41Z</time>
      </trkpt>
      <trkpt lat="48.37577" lon="2.7665">
        <ele>97</ele>
        <time>2018-08-26T13:40:53Z</time>
      </trkpt>
      <trkpt lat="48.37575" lon="2.76657">
        <ele>97</ele>
        <time>2018-08-26T13:40:58Z</time>
      </trkpt>
      <trkpt lat="48.37574" lon="2.76681">
        <ele>97</ele>
        <time>2018-08-26T13:41:11Z</time>
      </trkpt>
      <trkpt lat="48.37578" lon="2.76703">
        <ele>97</ele>
        <time>2018-08-26T13:41:22Z</time>
      </trkpt>
      <trkpt lat="48.37596" lon="2.76741">
        <ele>97</ele>
        <time>2018-08-26T13:41:46Z</time>
      </trkpt>
      <trkpt lat="48.37597" lon="2.76749">
        <ele>97</ele>
        <time>2018-08-26T13:41:50Z</time>
      </trkpt>
      <trkpt lat="48.37599" lon="2.76759">
        <ele>98</ele>
        <time>2018-08-26T13:41:59Z</time>
      </trkpt>
      <trkpt lat="48.37596" lon="2.76767">
        <ele>98</ele>
        <time>2018-08-26T13:44:03Z</time>
      </trkpt>
      <trkpt lat="48.37595" lon="2.76774">
        <ele>99</ele>
        <time>2018-08-26T13:45:55Z</time>
      </trkpt>
      <trkpt lat="48.37589" lon="2.76776">
        <ele>98</ele>
        <time>2018-08-26T13:50:13Z</time>
      </trkpt>
      <trkpt lat="48.37574" lon="2.76782">
        <ele>97</ele>
        <time>2018-08-26T13:50:27Z</time>
      </trkpt>
      <trkpt lat="48.3757" lon="2.76787">
        <ele>97</ele>
        <time>2018-08-26T13:50:31Z</time>
      </trkpt>
      <trkpt lat="48.37565" lon="2.76789">
        <ele>97</ele>
        <time>2018-08-26T13:50:35Z</time>
      </trkpt>
      <trkpt lat="48.37559" lon="2.768">
        <ele>97</ele>
        <time>2018-08-26T13:50:44Z</time>
      </trkpt>
      <trkpt lat="48.37558" lon="2.76808">
        <ele>97</ele>
        <time>2018-08-26T13:50:49Z</time>
      </trkpt>
      <trkpt lat="48.37554" lon="2.76822">
        <ele>98</ele>
        <time>2018-08-26T13:50:58Z</time>
      </trkpt>
      <trkpt lat="48.37554" lon="2.76831">
        <ele>98</ele>
        <time>2018-08-26T13:51:02Z</time>
      </trkpt>
      <trkpt lat="48.37546" lon="2.7688">
        <ele>97</ele>
        <time>2018-08-26T13:51:31Z</time>
      </trkpt>
      <trkpt lat="48.37546" lon="2.76889">
        <ele>97</ele>
        <time>2018-08-26T13:51:35Z</time>
      </trkpt>
      <trkpt lat="48.37535" lon="2.76951">
        <ele>96</ele>
        <time>2018-08-26T13:52:09Z</time>
      </trkpt>
      <trkpt lat="48.37535" lon="2.76959">
        <ele>96</ele>
        <time>2018-08-26T13:52:13Z</time>
      </trkpt>
      <trkpt lat="48.37533" lon="2.76966">
        <ele>96</ele>
        <time>2018-08-26T13:52:17Z</time>
      </trkpt>
      <trkpt lat="48.37534" lon="2.7698">
        <ele>96</ele>
        <time>2018-08-26T13:52:25Z</time>
      </trkpt>
      <trkpt lat="48.37528" lon="2.76993">
        <ele>96</ele>
        <time>2018-08-26T13:52:33Z</time>
      </trkpt>
      <trkpt lat="48.37522" lon="2.77022">
        <ele>96</ele>
        <time>2018-08-26T13:52:49Z</time>
      </trkpt>
      <trkpt lat="48.37522" lon="2.7706">
        <ele>96</ele>
        <time>2018-08-26T13:53:08Z</time>
      </trkpt>
      <trkpt lat="48.3752" lon="2.77068">
        <ele>96</ele>
        <time>2018-08-26T13:53:13Z</time>
      </trkpt>
      <trkpt lat="48.3752" lon="2.77083">
        <ele>96</ele>
        <time>2018-08-26T13:53:22Z</time>
      </trkpt>
      <trkpt lat="48.37511" lon="2.77131">
        <ele>97</ele>
        <time>2018-08-26T13:53:47Z</time>
      </trkpt>
      <trkpt lat="48.37506" lon="2.77144">
        <ele>97</ele>
        <time>2018-08-26T13:53:54Z</time>
      </trkpt>
      <trkpt lat="48.37503" lon="2.77175">
        <ele>96</ele>
        <time>2018-08-26T13:54:08Z</time>
      </trkpt>
      <trkpt lat="48.375" lon="2.77189">
        <ele>96</ele>
        <time>2018-08-26T13:54:16Z</time>
      </trkpt>
      <trkpt lat="48.37499" lon="2.77219">
        <ele>96</ele>
        <time>2018-08-26T13:54:31Z</time>
      </trkpt>
      <trkpt lat="48.37497" lon="2.77234">
        <ele>96</ele>
        <time>2018-08-26T13:54:40Z</time>
      </trkpt>
      <trkpt lat="48.37487" lon="2.77247">
        <ele>96</ele>
        <time>2018-08-26T13:54:53Z</time>
      </trkpt>
      <trkpt lat="48.37478" lon="2.77251">
        <ele>96</ele>
        <time>2018-08-26T13:55:00Z</time>
      </trkpt>
      <trkpt lat="48.37463" lon="2.77258">
        <ele>95</ele>
        <time>2018-08-26T13:55:10Z</time>
      </trkpt>
      <trkpt lat="48.37451" lon="2.77255">
        <ele>96</ele>
        <time>2018-08-26T13:55:20Z</time>
      </trkpt>
      <trkpt lat="48.37436" lon="2.77255">
        <ele>96</ele>
        <time>2018-08-26T13:55:32Z</time>
      </trkpt>
      <trkpt lat="48.37426" lon="2.77254">
        <ele>96</ele>
        <time>2018-08-26T13:55:40Z</time>
      </trkpt>
      <trkpt lat="48.37416" lon="2.77256">
        <ele>96</ele>
        <time>2018-08-26T13:55:47Z</time>
      </trkpt>
      <trkpt lat="48.3738" lon="2.77251">
        <ele>96</ele>
        <time>2018-08-26T13:56:21Z</time>
      </trkpt>
      <trkpt lat="48.3735" lon="2.7725">
        <ele>96</ele>
        <time>2018-08-26T13:56:42Z</time>
      </trkpt>
      <trkpt lat="48.37338" lon="2.77246">
        <ele>96</ele>
        <time>2018-08-26T13:56:50Z</time>
      </trkpt>
      <trkpt lat="48.37328" lon="2.77247">
        <ele>96</ele>
        <time>2018-08-26T13:56:57Z</time>
      </trkpt>
      <trkpt lat="48.37323" lon="2.7725">
        <ele>96</ele>
        <time>2018-08-26T13:57:01Z</time>
      </trkpt>
      <trkpt lat="48.37317" lon="2.77251">
        <ele>96</ele>
        <time>2018-08-26T13:57:04Z</time>
      </trkpt>
      <trkpt lat="48.37297" lon="2.77247">
        <ele>96</ele>
        <time>2018-08-26T13:57:26Z</time>
      </trkpt>
      <trkpt lat="48.37292" lon="2.77248">
        <ele>96</ele>
        <time>2018-08-26T13:57:31Z</time>
      </trkpt>
      <trkpt lat="48.37259" lon="2.77243">
        <ele>97</ele>
        <time>2018-08-26T13:58:05Z</time>
      </trkpt>
      <trkpt lat="48.37237" lon="2.77239">
        <ele>97</ele>
        <time>2018-08-26T13:58:26Z</time>
      </trkpt>
      <trkpt lat="48.37225" lon="2.77244">
        <ele>97</ele>
        <time>2018-08-26T13:58:35Z</time>
      </trkpt>
      <trkpt lat="48.37186" lon="2.77242">
        <ele>98</ele>
        <time>2018-08-26T13:59:08Z</time>
      </trkpt>
      <trkpt lat="48.37176" lon="2.77242">
        <ele>97</ele>
        <time>2018-08-26T13:59:14Z</time>
      </trkpt>
      <trkpt lat="48.37171" lon="2.77241">
        <ele>97</ele>
        <time>2018-08-26T13:59:18Z</time>
      </trkpt>
      <trkpt lat="48.37154" lon="2.77239">
        <ele>96</ele>
        <time>2018-08-26T13:59:27Z</time>
      </trkpt>
      <trkpt lat="48.37148" lon="2.7724">
        <ele>97</ele>
        <time>2018-08-26T13:59:30Z</time>
      </trkpt>
      <trkpt lat="48.37144" lon="2.77236">
        <ele>97</ele>
        <time>2018-08-26T13:59:33Z</time>
      </trkpt>
      <trkpt lat="48.3714" lon="2.77234">
        <ele>97</ele>
        <time>2018-08-26T13:59:37Z</time>
      </trkpt>
      <trkpt lat="48.37135" lon="2.77231">
        <ele>96</ele>
        <time>2018-08-26T13:59:44Z</time>
      </trkpt>
      <trkpt lat="48.37128" lon="2.7723">
        <ele>96</ele>
        <time>2018-08-26T13:59:50Z</time>
      </trkpt>
      <trkpt lat="48.37117" lon="2.77227">
        <ele>96</ele>
        <time>2018-08-26T13:59:58Z</time>
      </trkpt>
      <trkpt lat="48.37112" lon="2.77223">
        <ele>96</ele>
        <time>2018-08-26T14:00:03Z</time>
      </trkpt>
      <trkpt lat="48.37108" lon="2.77222">
        <ele>95</ele>
        <time>2018-08-26T14:00:07Z</time>
      </trkpt>
      <trkpt lat="48.37102" lon="2.77222">
        <ele>95</ele>
        <time>2018-08-26T14:00:10Z</time>
      </trkpt>
      <trkpt lat="48.37096" lon="2.77226">
        <ele>95</ele>
        <time>2018-08-26T14:00:14Z</time>
      </trkpt>
      <trkpt lat="48.37092" lon="2.77228">
        <ele>95</ele>
        <time>2018-08-26T14:00:17Z</time>
      </trkpt>
      <trkpt lat="48.37072" lon="2.77223">
        <ele>96</ele>
        <time>2018-08-26T14:00:33Z</time>
      </trkpt>
      <trkpt lat="48.37061" lon="2.77219">
        <ele>95</ele>
        <time>2018-08-26T14:00:41Z</time>
      </trkpt>
      <trkpt lat="48.37055" lon="2.77218">
        <ele>95</ele>
        <time>2018-08-26T14:00:45Z</time>
      </trkpt>
      <trkpt lat="48.3705" lon="2.77217">
        <ele>95</ele>
        <time>2018-08-26T14:00:49Z</time>
      </trkpt>
      <trkpt lat="48.37046" lon="2.77217">
        <ele>95</ele>
        <time>2018-08-26T14:00:54Z</time>
      </trkpt>
      <trkpt lat="48.37041" lon="2.77218">
        <ele>94</ele>
        <time>2018-08-26T14:01:02Z</time>
      </trkpt>
      <trkpt lat="48.37036" lon="2.7722">
        <ele>94</ele>
        <time>2018-08-26T14:01:06Z</time>
      </trkpt>
      <trkpt lat="48.3703" lon="2.77221">
        <ele>94</ele>
        <time>2018-08-26T14:01:11Z</time>
      </trkpt>
      <trkpt lat="48.36996" lon="2.77215">
        <ele>97</ele>
        <time>2018-08-26T14:01:47Z</time>
      </trkpt>
      <trkpt lat="48.36992" lon="2.77216">
        <ele>97</ele>
        <time>2018-08-26T14:01:50Z</time>
      </trkpt>
      <trkpt lat="48.36989" lon="2.77223">
        <ele>96</ele>
        <time>2018-08-26T14:03:06Z</time>
      </trkpt>
      <trkpt lat="48.36995" lon="2.77232">
        <ele>95</ele>
        <time>2018-08-26T14:03:15Z</time>
      </trkpt>
      <trkpt lat="48.36996" lon="2.7725">
        <ele>95</ele>
        <time>2018-08-26T14:03:24Z</time>
      </trkpt>
      <trkpt lat="48.37003" lon="2.77279">
        <ele>95</ele>
        <time>2018-08-26T14:03:41Z</time>
      </trkpt>
      <trkpt lat="48.37004" lon="2.77294">
        <ele>95</ele>
        <time>2018-08-26T14:03:47Z</time>
      </trkpt>
      <trkpt lat="48.37005" lon="2.77301">
        <ele>95</ele>
        <time>2018-08-26T14:03:50Z</time>
      </trkpt>
      <trkpt lat="48.37009" lon="2.77307">
        <ele>95</ele>
        <time>2018-08-26T14:03:54Z</time>
      </trkpt>
      <trkpt lat="48.3701" lon="2.77315">
        <ele>95</ele>
        <time>2018-08-26T14:03:59Z</time>
      </trkpt>
      <trkpt lat="48.37013" lon="2.77323">
        <ele>95</ele>
        <time>2018-08-26T14:04:03Z</time>
      </trkpt>
      <trkpt lat="48.37017" lon="2.77337">
        <ele>95</ele>
        <time>2018-08-26T14:04:11Z</time>
      </trkpt>
      <trkpt lat="48.37022" lon="2.77344">
        <ele>95</ele>
        <time>2018-08-26T14:04:16Z</time>
      </trkpt>
      <trkpt lat="48.37024" lon="2.77349">
        <ele>96</ele>
        <time>2018-08-26T14:04:21Z</time>
      </trkpt>
      <trkpt lat="48.37028" lon="2.77364">
        <ele>96</ele>
        <time>2018-08-26T14:04:32Z</time>
      </trkpt>
      <trkpt lat="48.37029" lon="2.77375">
        <ele>96</ele>
        <time>2018-08-26T14:04:38Z</time>
      </trkpt>
      <trkpt lat="48.37029" lon="2.77383">
        <ele>96</ele>
        <time>2018-08-26T14:04:42Z</time>
      </trkpt>
      <trkpt lat="48.37031" lon="2.77389">
        <ele>95</ele>
        <time>2018-08-26T14:04:46Z</time>
      </trkpt>
      <trkpt lat="48.3703" lon="2.77399">
        <ele>95</ele>
        <time>2018-08-26T14:04:51Z</time>
      </trkpt>
      <trkpt lat="48.37036" lon="2.77411">
        <ele>96</ele>
        <time>2018-08-26T14:04:58Z</time>
      </trkpt>
      <trkpt lat="48.37043" lon="2.77435">
        <ele>97</ele>
        <time>2018-08-26T14:05:12Z</time>
      </trkpt>
      <trkpt lat="48.37041" lon="2.77448">
        <ele>97</ele>
        <time>2018-08-26T14:05:18Z</time>
      </trkpt>
      <trkpt lat="48.37045" lon="2.77483">
        <ele>98</ele>
        <time>2018-08-26T14:05:37Z</time>
      </trkpt>
      <trkpt lat="48.37047" lon="2.77489">
        <ele>98</ele>
        <time>2018-08-26T14:05:40Z</time>
      </trkpt>
      <trkpt lat="48.37046" lon="2.77503">
        <ele>98</ele>
        <time>2018-08-26T14:05:48Z</time>
      </trkpt>
      <trkpt lat="48.37058" lon="2.77529">
        <ele>98</ele>
        <time>2018-08-26T14:06:02Z</time>
      </trkpt>
      <trkpt lat="48.37061" lon="2.77536">
        <ele>98</ele>
        <time>2018-08-26T14:06:05Z</time>
      </trkpt>
      <trkpt lat="48.37062" lon="2.77544">
        <ele>98</ele>
        <time>2018-08-26T14:06:09Z</time>
      </trkpt>
      <trkpt lat="48.37062" lon="2.77569">
        <ele>97</ele>
        <time>2018-08-26T14:06:21Z</time>
      </trkpt>
      <trkpt lat="48.37064" lon="2.77577">
        <ele>97</ele>
        <time>2018-08-26T14:06:25Z</time>
      </trkpt>
      <trkpt lat="48.37063" lon="2.77585">
        <ele>96</ele>
        <time>2018-08-26T14:06:29Z</time>
      </trkpt>
      <trkpt lat="48.37062" lon="2.77592">
        <ele>96</ele>
        <time>2018-08-26T14:06:33Z</time>
      </trkpt>
      <trkpt lat="48.37062" lon="2.77599">
        <ele>96</ele>
        <time>2018-08-26T14:06:37Z</time>
      </trkpt>
      <trkpt lat="48.37063" lon="2.77616">
        <ele>96</ele>
        <time>2018-08-26T14:06:46Z</time>
      </trkpt>
      <trkpt lat="48.37069" lon="2.77669">
        <ele>97</ele>
        <time>2018-08-26T14:07:16Z</time>
      </trkpt>
      <trkpt lat="48.37072" lon="2.77687">
        <ele>97</ele>
        <time>2018-08-26T14:07:28Z</time>
      </trkpt>
      <trkpt lat="48.37074" lon="2.77702">
        <ele>97</ele>
        <time>2018-08-26T14:07:36Z</time>
      </trkpt>
      <trkpt lat="48.37079" lon="2.77732">
        <ele>99</ele>
        <time>2018-08-26T14:07:55Z</time>
      </trkpt>
      <trkpt lat="48.3708" lon="2.77747">
        <ele>99</ele>
        <time>2018-08-26T14:08:03Z</time>
      </trkpt>
      <trkpt lat="48.37083" lon="2.77763">
        <ele>98</ele>
        <time>2018-08-26T14:08:10Z</time>
      </trkpt>
      <trkpt lat="48.37081" lon="2.77785">
        <ele>98</ele>
        <time>2018-08-26T14:08:22Z</time>
      </trkpt>
      <trkpt lat="48.3709" lon="2.77832">
        <ele>98</ele>
        <time>2018-08-26T14:08:46Z</time>
      </trkpt>
      <trkpt lat="48.37097" lon="2.77844">
        <ele>97</ele>
        <time>2018-08-26T14:08:54Z</time>
      </trkpt>
      <trkpt lat="48.37098" lon="2.77861">
        <ele>97</ele>
        <time>2018-08-26T14:09:03Z</time>
      </trkpt>
      <trkpt lat="48.371" lon="2.77868">
        <ele>97</ele>
        <time>2018-08-26T14:09:07Z</time>
      </trkpt>
      <trkpt lat="48.37105" lon="2.7789">
        <ele>97</ele>
        <time>2018-08-26T14:09:19Z</time>
      </trkpt>
      <trkpt lat="48.37106" lon="2.77898">
        <ele>98</ele>
        <time>2018-08-26T14:09:24Z</time>
      </trkpt>
      <trkpt lat="48.37108" lon="2.77906">
        <ele>98</ele>
        <time>2018-08-26T14:09:30Z</time>
      </trkpt>
      <trkpt lat="48.37116" lon="2.77933">
        <ele>97</ele>
        <time>2018-08-26T14:09:45Z</time>
      </trkpt>
      <trkpt lat="48.37125" lon="2.77969">
        <ele>97</ele>
        <time>2018-08-26T14:10:03Z</time>
      </trkpt>
      <trkpt lat="48.37135" lon="2.77995">
        <ele>97</ele>
        <time>2018-08-26T14:10:20Z</time>
      </trkpt>
      <trkpt lat="48.37136" lon="2.78004">
        <ele>98</ele>
        <time>2018-08-26T14:10:25Z</time>
      </trkpt>
      <trkpt lat="48.3714" lon="2.78012">
        <ele>98</ele>
        <time>2018-08-26T14:10:30Z</time>
      </trkpt>
      <trkpt lat="48.37139" lon="2.7802">
        <ele>97</ele>
        <time>2018-08-26T14:10:33Z</time>
      </trkpt>
      <trkpt lat="48.37144" lon="2.78044">
        <ele>98</ele>
        <time>2018-08-26T14:10:43Z</time>
      </trkpt>
      <trkpt lat="48.37148" lon="2.78059">
        <ele>97</ele>
        <time>2018-08-26T14:10:52Z</time>
      </trkpt>
      <trkpt lat="48.37149" lon="2.78067">
        <ele>98</ele>
        <time>2018-08-26T14:10:57Z</time>
      </trkpt>
      <trkpt lat="48.3715" lon="2.78082">
        <ele>97</ele>
        <time>2018-08-26T14:11:05Z</time>
      </trkpt>
      <trkpt lat="48.37155" lon="2.78105">
        <ele>97</ele>
        <time>2018-08-26T14:11:20Z</time>
      </trkpt>
      <trkpt lat="48.37154" lon="2.78112">
        <ele>97</ele>
        <time>2018-08-26T14:11:24Z</time>
      </trkpt>
      <trkpt lat="48.37156" lon="2.7812">
        <ele>97</ele>
        <time>2018-08-26T14:11:28Z</time>
      </trkpt>
      <trkpt lat="48.37158" lon="2.78129">
        <ele>97</ele>
        <time>2018-08-26T14:11:35Z</time>
      </trkpt>
      <trkpt lat="48.3716" lon="2.78135">
        <ele>97</ele>
        <time>2018-08-26T14:11:38Z</time>
      </trkpt>
      <trkpt lat="48.37164" lon="2.78148">
        <ele>97</ele>
        <time>2018-08-26T14:11:45Z</time>
      </trkpt>
      <trkpt lat="48.37169" lon="2.78176">
        <ele>97</ele>
        <time>2018-08-26T14:11:59Z</time>
      </trkpt>
      <trkpt lat="48.3719" lon="2.78232">
        <ele>97</ele>
        <time>2018-08-26T14:12:31Z</time>
      </trkpt>
      <trkpt lat="48.37191" lon="2.78239">
        <ele>97</ele>
        <time>2018-08-26T14:12:36Z</time>
      </trkpt>
      <trkpt lat="48.3721" lon="2.78291">
        <ele>96</ele>
        <time>2018-08-26T14:13:07Z</time>
      </trkpt>
      <trkpt lat="48.37216" lon="2.78292">
        <ele>97</ele>
        <time>2018-08-26T14:13:11Z</time>
      </trkpt>
      <trkpt lat="48.3722" lon="2.78298">
        <ele>97</ele>
        <time>2018-08-26T14:13:16Z</time>
      </trkpt>
      <trkpt lat="48.37245" lon="2.78344">
        <ele>98</ele>
        <time>2018-08-26T14:13:49Z</time>
      </trkpt>
      <trkpt lat="48.37257" lon="2.78363">
        <ele>99</ele>
        <time>2018-08-26T14:14:02Z</time>
      </trkpt>
      <trkpt lat="48.37267" lon="2.78391">
        <ele>100</ele>
        <time>2018-08-26T14:14:16Z</time>
      </trkpt>
      <trkpt lat="48.37283" lon="2.78447">
        <ele>99</ele>
        <time>2018-08-26T14:14:45Z</time>
      </trkpt>
      <trkpt lat="48.37287" lon="2.78477">
        <ele>98</ele>
        <time>2018-08-26T14:15:03Z</time>
      </trkpt>
      <trkpt lat="48.37293" lon="2.78528">
        <ele>98</ele>
        <time>2018-08-26T14:15:28Z</time>
      </trkpt>
      <trkpt lat="48.37299" lon="2.78552">
        <ele>99</ele>
        <time>2018-08-26T14:15:42Z</time>
      </trkpt>
      <trkpt lat="48.37304" lon="2.7858">
        <ele>98</ele>
        <time>2018-08-26T14:16:01Z</time>
      </trkpt>
      <trkpt lat="48.3731" lon="2.78611">
        <ele>99</ele>
        <time>2018-08-26T14:16:16Z</time>
      </trkpt>
      <trkpt lat="48.37312" lon="2.78617">
        <ele>99</ele>
        <time>2018-08-26T14:16:20Z</time>
      </trkpt>
      <trkpt lat="48.37315" lon="2.78623">
        <ele>99</ele>
        <time>2018-08-26T14:16:24Z</time>
      </trkpt>
      <trkpt lat="48.3733" lon="2.78684">
        <ele>99</ele>
        <time>2018-08-26T14:16:55Z</time>
      </trkpt>
      <trkpt lat="48.37343" lon="2.78726">
        <ele>99</ele>
        <time>2018-08-26T14:17:16Z</time>
      </trkpt>
      <trkpt lat="48.37344" lon="2.78733">
        <ele>99</ele>
        <time>2018-08-26T14:17:19Z</time>
      </trkpt>
      <trkpt lat="48.37343" lon="2.78741">
        <ele>99</ele>
        <time>2018-08-26T14:17:23Z</time>
      </trkpt>
      <trkpt lat="48.37336" lon="2.78753">
        <ele>97</ele>
        <time>2018-08-26T14:17:32Z</time>
      </trkpt>
      <trkpt lat="48.37343" lon="2.78766">
        <ele>97</ele>
        <time>2018-08-26T14:17:48Z</time>
      </trkpt>
      <trkpt lat="48.37346" lon="2.7877">
        <ele>97</ele>
        <time>2018-08-26T14:17:50Z</time>
      </trkpt>
      <trkpt lat="48.37348" lon="2.78778">
        <ele>97</ele>
        <time>2018-08-26T14:17:53Z</time>
      </trkpt>
      <trkpt lat="48.3735" lon="2.78785">
        <ele>99</ele>
        <time>2018-08-26T14:17:57Z</time>
      </trkpt>
      <trkpt lat="48.37355" lon="2.78785">
        <ele>100</ele>
        <time>2018-08-26T14:18:05Z</time>
      </trkpt>
      <trkpt lat="48.37359" lon="2.7879">
        <ele>100</ele>
        <time>2018-08-26T14:18:09Z</time>
      </trkpt>
      <trkpt lat="48.37363" lon="2.78796">
        <ele>100</ele>
        <time>2018-08-26T14:18:13Z</time>
      </trkpt>
      <trkpt lat="48.37367" lon="2.78803">
        <ele>100</ele>
        <time>2018-08-26T14:18:17Z</time>
      </trkpt>
      <trkpt lat="48.37376" lon="2.78812">
        <ele>100</ele>
        <time>2018-08-26T14:18:25Z</time>
      </trkpt>
      <trkpt lat="48.37382" lon="2.78825">
        <ele>99</ele>
        <time>2018-08-26T14:18:33Z</time>
      </trkpt>
      <trkpt lat="48.37407" lon="2.78867">
        <ele>99</ele>
        <time>2018-08-26T14:19:03Z</time>
      </trkpt>
      <trkpt lat="48.37412" lon="2.78872">
        <ele>98</ele>
        <time>2018-08-26T14:19:07Z</time>
      </trkpt>
      <trkpt lat="48.37415" lon="2.78877">
        <ele>98</ele>
        <time>2018-08-26T14:19:12Z</time>
      </trkpt>
      <trkpt lat="48.37418" lon="2.78883">
        <ele>98</ele>
        <time>2018-08-26T14:19:16Z</time>
      </trkpt>
      <trkpt lat="48.37421" lon="2.78889">
        <ele>98</ele>
        <time>2018-08-26T14:19:20Z</time>
      </trkpt>
      <trkpt lat="48.37449" lon="2.78937">
        <ele>98</ele>
        <time>2018-08-26T14:19:53Z</time>
      </trkpt>
      <trkpt lat="48.37458" lon="2.7895">
        <ele>97</ele>
        <time>2018-08-26T14:20:03Z</time>
      </trkpt>
      <trkpt lat="48.37461" lon="2.78956">
        <ele>97</ele>
        <time>2018-08-26T14:20:07Z</time>
      </trkpt>
      <trkpt lat="48.37465" lon="2.78962">
        <ele>97</ele>
        <time>2018-08-26T14:20:11Z</time>
      </trkpt>
      <trkpt lat="48.37476" lon="2.78978">
        <ele>97</ele>
        <time>2018-08-26T14:20:23Z</time>
      </trkpt>
      <trkpt lat="48.37479" lon="2.78984">
        <ele>97</ele>
        <time>2018-08-26T14:20:27Z</time>
      </trkpt>
      <trkpt lat="48.37484" lon="2.78997">
        <ele>97</ele>
        <time>2018-08-26T14:20:35Z</time>
      </trkpt>
      <trkpt lat="48.37495" lon="2.79012">
        <ele>97</ele>
        <time>2018-08-26T14:20:46Z</time>
      </trkpt>
      <trkpt lat="48.375" lon="2.79026">
        <ele>97</ele>
        <time>2018-08-26T14:20:54Z</time>
      </trkpt>
      <trkpt lat="48.37505" lon="2.79028">
        <ele>96</ele>
        <time>2018-08-26T14:20:58Z</time>
      </trkpt>
      <trkpt lat="48.37509" lon="2.79033">
        <ele>96</ele>
        <time>2018-08-26T14:21:02Z</time>
      </trkpt>
      <trkpt lat="48.37538" lon="2.7908">
        <ele>95</ele>
        <time>2018-08-26T14:21:30Z</time>
      </trkpt>
      <trkpt lat="48.37544" lon="2.79088">
        <ele>94</ele>
        <time>2018-08-26T14:21:37Z</time>
      </trkpt>
      <trkpt lat="48.37545" lon="2.79095">
        <ele>94</ele>
        <time>2018-08-26T14:21:42Z</time>
      </trkpt>
      <trkpt lat="48.37555" lon="2.79112">
        <ele>93</ele>
        <time>2018-08-26T14:21:54Z</time>
      </trkpt>
      <trkpt lat="48.37556" lon="2.79119">
        <ele>93</ele>
        <time>2018-08-26T14:21:59Z</time>
      </trkpt>
      <trkpt lat="48.37551" lon="2.79124">
        <ele>93</ele>
        <time>2018-08-26T14:22:03Z</time>
      </trkpt>
      <trkpt lat="48.37539" lon="2.79149">
        <ele>93</ele>
        <time>2018-08-26T14:22:17Z</time>
      </trkpt>
      <trkpt lat="48.37537" lon="2.79155">
        <ele>93</ele>
        <time>2018-08-26T14:22:21Z</time>
      </trkpt>
      <trkpt lat="48.37538" lon="2.79164">
        <ele>93</ele>
        <time>2018-08-26T14:22:26Z</time>
      </trkpt>
      <trkpt lat="48.37544" lon="2.79179">
        <ele>93</ele>
        <time>2018-08-26T14:22:36Z</time>
      </trkpt>
      <trkpt lat="48.37545" lon="2.79186">
        <ele>93</ele>
        <time>2018-08-26T14:22:40Z</time>
      </trkpt>
      <trkpt lat="48.37544" lon="2.79194">
        <ele>93</ele>
        <time>2018-08-26T14:22:44Z</time>
      </trkpt>
      <trkpt lat="48.37542" lon="2.79199">
        <ele>93</ele>
        <time>2018-08-26T14:22:49Z</time>
      </trkpt>
      <trkpt lat="48.37547" lon="2.79203">
        <ele>93</ele>
        <time>2018-08-26T14:23:14Z</time>
      </trkpt>
      <trkpt lat="48.37551" lon="2.79207">
        <ele>93</ele>
        <time>2018-08-26T14:23:45Z</time>
      </trkpt>
      <trkpt lat="48.37556" lon="2.79213">
        <ele>93</ele>
        <time>2018-08-26T14:23:50Z</time>
      </trkpt>
      <trkpt lat="48.3756" lon="2.79218">
        <ele>93</ele>
        <time>2018-08-26T14:23:55Z</time>
      </trkpt>
      <trkpt lat="48.37563" lon="2.79224">
        <ele>93</ele>
        <time>2018-08-26T14:24:00Z</time>
      </trkpt>
      <trkpt lat="48.37569" lon="2.79236">
        <ele>93</ele>
        <time>2018-08-26T14:24:07Z</time>
      </trkpt>
      <trkpt lat="48.37573" lon="2.7924">
        <ele>93</ele>
        <time>2018-08-26T14:24:10Z</time>
      </trkpt>
      <trkpt lat="48.37584" lon="2.79259">
        <ele>93</ele>
        <time>2018-08-26T14:24:24Z</time>
      </trkpt>
      <trkpt lat="48.37588" lon="2.79264">
        <ele>93</ele>
        <time>2018-08-26T14:24:28Z</time>
      </trkpt>
      <trkpt lat="48.37592" lon="2.7927">
        <ele>93</ele>
        <time>2018-08-26T14:24:32Z</time>
      </trkpt>
      <trkpt lat="48.37593" lon="2.79278">
        <ele>92</ele>
        <time>2018-08-26T14:24:36Z</time>
      </trkpt>
      <trkpt lat="48.37596" lon="2.79283">
        <ele>93</ele>
        <time>2018-08-26T14:24:40Z</time>
      </trkpt>
      <trkpt lat="48.37599" lon="2.79292">
        <ele>92</ele>
        <time>2018-08-26T14:24:44Z</time>
      </trkpt>
      <trkpt lat="48.37603" lon="2.79297">
        <ele>92</ele>
        <time>2018-08-26T14:24:49Z</time>
      </trkpt>
      <trkpt lat="48.37621" lon="2.79311">
        <ele>92</ele>
        <time>2018-08-26T14:25:04Z</time>
      </trkpt>
      <trkpt lat="48.37626" lon="2.79309">
        <ele>91</ele>
        <time>2018-08-26T14:25:08Z</time>
      </trkpt>
      <trkpt lat="48.37631" lon="2.79312">
        <ele>91</ele>
        <time>2018-08-26T14:25:12Z</time>
      </trkpt>
      <trkpt lat="48.37645" lon="2.79326">
        <ele>91</ele>
        <time>2018-08-26T14:25:23Z</time>
      </trkpt>
      <trkpt lat="48.37649" lon="2.79332">
        <ele>91</ele>
        <time>2018-08-26T14:25:26Z</time>
      </trkpt>
      <trkpt lat="48.37651" lon="2.79339">
        <ele>91</ele>
        <time>2018-08-26T14:25:29Z</time>
      </trkpt>
      <trkpt lat="48.37655" lon="2.79343">
        <ele>90</ele>
        <time>2018-08-26T14:25:32Z</time>
      </trkpt>
      <trkpt lat="48.3766" lon="2.79355">
        <ele>90</ele>
        <time>2018-08-26T14:25:39Z</time>
      </trkpt>
      <trkpt lat="48.37665" lon="2.79356">
        <ele>90</ele>
        <time>2018-08-26T14:25:42Z</time>
      </trkpt>
      <trkpt lat="48.3767" lon="2.79355">
        <ele>90</ele>
        <time>2018-08-26T14:25:45Z</time>
      </trkpt>
      <trkpt lat="48.37675" lon="2.79358">
        <ele>90</ele>
        <time>2018-08-26T14:25:48Z</time>
      </trkpt>
      <trkpt lat="48.3768" lon="2.7937">
        <ele>90</ele>
        <time>2018-08-26T14:25:54Z</time>
      </trkpt>
      <trkpt lat="48.37686" lon="2.79373">
        <ele>89</ele>
        <time>2018-08-26T14:25:58Z</time>
      </trkpt>
      <trkpt lat="48.37691" lon="2.79385">
        <ele>89</ele>
        <time>2018-08-26T14:26:06Z</time>
      </trkpt>
      <trkpt lat="48.37694" lon="2.79387">
        <ele>88</ele>
        <time>2018-08-26T14:28:27Z</time>
      </trkpt>
      <trkpt lat="48.37698" lon="2.79394">
        <ele>88</ele>
        <time>2018-08-26T14:28:33Z</time>
      </trkpt>
      <trkpt lat="48.37712" lon="2.79404">
        <ele>88</ele>
        <time>2018-08-26T14:28:47Z</time>
      </trkpt>
      <trkpt lat="48.37711" lon="2.79429">
        <ele>88</ele>
        <time>2018-08-26T14:29:05Z</time>
      </trkpt>
      <trkpt lat="48.37712" lon="2.79436">
        <ele>88</ele>
        <time>2018-08-26T14:29:09Z</time>
      </trkpt>
      <trkpt lat="48.37714" lon="2.79443">
        <ele>88</ele>
        <time>2018-08-26T14:29:13Z</time>
      </trkpt>
      <trkpt lat="48.37723" lon="2.79456">
        <ele>88</ele>
        <time>2018-08-26T14:29:26Z</time>
      </trkpt>
      <trkpt lat="48.37739" lon="2.79472">
        <ele>87</ele>
        <time>2018-08-26T14:29:47Z</time>
      </trkpt>
      <trkpt lat="48.37753" lon="2.79478">
        <ele>87</ele>
        <time>2018-08-26T14:29:56Z</time>
      </trkpt>
      <trkpt lat="48.3776" lon="2.79486">
        <ele>87</ele>
        <time>2018-08-26T14:30:04Z</time>
      </trkpt>
      <trkpt lat="48.37768" lon="2.79497">
        <ele>87</ele>
        <time>2018-08-26T14:30:13Z</time>
      </trkpt>
      <trkpt lat="48.37774" lon="2.79501">
        <ele>86</ele>
        <time>2018-08-26T14:30:18Z</time>
      </trkpt>
      <trkpt lat="48.37779" lon="2.79504">
        <ele>86</ele>
        <time>2018-08-26T14:30:22Z</time>
      </trkpt>
      <trkpt lat="48.37786" lon="2.79515">
        <ele>86</ele>
        <time>2018-08-26T14:30:31Z</time>
      </trkpt>
      <trkpt lat="48.37789" lon="2.79522">
        <ele>86</ele>
        <time>2018-08-26T14:30:35Z</time>
      </trkpt>
      <trkpt lat="48.37792" lon="2.79526">
        <ele>86</ele>
        <time>2018-08-26T14:30:39Z</time>
      </trkpt>
      <trkpt lat="48.37803" lon="2.79538">
        <ele>85</ele>
        <time>2018-08-26T14:30:51Z</time>
      </trkpt>
      <trkpt lat="48.37807" lon="2.79542">
        <ele>85</ele>
        <time>2018-08-26T14:30:55Z</time>
      </trkpt>
      <trkpt lat="48.37816" lon="2.79549">
        <ele>85</ele>
        <time>2018-08-26T14:31:04Z</time>
      </trkpt>
      <trkpt lat="48.37819" lon="2.79554">
        <ele>85</ele>
        <time>2018-08-26T14:31:07Z</time>
      </trkpt>
      <trkpt lat="48.37825" lon="2.79567">
        <ele>85</ele>
        <time>2018-08-26T14:31:13Z</time>
      </trkpt>
      <trkpt lat="48.3783" lon="2.7958">
        <ele>84</ele>
        <time>2018-08-26T14:31:21Z</time>
      </trkpt>
      <trkpt lat="48.37841" lon="2.79598">
        <ele>84</ele>
        <time>2018-08-26T14:31:34Z</time>
      </trkpt>
      <trkpt lat="48.3786" lon="2.79623">
        <ele>81</ele>
        <time>2018-08-26T14:31:54Z</time>
      </trkpt>
      <trkpt lat="48.37865" lon="2.79627">
        <ele>81</ele>
        <time>2018-08-26T14:31:58Z</time>
      </trkpt>
      <trkpt lat="48.37869" lon="2.79628">
        <ele>81</ele>
        <time>2018-08-26T14:32:01Z</time>
      </trkpt>
      <trkpt lat="48.37872" lon="2.79634">
        <ele>81</ele>
        <time>2018-08-26T14:32:05Z</time>
      </trkpt>
      <trkpt lat="48.37881" lon="2.79643">
        <ele>80</ele>
        <time>2018-08-26T14:32:15Z</time>
      </trkpt>
      <trkpt lat="48.37884" lon="2.7965">
        <ele>81</ele>
        <time>2018-08-26T14:32:19Z</time>
      </trkpt>
      <trkpt lat="48.3789" lon="2.79656">
        <ele>81</ele>
        <time>2018-08-26T14:32:26Z</time>
      </trkpt>
      <trkpt lat="48.37894" lon="2.79659">
        <ele>81</ele>
        <time>2018-08-26T14:32:30Z</time>
      </trkpt>
      <trkpt lat="48.37897" lon="2.79666">
        <ele>81</ele>
        <time>2018-08-26T14:32:34Z</time>
      </trkpt>
      <trkpt lat="48.37899" lon="2.79672">
        <ele>81</ele>
        <time>2018-08-26T14:32:38Z</time>
      </trkpt>
      <trkpt lat="48.37907" lon="2.79681">
        <ele>81</ele>
        <time>2018-08-26T14:32:46Z</time>
      </trkpt>
      <trkpt lat="48.37929" lon="2.79699">
        <ele>81</ele>
        <time>2018-08-26T14:33:12Z</time>
      </trkpt>
      <trkpt lat="48.37937" lon="2.79707">
        <ele>79</ele>
        <time>2018-08-26T14:33:21Z</time>
      </trkpt>
      <trkpt lat="48.3794" lon="2.79714">
        <ele>78</ele>
        <time>2018-08-26T14:33:26Z</time>
      </trkpt>
      <trkpt lat="48.37927" lon="2.79742">
        <ele>75</ele>
        <time>2018-08-26T14:33:51Z</time>
      </trkpt>
      <trkpt lat="48.37916" lon="2.79771">
        <ele>74</ele>
        <time>2018-08-26T14:34:07Z</time>
      </trkpt>
      <trkpt lat="48.37913" lon="2.79777">
        <ele>74</ele>
        <time>2018-08-26T14:34:11Z</time>
      </trkpt>
      <trkpt lat="48.37909" lon="2.79783">
        <ele>74</ele>
        <time>2018-08-26T14:34:15Z</time>
      </trkpt>
      <trkpt lat="48.37907" lon="2.7979">
        <ele>74</ele>
        <time>2018-08-26T14:34:19Z</time>
      </trkpt>
      <trkpt lat="48.37904" lon="2.79804">
        <ele>73</ele>
        <time>2018-08-26T14:34:28Z</time>
      </trkpt>
      <trkpt lat="48.37903" lon="2.79813">
        <ele>73</ele>
        <time>2018-08-26T14:34:33Z</time>
      </trkpt>
      <trkpt lat="48.379" lon="2.79819">
        <ele>74</ele>
        <time>2018-08-26T14:34:37Z</time>
      </trkpt>
      <trkpt lat="48.37896" lon="2.79844">
        <ele>73</ele>
        <time>2018-08-26T14:34:54Z</time>
      </trkpt>
      <trkpt lat="48.37894" lon="2.79867">
        <ele>73</ele>
        <time>2018-08-26T14:35:07Z</time>
      </trkpt>
      <trkpt lat="48.37892" lon="2.79874">
        <ele>72</ele>
        <time>2018-08-26T14:35:11Z</time>
      </trkpt>
      <trkpt lat="48.37888" lon="2.79881">
        <ele>72</ele>
        <time>2018-08-26T14:35:15Z</time>
      </trkpt>
      <trkpt lat="48.37879" lon="2.79899">
        <ele>72</ele>
        <time>2018-08-26T14:35:26Z</time>
      </trkpt>
      <trkpt lat="48.37878" lon="2.79913">
        <ele>73</ele>
        <time>2018-08-26T14:35:37Z</time>
      </trkpt>
      <trkpt lat="48.37875" lon="2.79923">
        <ele>73</ele>
        <time>2018-08-26T14:35:46Z</time>
      </trkpt>
      <trkpt lat="48.37869" lon="2.79926">
        <ele>73</ele>
        <time>2018-08-26T14:35:55Z</time>
      </trkpt>
      <trkpt lat="48.37859" lon="2.79919">
        <ele>72</ele>
        <time>2018-08-26T14:36:34Z</time>
      </trkpt>
    </trkseg>
  </trk>
</gpx>